<?xml version="1.0" encoding="UTF-8" standalone="no"?><gpx version="1.1" creator="Colorado 300" xmlns:xsi="http://www.w3.org/2001/XMLSchema-instance" xmlns="http://www.topografix.com/GPX/1/1"  xmlns:gpxtpx="http://www.garmin.com/xmlschemas/TrackPointExtension/v1" xmlns:gpxx="http://www.garmin.com/xmlschemas/GpxExtensions/v3" xsi:schemaLocation="http://www.topografix.com/GPX/1/1 http://www.topografix.com/GPX/1/1/gpx.xsd http://www.garmin.com/xmlschemas/GpxExtensions/v3 http://www.garmin.com/xmlschemas/GpxExtensionsv3.xsd http://www.garmin.com/xmlschemas/TrackPointExtension/v1 http://www.garmin.com/xmlschemas/TrackPointExtensionv1.xsd"> <author>Xisco Xavier Jaume</author> <email>xiscox@xmtb.es</email> <url>http://www.xmtb.es</url> <urlname>Xisco Mountain Bike</urlname><time>2010-09-04T16:16:10Z</time><trk><name>Bunyoli, Sobremunt, Fita des Ram, Maristela, Son Malferit</name><trkseg><trkpt lat="39.600278" lon="2.639118"><ele>61.66</ele><time>2010-09-04T06:59:25Z</time></trkpt>
<trkpt lat="39.600248" lon="2.639070"><ele>61.66</ele><time>2010-09-04T06:59:28Z</time></trkpt>
<trkpt lat="39.600248" lon="2.639015"><ele>61.66</ele><time>2010-09-04T06:59:30Z</time></trkpt>
<trkpt lat="39.600072" lon="2.638765"><ele>62.62</ele><time>2010-09-04T06:59:38Z</time></trkpt>
<trkpt lat="39.599877" lon="2.638477"><ele>63.10</ele><time>2010-09-04T06:59:47Z</time></trkpt>
<trkpt lat="39.599814" lon="2.638446"><ele>62.62</ele><time>2010-09-04T06:59:53Z</time></trkpt>
<trkpt lat="39.599757" lon="2.638428"><ele>63.10</ele><time>2010-09-04T07:00:11Z</time></trkpt>
<trkpt lat="39.599694" lon="2.638445"><ele>63.10</ele><time>2010-09-04T07:00:32Z</time></trkpt>
<trkpt lat="39.599698" lon="2.638470"><ele>63.58</ele><time>2010-09-04T07:01:19Z</time></trkpt>
<trkpt lat="39.599771" lon="2.638598"><ele>63.58</ele><time>2010-09-04T07:01:25Z</time></trkpt>
<trkpt lat="39.599876" lon="2.638897"><ele>62.62</ele><time>2010-09-04T07:01:33Z</time></trkpt>
<trkpt lat="39.599933" lon="2.638968"><ele>62.62</ele><time>2010-09-04T07:01:39Z</time></trkpt>
<trkpt lat="39.599843" lon="2.638866"><ele>63.10</ele><time>2010-09-04T07:01:45Z</time></trkpt>
<trkpt lat="39.599691" lon="2.638666"><ele>63.10</ele><time>2010-09-04T07:01:54Z</time></trkpt>
<trkpt lat="39.599623" lon="2.638552"><ele>63.58</ele><time>2010-09-04T07:02:02Z</time></trkpt>
<trkpt lat="39.599576" lon="2.638475"><ele>63.58</ele><time>2010-09-04T07:02:12Z</time></trkpt>
<trkpt lat="39.599570" lon="2.638453"><ele>63.58</ele><time>2010-09-04T07:02:21Z</time></trkpt>
<trkpt lat="39.599579" lon="2.638440"><ele>64.07</ele><time>2010-09-04T07:02:49Z</time></trkpt>
<trkpt lat="39.599581" lon="2.638334"><ele>64.07</ele><time>2010-09-04T07:02:53Z</time></trkpt>
<trkpt lat="39.599808" lon="2.638109"><ele>64.55</ele><time>2010-09-04T07:03:04Z</time></trkpt>
<trkpt lat="39.599973" lon="2.637954"><ele>65.03</ele><time>2010-09-04T07:03:12Z</time></trkpt>
<trkpt lat="39.600186" lon="2.637755"><ele>65.03</ele><time>2010-09-04T07:03:22Z</time></trkpt>
<trkpt lat="39.600349" lon="2.637625"><ele>65.51</ele><time>2010-09-04T07:03:30Z</time></trkpt>
<trkpt lat="39.600563" lon="2.637430"><ele>65.51</ele><time>2010-09-04T07:03:40Z</time></trkpt>
<trkpt lat="39.600635" lon="2.637320"><ele>65.51</ele><time>2010-09-04T07:03:44Z</time></trkpt>
<trkpt lat="39.600946" lon="2.637073"><ele>66.47</ele><time>2010-09-04T07:03:55Z</time></trkpt>
<trkpt lat="39.601445" lon="2.636788"><ele>67.91</ele><time>2010-09-04T07:04:12Z</time></trkpt>
<trkpt lat="39.602041" lon="2.636469"><ele>68.87</ele><time>2010-09-04T07:04:33Z</time></trkpt>
<trkpt lat="39.602561" lon="2.636209"><ele>69.83</ele><time>2010-09-04T07:04:50Z</time></trkpt>
<trkpt lat="39.603016" lon="2.635953"><ele>70.79</ele><time>2010-09-04T07:05:04Z</time></trkpt>
<trkpt lat="39.603457" lon="2.635700"><ele>71.76</ele><time>2010-09-04T07:05:19Z</time></trkpt>
<trkpt lat="39.603735" lon="2.635556"><ele>71.76</ele><time>2010-09-04T07:05:29Z</time></trkpt>
<trkpt lat="39.604112" lon="2.635348"><ele>73.20</ele><time>2010-09-04T07:05:42Z</time></trkpt>
<trkpt lat="39.604592" lon="2.635077"><ele>74.16</ele><time>2010-09-04T07:05:57Z</time></trkpt>
<trkpt lat="39.605102" lon="2.634781"><ele>75.12</ele><time>2010-09-04T07:06:12Z</time></trkpt>
<trkpt lat="39.605736" lon="2.634452"><ele>76.08</ele><time>2010-09-04T07:06:29Z</time></trkpt>
<trkpt lat="39.606103" lon="2.634259"><ele>77.04</ele><time>2010-09-04T07:06:39Z</time></trkpt>
<trkpt lat="39.606594" lon="2.633952"><ele>78.00</ele><time>2010-09-04T07:06:53Z</time></trkpt>
<trkpt lat="39.607102" lon="2.633666"><ele>78.48</ele><time>2010-09-04T07:07:08Z</time></trkpt>
<trkpt lat="39.607693" lon="2.633348"><ele>79.93</ele><time>2010-09-04T07:07:25Z</time></trkpt>
<trkpt lat="39.608182" lon="2.633085"><ele>80.89</ele><time>2010-09-04T07:07:38Z</time></trkpt>
<trkpt lat="39.608803" lon="2.632744"><ele>81.37</ele><time>2010-09-04T07:07:54Z</time></trkpt>
<trkpt lat="39.609294" lon="2.632484"><ele>81.85</ele><time>2010-09-04T07:08:07Z</time></trkpt>
<trkpt lat="39.609840" lon="2.632182"><ele>82.81</ele><time>2010-09-04T07:08:21Z</time></trkpt>
<trkpt lat="39.610664" lon="2.631739"><ele>84.25</ele><time>2010-09-04T07:08:42Z</time></trkpt>
<trkpt lat="39.611226" lon="2.631579"><ele>84.73</ele><time>2010-09-04T07:08:55Z</time></trkpt>
<trkpt lat="39.612017" lon="2.631448"><ele>84.25</ele><time>2010-09-04T07:09:12Z</time></trkpt>
<trkpt lat="39.612705" lon="2.631303"><ele>84.73</ele><time>2010-09-04T07:09:27Z</time></trkpt>
<trkpt lat="39.613286" lon="2.631040"><ele>86.18</ele><time>2010-09-04T07:09:41Z</time></trkpt>
<trkpt lat="39.614028" lon="2.630684"><ele>87.62</ele><time>2010-09-04T07:09:59Z</time></trkpt>
<trkpt lat="39.614745" lon="2.630361"><ele>88.58</ele><time>2010-09-04T07:10:16Z</time></trkpt>
<trkpt lat="39.615167" lon="2.630161"><ele>88.58</ele><time>2010-09-04T07:10:26Z</time></trkpt>
<trkpt lat="39.615348" lon="2.629895"><ele>88.58</ele><time>2010-09-04T07:10:32Z</time></trkpt>
<trkpt lat="39.615524" lon="2.629617"><ele>88.58</ele><time>2010-09-04T07:10:39Z</time></trkpt>
<trkpt lat="39.615641" lon="2.629446"><ele>88.58</ele><time>2010-09-04T07:10:44Z</time></trkpt>
<trkpt lat="39.615961" lon="2.628964"><ele>89.06</ele><time>2010-09-04T07:10:56Z</time></trkpt>
<trkpt lat="39.616057" lon="2.628782"><ele>89.54</ele><time>2010-09-04T07:11:00Z</time></trkpt>
<trkpt lat="39.616315" lon="2.628407"><ele>90.50</ele><time>2010-09-04T07:11:09Z</time></trkpt>
<trkpt lat="39.616593" lon="2.627948"><ele>90.98</ele><time>2010-09-04T07:11:20Z</time></trkpt>
<trkpt lat="39.616999" lon="2.627319"><ele>91.46</ele><time>2010-09-04T07:11:35Z</time></trkpt>
<trkpt lat="39.617275" lon="2.626894"><ele>91.94</ele><time>2010-09-04T07:11:45Z</time></trkpt>
<trkpt lat="39.617696" lon="2.626341"><ele>92.90</ele><time>2010-09-04T07:11:59Z</time></trkpt>
<trkpt lat="39.618077" lon="2.625949"><ele>92.90</ele><time>2010-09-04T07:12:10Z</time></trkpt>
<trkpt lat="39.618465" lon="2.625550"><ele>92.90</ele><time>2010-09-04T07:12:21Z</time></trkpt>
<trkpt lat="39.618561" lon="2.625359"><ele>93.39</ele><time>2010-09-04T07:12:25Z</time></trkpt>
<trkpt lat="39.618727" lon="2.624656"><ele>93.87</ele><time>2010-09-04T07:12:38Z</time></trkpt>
<trkpt lat="39.618887" lon="2.623890"><ele>93.39</ele><time>2010-09-04T07:12:51Z</time></trkpt>
<trkpt lat="39.618947" lon="2.623685"><ele>92.90</ele><time>2010-09-04T07:12:54Z</time></trkpt>
<trkpt lat="39.619223" lon="2.623224"><ele>90.98</ele><time>2010-09-04T07:13:01Z</time></trkpt>
<trkpt lat="39.619273" lon="2.623157"><ele>90.50</ele><time>2010-09-04T07:13:02Z</time></trkpt>
<trkpt lat="39.619360" lon="2.622839"><ele>89.06</ele><time>2010-09-04T07:13:06Z</time></trkpt>
<trkpt lat="39.619202" lon="2.622634"><ele>87.62</ele><time>2010-09-04T07:13:09Z</time></trkpt>
<trkpt lat="39.619122" lon="2.622345"><ele>86.18</ele><time>2010-09-04T07:13:12Z</time></trkpt>
<trkpt lat="39.619194" lon="2.622136"><ele>84.73</ele><time>2010-09-04T07:13:14Z</time></trkpt>
<trkpt lat="39.619246" lon="2.622037"><ele>84.25</ele><time>2010-09-04T07:13:15Z</time></trkpt>
<trkpt lat="39.619405" lon="2.621722"><ele>82.33</ele><time>2010-09-04T07:13:18Z</time></trkpt>
<trkpt lat="39.619513" lon="2.621510"><ele>81.37</ele><time>2010-09-04T07:13:20Z</time></trkpt>
<trkpt lat="39.619594" lon="2.620920"><ele>79.93</ele><time>2010-09-04T07:13:25Z</time></trkpt>
<trkpt lat="39.619614" lon="2.620219"><ele>79.45</ele><time>2010-09-04T07:13:32Z</time></trkpt>
<trkpt lat="39.619638" lon="2.619672"><ele>79.93</ele><time>2010-09-04T07:13:39Z</time></trkpt>
<trkpt lat="39.619655" lon="2.619223"><ele>79.93</ele><time>2010-09-04T07:13:47Z</time></trkpt>
<trkpt lat="39.619678" lon="2.618813"><ele>80.41</ele><time>2010-09-04T07:13:56Z</time></trkpt>
<trkpt lat="39.619686" lon="2.618336"><ele>80.89</ele><time>2010-09-04T07:14:06Z</time></trkpt>
<trkpt lat="39.619706" lon="2.618082"><ele>80.89</ele><time>2010-09-04T07:14:11Z</time></trkpt>
<trkpt lat="39.619751" lon="2.617358"><ele>81.37</ele><time>2010-09-04T07:14:23Z</time></trkpt>
<trkpt lat="39.619836" lon="2.616545"><ele>81.37</ele><time>2010-09-04T07:14:36Z</time></trkpt>
<trkpt lat="39.619972" lon="2.616084"><ele>81.85</ele><time>2010-09-04T07:14:44Z</time></trkpt>
<trkpt lat="39.620270" lon="2.615456"><ele>81.85</ele><time>2010-09-04T07:14:56Z</time></trkpt>
<trkpt lat="39.620658" lon="2.614845"><ele>83.29</ele><time>2010-09-04T07:15:09Z</time></trkpt>
<trkpt lat="39.620913" lon="2.614584"><ele>83.77</ele><time>2010-09-04T07:15:16Z</time></trkpt>
<trkpt lat="39.621002" lon="2.614458"><ele>84.25</ele><time>2010-09-04T07:15:19Z</time></trkpt>
<trkpt lat="39.621114" lon="2.614201"><ele>84.25</ele><time>2010-09-04T07:15:24Z</time></trkpt>
<trkpt lat="39.621200" lon="2.613790"><ele>84.73</ele><time>2010-09-04T07:15:32Z</time></trkpt>
<trkpt lat="39.621313" lon="2.613101"><ele>85.69</ele><time>2010-09-04T07:15:45Z</time></trkpt>
<trkpt lat="39.621476" lon="2.612467"><ele>86.18</ele><time>2010-09-04T07:15:57Z</time></trkpt>
<trkpt lat="39.621488" lon="2.612415"><ele>86.18</ele><time>2010-09-04T07:15:58Z</time></trkpt>
<trkpt lat="39.621543" lon="2.612063"><ele>86.18</ele><time>2010-09-04T07:16:06Z</time></trkpt>
<trkpt lat="39.621585" lon="2.611607"><ele>87.14</ele><time>2010-09-04T07:16:17Z</time></trkpt>
<trkpt lat="39.621668" lon="2.611204"><ele>88.58</ele><time>2010-09-04T07:16:27Z</time></trkpt>
<trkpt lat="39.621808" lon="2.610614"><ele>88.58</ele><time>2010-09-04T07:16:40Z</time></trkpt>
<trkpt lat="39.621917" lon="2.610104"><ele>89.06</ele><time>2010-09-04T07:16:51Z</time></trkpt>
<trkpt lat="39.622092" lon="2.609461"><ele>89.54</ele><time>2010-09-04T07:17:04Z</time></trkpt>
<trkpt lat="39.622232" lon="2.608761"><ele>91.46</ele><time>2010-09-04T07:17:19Z</time></trkpt>
<trkpt lat="39.622313" lon="2.608193"><ele>94.35</ele><time>2010-09-04T07:17:33Z</time></trkpt>
<trkpt lat="39.622436" lon="2.607743"><ele>96.27</ele><time>2010-09-04T07:17:45Z</time></trkpt>
<trkpt lat="39.622592" lon="2.607263"><ele>97.71</ele><time>2010-09-04T07:17:57Z</time></trkpt>
<trkpt lat="39.622761" lon="2.606757"><ele>98.19</ele><time>2010-09-04T07:18:09Z</time></trkpt>
<trkpt lat="39.622992" lon="2.606271"><ele>99.15</ele><time>2010-09-04T07:18:21Z</time></trkpt>
<trkpt lat="39.623187" lon="2.605898"><ele>99.63</ele><time>2010-09-04T07:18:31Z</time></trkpt>
<trkpt lat="39.623197" lon="2.605558"><ele>101.08</ele><time>2010-09-04T07:18:39Z</time></trkpt>
<trkpt lat="39.623066" lon="2.605211"><ele>102.04</ele><time>2010-09-04T07:18:48Z</time></trkpt>
<trkpt lat="39.622921" lon="2.604812"><ele>103.48</ele><time>2010-09-04T07:18:58Z</time></trkpt>
<trkpt lat="39.622936" lon="2.604374"><ele>104.44</ele><time>2010-09-04T07:19:08Z</time></trkpt>
<trkpt lat="39.622961" lon="2.603965"><ele>106.36</ele><time>2010-09-04T07:19:18Z</time></trkpt>
<trkpt lat="39.622957" lon="2.603489"><ele>109.25</ele><time>2010-09-04T07:19:31Z</time></trkpt>
<trkpt lat="39.623018" lon="2.603233"><ele>111.17</ele><time>2010-09-04T07:19:39Z</time></trkpt>
<trkpt lat="39.623165" lon="2.603127"><ele>112.61</ele><time>2010-09-04T07:19:46Z</time></trkpt>
<trkpt lat="39.623397" lon="2.603021"><ele>113.57</ele><time>2010-09-04T07:19:54Z</time></trkpt>
<trkpt lat="39.623681" lon="2.602941"><ele>113.57</ele><time>2010-09-04T07:20:03Z</time></trkpt>
<trkpt lat="39.623998" lon="2.602966"><ele>113.09</ele><time>2010-09-04T07:20:11Z</time></trkpt>
<trkpt lat="39.624161" lon="2.602992"><ele>113.09</ele><time>2010-09-04T07:20:15Z</time></trkpt>
<trkpt lat="39.624291" lon="2.602857"><ele>113.09</ele><time>2010-09-04T07:20:20Z</time></trkpt>
<trkpt lat="39.624306" lon="2.602807"><ele>113.09</ele><time>2010-09-04T07:20:21Z</time></trkpt>
<trkpt lat="39.624410" lon="2.602397"><ele>113.57</ele><time>2010-09-04T07:20:30Z</time></trkpt>
<trkpt lat="39.624601" lon="2.602022"><ele>114.05</ele><time>2010-09-04T07:20:39Z</time></trkpt>
<trkpt lat="39.624797" lon="2.601871"><ele>114.05</ele><time>2010-09-04T07:20:45Z</time></trkpt>
<trkpt lat="39.625027" lon="2.601913"><ele>114.53</ele><time>2010-09-04T07:20:51Z</time></trkpt>
<trkpt lat="39.625161" lon="2.601780"><ele>114.53</ele><time>2010-09-04T07:20:56Z</time></trkpt>
<trkpt lat="39.625159" lon="2.601626"><ele>114.53</ele><time>2010-09-04T07:20:59Z</time></trkpt>
<trkpt lat="39.625133" lon="2.601393"><ele>115.01</ele><time>2010-09-04T07:21:04Z</time></trkpt>
<trkpt lat="39.625237" lon="2.601209"><ele>115.01</ele><time>2010-09-04T07:21:09Z</time></trkpt>
<trkpt lat="39.625579" lon="2.600932"><ele>115.98</ele><time>2010-09-04T07:21:20Z</time></trkpt>
<trkpt lat="39.625775" lon="2.600810"><ele>117.42</ele><time>2010-09-04T07:21:27Z</time></trkpt>
<trkpt lat="39.625882" lon="2.600754"><ele>117.90</ele><time>2010-09-04T07:21:31Z</time></trkpt>
<trkpt lat="39.626013" lon="2.600689"><ele>118.86</ele><time>2010-09-04T07:21:36Z</time></trkpt>
<trkpt lat="39.626262" lon="2.600602"><ele>118.86</ele><time>2010-09-04T07:21:42Z</time></trkpt>
<trkpt lat="39.626342" lon="2.600569"><ele>118.86</ele><time>2010-09-04T07:21:44Z</time></trkpt>
<trkpt lat="39.626502" lon="2.600441"><ele>118.86</ele><time>2010-09-04T07:21:48Z</time></trkpt>
<trkpt lat="39.626561" lon="2.600361"><ele>119.34</ele><time>2010-09-04T07:21:50Z</time></trkpt>
<trkpt lat="39.626880" lon="2.600179"><ele>118.86</ele><time>2010-09-04T07:21:58Z</time></trkpt>
<trkpt lat="39.627046" lon="2.600113"><ele>118.86</ele><time>2010-09-04T07:22:02Z</time></trkpt>
<trkpt lat="39.627175" lon="2.600094"><ele>118.86</ele><time>2010-09-04T07:22:05Z</time></trkpt>
<trkpt lat="39.627554" lon="2.600173"><ele>117.90</ele><time>2010-09-04T07:22:13Z</time></trkpt>
<trkpt lat="39.627772" lon="2.600126"><ele>117.42</ele><time>2010-09-04T07:22:17Z</time></trkpt>
<trkpt lat="39.628176" lon="2.600108"><ele>116.94</ele><time>2010-09-04T07:22:25Z</time></trkpt>
<trkpt lat="39.628423" lon="2.599968"><ele>116.46</ele><time>2010-09-04T07:22:31Z</time></trkpt>
<trkpt lat="39.628476" lon="2.599759"><ele>116.94</ele><time>2010-09-04T07:22:35Z</time></trkpt>
<trkpt lat="39.628470" lon="2.599708"><ele>116.94</ele><time>2010-09-04T07:22:36Z</time></trkpt>
<trkpt lat="39.628402" lon="2.599287"><ele>118.86</ele><time>2010-09-04T07:22:46Z</time></trkpt>
<trkpt lat="39.628361" lon="2.598922"><ele>120.78</ele><time>2010-09-04T07:22:56Z</time></trkpt>
<trkpt lat="39.628311" lon="2.598570"><ele>123.19</ele><time>2010-09-04T07:23:06Z</time></trkpt>
<trkpt lat="39.628252" lon="2.598218"><ele>125.11</ele><time>2010-09-04T07:23:16Z</time></trkpt>
<trkpt lat="39.628193" lon="2.597821"><ele>127.51</ele><time>2010-09-04T07:23:28Z</time></trkpt>
<trkpt lat="39.628143" lon="2.597484"><ele>129.43</ele><time>2010-09-04T07:23:38Z</time></trkpt>
<trkpt lat="39.628123" lon="2.597279"><ele>130.88</ele><time>2010-09-04T07:23:45Z</time></trkpt>
<trkpt lat="39.628145" lon="2.596998"><ele>132.80</ele><time>2010-09-04T07:23:55Z</time></trkpt>
<trkpt lat="39.628161" lon="2.596973"><ele>133.28</ele><time>2010-09-04T07:23:56Z</time></trkpt>
<trkpt lat="39.628329" lon="2.596912"><ele>134.72</ele><time>2010-09-04T07:24:04Z</time></trkpt>
<trkpt lat="39.628516" lon="2.596867"><ele>135.68</ele><time>2010-09-04T07:24:11Z</time></trkpt>
<trkpt lat="39.628806" lon="2.596777"><ele>135.68</ele><time>2010-09-04T07:24:19Z</time></trkpt>
<trkpt lat="39.628957" lon="2.596638"><ele>135.20</ele><time>2010-09-04T07:24:23Z</time></trkpt>
<trkpt lat="39.629014" lon="2.596554"><ele>135.20</ele><time>2010-09-04T07:24:25Z</time></trkpt>
<trkpt lat="39.629111" lon="2.596183"><ele>135.20</ele><time>2010-09-04T07:24:33Z</time></trkpt>
<trkpt lat="39.629028" lon="2.595908"><ele>134.72</ele><time>2010-09-04T07:24:40Z</time></trkpt>
<trkpt lat="39.628877" lon="2.595552"><ele>134.72</ele><time>2010-09-04T07:24:48Z</time></trkpt>
<trkpt lat="39.628892" lon="2.595312"><ele>134.72</ele><time>2010-09-04T07:24:53Z</time></trkpt>
<trkpt lat="39.628980" lon="2.594848"><ele>134.72</ele><time>2010-09-04T07:25:02Z</time></trkpt>
<trkpt lat="39.629144" lon="2.594370"><ele>135.68</ele><time>2010-09-04T07:25:13Z</time></trkpt>
<trkpt lat="39.629385" lon="2.594039"><ele>135.68</ele><time>2010-09-04T07:25:22Z</time></trkpt>
<trkpt lat="39.629741" lon="2.593542"><ele>135.20</ele><time>2010-09-04T07:25:35Z</time></trkpt>
<trkpt lat="39.629873" lon="2.593131"><ele>135.68</ele><time>2010-09-04T07:25:44Z</time></trkpt>
<trkpt lat="39.629895" lon="2.592742"><ele>136.16</ele><time>2010-09-04T07:25:53Z</time></trkpt>
<trkpt lat="39.629836" lon="2.592401"><ele>137.13</ele><time>2010-09-04T07:26:05Z</time></trkpt>
<trkpt lat="39.629732" lon="2.592161"><ele>137.61</ele><time>2010-09-04T07:26:13Z</time></trkpt>
<trkpt lat="39.629551" lon="2.591749"><ele>138.57</ele><time>2010-09-04T07:26:25Z</time></trkpt>
<trkpt lat="39.629419" lon="2.591596"><ele>139.53</ele><time>2010-09-04T07:26:32Z</time></trkpt>
<trkpt lat="39.629225" lon="2.591478"><ele>141.45</ele><time>2010-09-04T07:26:41Z</time></trkpt>
<trkpt lat="39.629184" lon="2.591198"><ele>143.37</ele><time>2010-09-04T07:26:51Z</time></trkpt>
<trkpt lat="39.629120" lon="2.591001"><ele>144.82</ele><time>2010-09-04T07:26:59Z</time></trkpt>
<trkpt lat="39.628972" lon="2.590808"><ele>147.22</ele><time>2010-09-04T07:27:09Z</time></trkpt>
<trkpt lat="39.628937" lon="2.590733"><ele>147.22</ele><time>2010-09-04T07:27:12Z</time></trkpt>
<trkpt lat="39.628816" lon="2.590507"><ele>149.62</ele><time>2010-09-04T07:27:23Z</time></trkpt>
<trkpt lat="39.628753" lon="2.590240"><ele>152.03</ele><time>2010-09-04T07:27:33Z</time></trkpt>
<trkpt lat="39.628713" lon="2.590016"><ele>153.47</ele><time>2010-09-04T07:27:42Z</time></trkpt>
<trkpt lat="39.628628" lon="2.589785"><ele>155.39</ele><time>2010-09-04T07:27:52Z</time></trkpt>
<trkpt lat="39.628565" lon="2.589660"><ele>156.83</ele><time>2010-09-04T07:27:59Z</time></trkpt>
<trkpt lat="39.628457" lon="2.589453"><ele>158.75</ele><time>2010-09-04T07:28:10Z</time></trkpt>
<trkpt lat="39.628435" lon="2.589414"><ele>159.72</ele><time>2010-09-04T07:28:12Z</time></trkpt>
<trkpt lat="39.628347" lon="2.589292"><ele>160.68</ele><time>2010-09-04T07:28:20Z</time></trkpt>
<trkpt lat="39.628213" lon="2.589161"><ele>161.64</ele><time>2010-09-04T07:28:29Z</time></trkpt>
<trkpt lat="39.628053" lon="2.589117"><ele>162.60</ele><time>2010-09-04T07:28:37Z</time></trkpt>
<trkpt lat="39.627862" lon="2.589088"><ele>164.04</ele><time>2010-09-04T07:28:47Z</time></trkpt>
<trkpt lat="39.627716" lon="2.589136"><ele>165.48</ele><time>2010-09-04T07:28:55Z</time></trkpt>
<trkpt lat="39.627700" lon="2.589135"><ele>165.48</ele><time>2010-09-04T07:28:56Z</time></trkpt>
<trkpt lat="39.627572" lon="2.589189"><ele>166.93</ele><time>2010-09-04T07:29:03Z</time></trkpt>
<trkpt lat="39.627401" lon="2.589247"><ele>168.85</ele><time>2010-09-04T07:29:12Z</time></trkpt>
<trkpt lat="39.627255" lon="2.589234"><ele>169.81</ele><time>2010-09-04T07:29:20Z</time></trkpt>
<trkpt lat="39.627101" lon="2.589189"><ele>171.25</ele><time>2010-09-04T07:29:28Z</time></trkpt>
<trkpt lat="39.626966" lon="2.589160"><ele>172.21</ele><time>2010-09-04T07:29:34Z</time></trkpt>
<trkpt lat="39.626766" lon="2.588986"><ele>172.69</ele><time>2010-09-04T07:29:43Z</time></trkpt>
<trkpt lat="39.626686" lon="2.588727"><ele>172.21</ele><time>2010-09-04T07:29:50Z</time></trkpt>
<trkpt lat="39.626695" lon="2.588484"><ele>172.69</ele><time>2010-09-04T07:29:57Z</time></trkpt>
<trkpt lat="39.626695" lon="2.588210"><ele>174.14</ele><time>2010-09-04T07:30:05Z</time></trkpt>
<trkpt lat="39.626645" lon="2.588131"><ele>174.62</ele><time>2010-09-04T07:30:09Z</time></trkpt>
<trkpt lat="39.626502" lon="2.588161"><ele>176.54</ele><time>2010-09-04T07:30:17Z</time></trkpt>
<trkpt lat="39.626357" lon="2.588128"><ele>177.02</ele><time>2010-09-04T07:30:23Z</time></trkpt>
<trkpt lat="39.626239" lon="2.588041"><ele>178.46</ele><time>2010-09-04T07:30:30Z</time></trkpt>
<trkpt lat="39.626090" lon="2.587993"><ele>179.90</ele><time>2010-09-04T07:30:37Z</time></trkpt>
<trkpt lat="39.625956" lon="2.588064"><ele>181.83</ele><time>2010-09-04T07:30:45Z</time></trkpt>
<trkpt lat="39.625822" lon="2.588141"><ele>183.75</ele><time>2010-09-04T07:30:53Z</time></trkpt>
<trkpt lat="39.625709" lon="2.588200"><ele>185.19</ele><time>2010-09-04T07:31:00Z</time></trkpt>
<trkpt lat="39.625556" lon="2.588169"><ele>186.15</ele><time>2010-09-04T07:31:07Z</time></trkpt>
<trkpt lat="39.625431" lon="2.588109"><ele>187.11</ele><time>2010-09-04T07:31:14Z</time></trkpt>
<trkpt lat="39.625248" lon="2.588022"><ele>188.08</ele><time>2010-09-04T07:31:23Z</time></trkpt>
<trkpt lat="39.625078" lon="2.587951"><ele>189.52</ele><time>2010-09-04T07:31:31Z</time></trkpt>
<trkpt lat="39.625008" lon="2.587893"><ele>190.00</ele><time>2010-09-04T07:31:35Z</time></trkpt>
<trkpt lat="39.624944" lon="2.587693"><ele>191.44</ele><time>2010-09-04T07:31:43Z</time></trkpt>
<trkpt lat="39.624840" lon="2.587440"><ele>192.88</ele><time>2010-09-04T07:31:53Z</time></trkpt>
<trkpt lat="39.624694" lon="2.587284"><ele>194.32</ele><time>2010-09-04T07:32:02Z</time></trkpt>
<trkpt lat="39.624553" lon="2.587245"><ele>194.80</ele><time>2010-09-04T07:32:08Z</time></trkpt>
<trkpt lat="39.624321" lon="2.587280"><ele>195.77</ele><time>2010-09-04T07:32:17Z</time></trkpt>
<trkpt lat="39.624291" lon="2.587148"><ele>196.25</ele><time>2010-09-04T07:32:22Z</time></trkpt>
<trkpt lat="39.624349" lon="2.587078"><ele>196.73</ele><time>2010-09-04T07:32:25Z</time></trkpt>
<trkpt lat="39.624576" lon="2.586963"><ele>197.69</ele><time>2010-09-04T07:32:35Z</time></trkpt>
<trkpt lat="39.624643" lon="2.586922"><ele>198.65</ele><time>2010-09-04T07:32:38Z</time></trkpt>
<trkpt lat="39.624629" lon="2.586769"><ele>200.09</ele><time>2010-09-04T07:32:44Z</time></trkpt>
<trkpt lat="39.624502" lon="2.586648"><ele>201.05</ele><time>2010-09-04T07:32:51Z</time></trkpt>
<trkpt lat="39.624301" lon="2.586577"><ele>202.98</ele><time>2010-09-04T07:33:00Z</time></trkpt>
<trkpt lat="39.624147" lon="2.586569"><ele>204.42</ele><time>2010-09-04T07:33:08Z</time></trkpt>
<trkpt lat="39.624125" lon="2.586569"><ele>204.42</ele><time>2010-09-04T07:33:13Z</time></trkpt>
<trkpt lat="39.624069" lon="2.586547"><ele>204.90</ele><time>2010-09-04T07:33:25Z</time></trkpt>
<trkpt lat="39.624060" lon="2.586529"><ele>204.90</ele><time>2010-09-04T07:33:26Z</time></trkpt>
<trkpt lat="39.624108" lon="2.586403"><ele>206.34</ele><time>2010-09-04T07:33:32Z</time></trkpt>
<trkpt lat="39.624147" lon="2.586369"><ele>206.82</ele><time>2010-09-04T07:33:34Z</time></trkpt>
<trkpt lat="39.624370" lon="2.586143"><ele>208.26</ele><time>2010-09-04T07:33:46Z</time></trkpt>
<trkpt lat="39.624581" lon="2.586185"><ele>208.74</ele><time>2010-09-04T07:33:55Z</time></trkpt>
<trkpt lat="39.624762" lon="2.586213"><ele>209.22</ele><time>2010-09-04T07:34:02Z</time></trkpt>
<trkpt lat="39.624990" lon="2.586296"><ele>210.19</ele><time>2010-09-04T07:34:11Z</time></trkpt>
<trkpt lat="39.625222" lon="2.586330"><ele>210.67</ele><time>2010-09-04T07:34:20Z</time></trkpt>
<trkpt lat="39.625445" lon="2.586344"><ele>212.59</ele><time>2010-09-04T07:34:29Z</time></trkpt>
<trkpt lat="39.625578" lon="2.586321"><ele>213.55</ele><time>2010-09-04T07:34:35Z</time></trkpt>
<trkpt lat="39.625628" lon="2.586241"><ele>214.03</ele><time>2010-09-04T07:34:39Z</time></trkpt>
<trkpt lat="39.625628" lon="2.586062"><ele>215.95</ele><time>2010-09-04T07:34:46Z</time></trkpt>
<trkpt lat="39.625730" lon="2.585797"><ele>219.32</ele><time>2010-09-04T07:34:59Z</time></trkpt>
<trkpt lat="39.625811" lon="2.585715"><ele>220.76</ele><time>2010-09-04T07:35:05Z</time></trkpt>
<trkpt lat="39.625904" lon="2.585616"><ele>223.16</ele><time>2010-09-04T07:35:13Z</time></trkpt>
<trkpt lat="39.626000" lon="2.585557"><ele>224.61</ele><time>2010-09-04T07:35:21Z</time></trkpt>
<trkpt lat="39.626061" lon="2.585549"><ele>225.09</ele><time>2010-09-04T07:35:25Z</time></trkpt>
<trkpt lat="39.626136" lon="2.585506"><ele>226.05</ele><time>2010-09-04T07:35:31Z</time></trkpt>
<trkpt lat="39.626172" lon="2.585477"><ele>226.53</ele><time>2010-09-04T07:35:35Z</time></trkpt>
<trkpt lat="39.626207" lon="2.585454"><ele>227.01</ele><time>2010-09-04T07:35:38Z</time></trkpt>
<trkpt lat="39.626235" lon="2.585430"><ele>227.49</ele><time>2010-09-04T07:35:40Z</time></trkpt>
<trkpt lat="39.626392" lon="2.585330"><ele>229.41</ele><time>2010-09-04T07:35:52Z</time></trkpt>
<trkpt lat="39.626460" lon="2.585271"><ele>230.37</ele><time>2010-09-04T07:35:58Z</time></trkpt>
<trkpt lat="39.626532" lon="2.585149"><ele>231.81</ele><time>2010-09-04T07:36:06Z</time></trkpt>
<trkpt lat="39.626573" lon="2.585087"><ele>232.30</ele><time>2010-09-04T07:36:10Z</time></trkpt>
<trkpt lat="39.626611" lon="2.585022"><ele>233.26</ele><time>2010-09-04T07:36:14Z</time></trkpt>
<trkpt lat="39.626652" lon="2.584962"><ele>233.74</ele><time>2010-09-04T07:36:18Z</time></trkpt>
<trkpt lat="39.626694" lon="2.584890"><ele>234.22</ele><time>2010-09-04T07:36:22Z</time></trkpt>
<trkpt lat="39.626780" lon="2.584784"><ele>234.70</ele><time>2010-09-04T07:36:29Z</time></trkpt>
<trkpt lat="39.626915" lon="2.584663"><ele>235.18</ele><time>2010-09-04T07:36:38Z</time></trkpt>
<trkpt lat="39.627046" lon="2.584680"><ele>236.14</ele><time>2010-09-04T07:36:46Z</time></trkpt>
<trkpt lat="39.627153" lon="2.584645"><ele>237.58</ele><time>2010-09-04T07:36:53Z</time></trkpt>
<trkpt lat="39.627309" lon="2.584583"><ele>239.51</ele><time>2010-09-04T07:37:02Z</time></trkpt>
<trkpt lat="39.627441" lon="2.584524"><ele>240.47</ele><time>2010-09-04T07:37:10Z</time></trkpt>
<trkpt lat="39.627490" lon="2.584506"><ele>240.47</ele><time>2010-09-04T07:37:17Z</time></trkpt>
<trkpt lat="39.627516" lon="2.584517"><ele>240.47</ele><time>2010-09-04T07:37:31Z</time></trkpt>
<trkpt lat="39.627541" lon="2.584519"><ele>240.47</ele><time>2010-09-04T07:37:44Z</time></trkpt>
<trkpt lat="39.627547" lon="2.584502"><ele>240.95</ele><time>2010-09-04T07:39:25Z</time></trkpt>
<trkpt lat="39.627531" lon="2.584503"><ele>240.95</ele><time>2010-09-04T07:39:51Z</time></trkpt>
<trkpt lat="39.627547" lon="2.584498"><ele>241.43</ele><time>2010-09-04T07:40:25Z</time></trkpt>
<trkpt lat="39.627621" lon="2.584390"><ele>241.43</ele><time>2010-09-04T07:40:31Z</time></trkpt>
<trkpt lat="39.627657" lon="2.584264"><ele>241.91</ele><time>2010-09-04T07:40:36Z</time></trkpt>
<trkpt lat="39.627662" lon="2.584145"><ele>242.87</ele><time>2010-09-04T07:40:40Z</time></trkpt>
<trkpt lat="39.627725" lon="2.583893"><ele>243.83</ele><time>2010-09-04T07:40:50Z</time></trkpt>
<trkpt lat="39.627746" lon="2.583852"><ele>244.31</ele><time>2010-09-04T07:40:52Z</time></trkpt>
<trkpt lat="39.627832" lon="2.583669"><ele>245.75</ele><time>2010-09-04T07:41:00Z</time></trkpt>
<trkpt lat="39.627991" lon="2.583553"><ele>246.23</ele><time>2010-09-04T07:41:09Z</time></trkpt>
<trkpt lat="39.628192" lon="2.583436"><ele>248.64</ele><time>2010-09-04T07:41:20Z</time></trkpt>
<trkpt lat="39.628368" lon="2.583297"><ele>249.60</ele><time>2010-09-04T07:41:30Z</time></trkpt>
<trkpt lat="39.628514" lon="2.583085"><ele>251.52</ele><time>2010-09-04T07:41:41Z</time></trkpt>
<trkpt lat="39.628624" lon="2.582973"><ele>252.96</ele><time>2010-09-04T07:41:47Z</time></trkpt>
<trkpt lat="39.628767" lon="2.582872"><ele>255.85</ele><time>2010-09-04T07:41:56Z</time></trkpt>
<trkpt lat="39.628919" lon="2.582663"><ele>258.73</ele><time>2010-09-04T07:42:09Z</time></trkpt>
<trkpt lat="39.628968" lon="2.582494"><ele>260.17</ele><time>2010-09-04T07:42:17Z</time></trkpt>
<trkpt lat="39.628994" lon="2.582365"><ele>261.62</ele><time>2010-09-04T07:42:23Z</time></trkpt>
<trkpt lat="39.628991" lon="2.582300"><ele>262.10</ele><time>2010-09-04T07:42:27Z</time></trkpt>
<trkpt lat="39.628987" lon="2.582266"><ele>262.10</ele><time>2010-09-04T07:42:29Z</time></trkpt>
<trkpt lat="39.628975" lon="2.582195"><ele>263.06</ele><time>2010-09-04T07:42:37Z</time></trkpt>
<trkpt lat="39.628978" lon="2.582181"><ele>263.06</ele><time>2010-09-04T07:42:47Z</time></trkpt>
<trkpt lat="39.628985" lon="2.582110"><ele>263.54</ele><time>2010-09-04T07:42:51Z</time></trkpt>
<trkpt lat="39.629006" lon="2.581940"><ele>265.46</ele><time>2010-09-04T07:43:01Z</time></trkpt>
<trkpt lat="39.628986" lon="2.581741"><ele>267.38</ele><time>2010-09-04T07:43:12Z</time></trkpt>
<trkpt lat="39.628978" lon="2.581711"><ele>267.86</ele><time>2010-09-04T07:43:14Z</time></trkpt>
<trkpt lat="39.628920" lon="2.581755"><ele>268.83</ele><time>2010-09-04T07:43:21Z</time></trkpt>
<trkpt lat="39.628929" lon="2.581777"><ele>268.83</ele><time>2010-09-04T07:43:22Z</time></trkpt>
<trkpt lat="39.628936" lon="2.581890"><ele>269.31</ele><time>2010-09-04T07:43:27Z</time></trkpt>
<trkpt lat="39.628888" lon="2.581916"><ele>269.79</ele><time>2010-09-04T07:43:32Z</time></trkpt>
<trkpt lat="39.628875" lon="2.581838"><ele>270.75</ele><time>2010-09-04T07:43:36Z</time></trkpt>
<trkpt lat="39.628882" lon="2.581695"><ele>272.19</ele><time>2010-09-04T07:43:43Z</time></trkpt>
<trkpt lat="39.628865" lon="2.581644"><ele>272.67</ele><time>2010-09-04T07:43:46Z</time></trkpt>
<trkpt lat="39.628810" lon="2.581466"><ele>274.59</ele><time>2010-09-04T07:43:55Z</time></trkpt>
<trkpt lat="39.628775" lon="2.581382"><ele>275.56</ele><time>2010-09-04T07:44:01Z</time></trkpt>
<trkpt lat="39.628712" lon="2.581269"><ele>277.00</ele><time>2010-09-04T07:44:08Z</time></trkpt>
<trkpt lat="39.628718" lon="2.581239"><ele>277.48</ele><time>2010-09-04T07:44:10Z</time></trkpt>
<trkpt lat="39.628719" lon="2.581180"><ele>278.44</ele><time>2010-09-04T07:44:14Z</time></trkpt>
<trkpt lat="39.628737" lon="2.581131"><ele>278.92</ele><time>2010-09-04T07:44:17Z</time></trkpt>
<trkpt lat="39.628766" lon="2.581081"><ele>280.36</ele><time>2010-09-04T07:44:21Z</time></trkpt>
<trkpt lat="39.628859" lon="2.581026"><ele>281.80</ele><time>2010-09-04T07:44:29Z</time></trkpt>
<trkpt lat="39.628929" lon="2.580990"><ele>282.28</ele><time>2010-09-04T07:44:34Z</time></trkpt>
<trkpt lat="39.629044" lon="2.580867"><ele>283.25</ele><time>2010-09-04T07:44:43Z</time></trkpt>
<trkpt lat="39.629080" lon="2.580781"><ele>283.73</ele><time>2010-09-04T07:44:48Z</time></trkpt>
<trkpt lat="39.629089" lon="2.580717"><ele>284.21</ele><time>2010-09-04T07:44:51Z</time></trkpt>
<trkpt lat="39.629096" lon="2.580632"><ele>284.69</ele><time>2010-09-04T07:44:55Z</time></trkpt>
<trkpt lat="39.629129" lon="2.580560"><ele>285.17</ele><time>2010-09-04T07:44:59Z</time></trkpt>
<trkpt lat="39.629216" lon="2.580440"><ele>286.61</ele><time>2010-09-04T07:45:08Z</time></trkpt>
<trkpt lat="39.629355" lon="2.580432"><ele>288.53</ele><time>2010-09-04T07:45:16Z</time></trkpt>
<trkpt lat="39.629524" lon="2.580487"><ele>290.46</ele><time>2010-09-04T07:45:26Z</time></trkpt>
<trkpt lat="39.629645" lon="2.580565"><ele>292.38</ele><time>2010-09-04T07:45:36Z</time></trkpt>
<trkpt lat="39.629707" lon="2.580611"><ele>293.34</ele><time>2010-09-04T07:45:42Z</time></trkpt>
<trkpt lat="39.629804" lon="2.580599"><ele>294.78</ele><time>2010-09-04T07:45:49Z</time></trkpt>
<trkpt lat="39.629934" lon="2.580527"><ele>296.22</ele><time>2010-09-04T07:45:58Z</time></trkpt>
<trkpt lat="39.630069" lon="2.580461"><ele>297.18</ele><time>2010-09-04T07:46:07Z</time></trkpt>
<trkpt lat="39.630279" lon="2.580378"><ele>299.11</ele><time>2010-09-04T07:46:20Z</time></trkpt>
<trkpt lat="39.630343" lon="2.580310"><ele>300.07</ele><time>2010-09-04T07:46:26Z</time></trkpt>
<trkpt lat="39.630292" lon="2.580155"><ele>301.99</ele><time>2010-09-04T07:46:35Z</time></trkpt>
<trkpt lat="39.630251" lon="2.580095"><ele>301.99</ele><time>2010-09-04T07:46:39Z</time></trkpt>
<trkpt lat="39.630125" lon="2.580072"><ele>302.95</ele><time>2010-09-04T07:46:46Z</time></trkpt>
<trkpt lat="39.630021" lon="2.580093"><ele>303.43</ele><time>2010-09-04T07:46:53Z</time></trkpt>
<trkpt lat="39.629914" lon="2.580126"><ele>304.39</ele><time>2010-09-04T07:47:00Z</time></trkpt>
<trkpt lat="39.629849" lon="2.580134"><ele>304.88</ele><time>2010-09-04T07:47:03Z</time></trkpt>
<trkpt lat="39.629714" lon="2.580107"><ele>305.84</ele><time>2010-09-04T07:47:10Z</time></trkpt>
<trkpt lat="39.629638" lon="2.580015"><ele>307.28</ele><time>2010-09-04T07:47:17Z</time></trkpt>
<trkpt lat="39.629508" lon="2.579876"><ele>308.72</ele><time>2010-09-04T07:47:27Z</time></trkpt>
<trkpt lat="39.629480" lon="2.579846"><ele>309.68</ele><time>2010-09-04T07:47:30Z</time></trkpt>
<trkpt lat="39.629465" lon="2.579809"><ele>310.16</ele><time>2010-09-04T07:47:32Z</time></trkpt>
<trkpt lat="39.629433" lon="2.579724"><ele>310.64</ele><time>2010-09-04T07:47:37Z</time></trkpt>
<trkpt lat="39.629381" lon="2.579612"><ele>312.09</ele><time>2010-09-04T07:47:44Z</time></trkpt>
<trkpt lat="39.629309" lon="2.579488"><ele>313.53</ele><time>2010-09-04T07:47:51Z</time></trkpt>
<trkpt lat="39.629303" lon="2.579465"><ele>313.53</ele><time>2010-09-04T07:47:53Z</time></trkpt>
<trkpt lat="39.629244" lon="2.579324"><ele>314.49</ele><time>2010-09-04T07:48:00Z</time></trkpt>
<trkpt lat="39.629217" lon="2.579279"><ele>314.97</ele><time>2010-09-04T07:48:03Z</time></trkpt>
<trkpt lat="39.629191" lon="2.579271"><ele>314.97</ele><time>2010-09-04T07:48:05Z</time></trkpt>
<trkpt lat="39.629084" lon="2.579234"><ele>315.93</ele><time>2010-09-04T07:48:12Z</time></trkpt>
<trkpt lat="39.629014" lon="2.579100"><ele>317.85</ele><time>2010-09-04T07:48:19Z</time></trkpt>
<trkpt lat="39.629042" lon="2.579026"><ele>318.81</ele><time>2010-09-04T07:48:23Z</time></trkpt>
<trkpt lat="39.629050" lon="2.578997"><ele>318.81</ele><time>2010-09-04T07:48:26Z</time></trkpt>
<trkpt lat="39.629140" lon="2.579065"><ele>319.78</ele><time>2010-09-04T07:48:33Z</time></trkpt>
<trkpt lat="39.629173" lon="2.579120"><ele>320.26</ele><time>2010-09-04T07:48:38Z</time></trkpt>
<trkpt lat="39.629223" lon="2.579142"><ele>320.74</ele><time>2010-09-04T07:48:42Z</time></trkpt>
<trkpt lat="39.629332" lon="2.579178"><ele>321.70</ele><time>2010-09-04T07:48:49Z</time></trkpt>
<trkpt lat="39.629481" lon="2.579201"><ele>323.14</ele><time>2010-09-04T07:48:58Z</time></trkpt>
<trkpt lat="39.629497" lon="2.579132"><ele>323.62</ele><time>2010-09-04T07:49:02Z</time></trkpt>
<trkpt lat="39.629439" lon="2.579098"><ele>325.06</ele><time>2010-09-04T07:49:07Z</time></trkpt>
<trkpt lat="39.629347" lon="2.579008"><ele>326.02</ele><time>2010-09-04T07:49:14Z</time></trkpt>
<trkpt lat="39.629296" lon="2.578965"><ele>326.50</ele><time>2010-09-04T07:49:18Z</time></trkpt>
<trkpt lat="39.629307" lon="2.578958"><ele>326.50</ele><time>2010-09-04T07:49:27Z</time></trkpt>
<trkpt lat="39.629303" lon="2.578926"><ele>326.99</ele><time>2010-09-04T07:49:52Z</time></trkpt>
<trkpt lat="39.629262" lon="2.578766"><ele>327.95</ele><time>2010-09-04T07:50:01Z</time></trkpt>
<trkpt lat="39.629232" lon="2.578667"><ele>327.95</ele><time>2010-09-04T07:50:07Z</time></trkpt>
<trkpt lat="39.629137" lon="2.578598"><ele>328.91</ele><time>2010-09-04T07:50:14Z</time></trkpt>
<trkpt lat="39.629043" lon="2.578596"><ele>329.39</ele><time>2010-09-04T07:50:21Z</time></trkpt>
<trkpt lat="39.629019" lon="2.578603"><ele>329.39</ele><time>2010-09-04T07:50:23Z</time></trkpt>
<trkpt lat="39.628917" lon="2.578654"><ele>330.83</ele><time>2010-09-04T07:50:30Z</time></trkpt>
<trkpt lat="39.628910" lon="2.578671"><ele>331.31</ele><time>2010-09-04T07:50:31Z</time></trkpt>
<trkpt lat="39.628854" lon="2.578700"><ele>331.79</ele><time>2010-09-04T07:50:35Z</time></trkpt>
<trkpt lat="39.628806" lon="2.578752"><ele>332.75</ele><time>2010-09-04T07:50:39Z</time></trkpt>
<trkpt lat="39.628724" lon="2.578816"><ele>333.71</ele><time>2010-09-04T07:50:46Z</time></trkpt>
<trkpt lat="39.628673" lon="2.578833"><ele>334.68</ele><time>2010-09-04T07:50:50Z</time></trkpt>
<trkpt lat="39.628640" lon="2.578857"><ele>335.16</ele><time>2010-09-04T07:50:53Z</time></trkpt>
<trkpt lat="39.628538" lon="2.578902"><ele>336.12</ele><time>2010-09-04T07:51:00Z</time></trkpt>
<trkpt lat="39.628462" lon="2.579002"><ele>337.08</ele><time>2010-09-04T07:51:08Z</time></trkpt>
<trkpt lat="39.628399" lon="2.579037"><ele>338.04</ele><time>2010-09-04T07:51:13Z</time></trkpt>
<trkpt lat="39.628331" lon="2.579042"><ele>339.00</ele><time>2010-09-04T07:51:18Z</time></trkpt>
<trkpt lat="39.628270" lon="2.578923"><ele>339.48</ele><time>2010-09-04T07:51:26Z</time></trkpt>
<trkpt lat="39.628292" lon="2.578824"><ele>339.48</ele><time>2010-09-04T07:51:30Z</time></trkpt>
<trkpt lat="39.628405" lon="2.578662"><ele>339.96</ele><time>2010-09-04T07:51:40Z</time></trkpt>
<trkpt lat="39.628606" lon="2.578465"><ele>340.92</ele><time>2010-09-04T07:51:53Z</time></trkpt>
<trkpt lat="39.628682" lon="2.578365"><ele>341.41</ele><time>2010-09-04T07:52:02Z</time></trkpt>
<trkpt lat="39.628681" lon="2.578363"><ele>341.41</ele><time>2010-09-04T07:52:07Z</time></trkpt>
<trkpt lat="39.628802" lon="2.578289"><ele>342.37</ele><time>2010-09-04T07:52:14Z</time></trkpt>
<trkpt lat="39.628844" lon="2.578264"><ele>342.37</ele><time>2010-09-04T07:52:16Z</time></trkpt>
<trkpt lat="39.628969" lon="2.578164"><ele>343.81</ele><time>2010-09-04T07:52:23Z</time></trkpt>
<trkpt lat="39.629125" lon="2.578000"><ele>345.25</ele><time>2010-09-04T07:52:34Z</time></trkpt>
<trkpt lat="39.629256" lon="2.577788"><ele>346.21</ele><time>2010-09-04T07:52:45Z</time></trkpt>
<trkpt lat="39.629358" lon="2.577634"><ele>347.65</ele><time>2010-09-04T07:52:54Z</time></trkpt>
<trkpt lat="39.629320" lon="2.577538"><ele>349.10</ele><time>2010-09-04T07:53:00Z</time></trkpt>
<trkpt lat="39.629284" lon="2.577535"><ele>349.58</ele><time>2010-09-04T07:53:03Z</time></trkpt>
<trkpt lat="39.629234" lon="2.577537"><ele>350.06</ele><time>2010-09-04T07:53:07Z</time></trkpt>
<trkpt lat="39.629127" lon="2.577543"><ele>351.02</ele><time>2010-09-04T07:53:14Z</time></trkpt>
<trkpt lat="39.629071" lon="2.577550"><ele>351.50</ele><time>2010-09-04T07:53:18Z</time></trkpt>
<trkpt lat="39.628884" lon="2.577692"><ele>353.90</ele><time>2010-09-04T07:53:32Z</time></trkpt>
<trkpt lat="39.628858" lon="2.577670"><ele>354.38</ele><time>2010-09-04T07:53:36Z</time></trkpt>
<trkpt lat="39.628881" lon="2.577485"><ele>355.83</ele><time>2010-09-04T07:53:48Z</time></trkpt>
<trkpt lat="39.628924" lon="2.577351"><ele>356.31</ele><time>2010-09-04T07:53:56Z</time></trkpt>
<trkpt lat="39.628984" lon="2.577263"><ele>357.27</ele><time>2010-09-04T07:54:02Z</time></trkpt>
<trkpt lat="39.629043" lon="2.577187"><ele>358.23</ele><time>2010-09-04T07:54:09Z</time></trkpt>
<trkpt lat="39.629114" lon="2.577135"><ele>359.19</ele><time>2010-09-04T07:54:14Z</time></trkpt>
<trkpt lat="39.629258" lon="2.577055"><ele>360.15</ele><time>2010-09-04T07:54:23Z</time></trkpt>
<trkpt lat="39.629373" lon="2.576957"><ele>361.11</ele><time>2010-09-04T07:54:32Z</time></trkpt>
<trkpt lat="39.629458" lon="2.576833"><ele>362.55</ele><time>2010-09-04T07:54:41Z</time></trkpt>
<trkpt lat="39.629533" lon="2.576763"><ele>363.52</ele><time>2010-09-04T07:54:47Z</time></trkpt>
<trkpt lat="39.629605" lon="2.576739"><ele>364.00</ele><time>2010-09-04T07:54:52Z</time></trkpt>
<trkpt lat="39.629631" lon="2.576722"><ele>364.48</ele><time>2010-09-04T07:54:54Z</time></trkpt>
<trkpt lat="39.629737" lon="2.576701"><ele>365.44</ele><time>2010-09-04T07:55:00Z</time></trkpt>
<trkpt lat="39.629894" lon="2.576672"><ele>366.88</ele><time>2010-09-04T07:55:09Z</time></trkpt>
<trkpt lat="39.629970" lon="2.576663"><ele>367.84</ele><time>2010-09-04T07:55:15Z</time></trkpt>
<trkpt lat="39.630025" lon="2.576563"><ele>369.28</ele><time>2010-09-04T07:55:24Z</time></trkpt>
<trkpt lat="39.630077" lon="2.576485"><ele>370.24</ele><time>2010-09-04T07:55:31Z</time></trkpt>
<trkpt lat="39.630092" lon="2.576352"><ele>371.21</ele><time>2010-09-04T07:55:38Z</time></trkpt>
<trkpt lat="39.630047" lon="2.576199"><ele>372.65</ele><time>2010-09-04T07:55:48Z</time></trkpt>
<trkpt lat="39.630048" lon="2.576189"><ele>372.65</ele><time>2010-09-04T07:55:49Z</time></trkpt>
<trkpt lat="39.630001" lon="2.576063"><ele>372.65</ele><time>2010-09-04T07:55:57Z</time></trkpt>
<trkpt lat="39.629925" lon="2.575859"><ele>373.61</ele><time>2010-09-04T07:56:07Z</time></trkpt>
<trkpt lat="39.629866" lon="2.575644"><ele>374.57</ele><time>2010-09-04T07:56:17Z</time></trkpt>
<trkpt lat="39.629881" lon="2.575581"><ele>375.53</ele><time>2010-09-04T07:56:22Z</time></trkpt>
<trkpt lat="39.629858" lon="2.575482"><ele>376.49</ele><time>2010-09-04T07:56:28Z</time></trkpt>
<trkpt lat="39.629855" lon="2.575406"><ele>377.45</ele><time>2010-09-04T07:56:34Z</time></trkpt>
<trkpt lat="39.629834" lon="2.575322"><ele>378.42</ele><time>2010-09-04T07:56:39Z</time></trkpt>
<trkpt lat="39.629849" lon="2.575150"><ele>379.38</ele><time>2010-09-04T07:56:47Z</time></trkpt>
<trkpt lat="39.629858" lon="2.575096"><ele>379.86</ele><time>2010-09-04T07:56:50Z</time></trkpt>
<trkpt lat="39.629855" lon="2.575021"><ele>380.82</ele><time>2010-09-04T07:56:54Z</time></trkpt>
<trkpt lat="39.629880" lon="2.574942"><ele>381.30</ele><time>2010-09-04T07:57:02Z</time></trkpt>
<trkpt lat="39.629916" lon="2.574875"><ele>382.26</ele><time>2010-09-04T07:57:15Z</time></trkpt>
<trkpt lat="39.629924" lon="2.574790"><ele>383.70</ele><time>2010-09-04T07:57:26Z</time></trkpt>
<trkpt lat="39.629953" lon="2.574693"><ele>384.66</ele><time>2010-09-04T07:57:35Z</time></trkpt>
<trkpt lat="39.629966" lon="2.574634"><ele>385.63</ele><time>2010-09-04T07:57:40Z</time></trkpt>
<trkpt lat="39.629981" lon="2.574533"><ele>387.07</ele><time>2010-09-04T07:57:50Z</time></trkpt>
<trkpt lat="39.629995" lon="2.574436"><ele>388.03</ele><time>2010-09-04T07:57:59Z</time></trkpt>
<trkpt lat="39.629992" lon="2.574434"><ele>388.03</ele><time>2010-09-04T07:58:07Z</time></trkpt>
<trkpt lat="39.630000" lon="2.574362"><ele>388.51</ele><time>2010-09-04T07:58:17Z</time></trkpt>
<trkpt lat="39.630033" lon="2.574167"><ele>390.43</ele><time>2010-09-04T07:58:28Z</time></trkpt>
<trkpt lat="39.630058" lon="2.573974"><ele>391.39</ele><time>2010-09-04T07:58:38Z</time></trkpt>
<trkpt lat="39.630074" lon="2.573959"><ele>391.39</ele><time>2010-09-04T07:58:39Z</time></trkpt>
<trkpt lat="39.630092" lon="2.573725"><ele>392.84</ele><time>2010-09-04T07:58:51Z</time></trkpt>
<trkpt lat="39.630066" lon="2.573618"><ele>394.28</ele><time>2010-09-04T07:58:58Z</time></trkpt>
<trkpt lat="39.630071" lon="2.573587"><ele>394.28</ele><time>2010-09-04T07:59:00Z</time></trkpt>
<trkpt lat="39.630051" lon="2.573491"><ele>395.24</ele><time>2010-09-04T07:59:05Z</time></trkpt>
<trkpt lat="39.630101" lon="2.573240"><ele>396.68</ele><time>2010-09-04T07:59:18Z</time></trkpt>
<trkpt lat="39.630162" lon="2.573117"><ele>397.64</ele><time>2010-09-04T07:59:26Z</time></trkpt>
<trkpt lat="39.630134" lon="2.572988"><ele>399.08</ele><time>2010-09-04T07:59:35Z</time></trkpt>
<trkpt lat="39.630146" lon="2.572982"><ele>398.60</ele><time>2010-09-04T07:59:43Z</time></trkpt>
<trkpt lat="39.630138" lon="2.572942"><ele>399.08</ele><time>2010-09-04T08:00:11Z</time></trkpt>
<trkpt lat="39.630156" lon="2.572936"><ele>399.08</ele><time>2010-09-04T08:00:18Z</time></trkpt>
<trkpt lat="39.630153" lon="2.572933"><ele>400.05</ele><time>2010-09-04T08:01:41Z</time></trkpt>
<trkpt lat="39.630152" lon="2.572934"><ele>400.05</ele><time>2010-09-04T08:02:45Z</time></trkpt>
<trkpt lat="39.630154" lon="2.572924"><ele>400.05</ele><time>2010-09-04T08:04:08Z</time></trkpt>
<trkpt lat="39.630155" lon="2.572925"><ele>400.53</ele><time>2010-09-04T08:06:36Z</time></trkpt>
<trkpt lat="39.630152" lon="2.572893"><ele>400.53</ele><time>2010-09-04T08:06:44Z</time></trkpt>
<trkpt lat="39.630200" lon="2.572856"><ele>401.97</ele><time>2010-09-04T08:06:51Z</time></trkpt>
<trkpt lat="39.630314" lon="2.572832"><ele>403.41</ele><time>2010-09-04T08:07:02Z</time></trkpt>
<trkpt lat="39.630369" lon="2.572815"><ele>404.37</ele><time>2010-09-04T08:07:10Z</time></trkpt>
<trkpt lat="39.630492" lon="2.572819"><ele>405.81</ele><time>2010-09-04T08:07:20Z</time></trkpt>
<trkpt lat="39.630624" lon="2.572811"><ele>407.74</ele><time>2010-09-04T08:07:30Z</time></trkpt>
<trkpt lat="39.630714" lon="2.572789"><ele>408.22</ele><time>2010-09-04T08:07:37Z</time></trkpt>
<trkpt lat="39.630815" lon="2.572771"><ele>408.22</ele><time>2010-09-04T08:07:45Z</time></trkpt>
<trkpt lat="39.630882" lon="2.572753"><ele>408.70</ele><time>2010-09-04T08:07:50Z</time></trkpt>
<trkpt lat="39.630977" lon="2.572745"><ele>408.22</ele><time>2010-09-04T08:08:00Z</time></trkpt>
<trkpt lat="39.631113" lon="2.572714"><ele>407.26</ele><time>2010-09-04T08:08:07Z</time></trkpt>
<trkpt lat="39.631293" lon="2.572731"><ele>405.81</ele><time>2010-09-04T08:08:12Z</time></trkpt>
<trkpt lat="39.631425" lon="2.572865"><ele>405.33</ele><time>2010-09-04T08:08:16Z</time></trkpt>
<trkpt lat="39.631549" lon="2.573131"><ele>406.29</ele><time>2010-09-04T08:08:24Z</time></trkpt>
<trkpt lat="39.631692" lon="2.573265"><ele>409.18</ele><time>2010-09-04T08:08:33Z</time></trkpt>
<trkpt lat="39.631764" lon="2.573305"><ele>410.14</ele><time>2010-09-04T08:08:38Z</time></trkpt>
<trkpt lat="39.631891" lon="2.573305"><ele>412.06</ele><time>2010-09-04T08:08:47Z</time></trkpt>
<trkpt lat="39.631999" lon="2.573282"><ele>413.98</ele><time>2010-09-04T08:08:56Z</time></trkpt>
<trkpt lat="39.632080" lon="2.573220"><ele>415.43</ele><time>2010-09-04T08:09:04Z</time></trkpt>
<trkpt lat="39.632140" lon="2.573118"><ele>417.35</ele><time>2010-09-04T08:09:12Z</time></trkpt>
<trkpt lat="39.632159" lon="2.573051"><ele>418.31</ele><time>2010-09-04T08:09:17Z</time></trkpt>
<trkpt lat="39.632195" lon="2.572935"><ele>419.75</ele><time>2010-09-04T08:09:25Z</time></trkpt>
<trkpt lat="39.632151" lon="2.572748"><ele>421.19</ele><time>2010-09-04T08:09:36Z</time></trkpt>
<trkpt lat="39.632106" lon="2.572603"><ele>422.64</ele><time>2010-09-04T08:09:46Z</time></trkpt>
<trkpt lat="39.632077" lon="2.572561"><ele>424.08</ele><time>2010-09-04T08:09:52Z</time></trkpt>
<trkpt lat="39.632020" lon="2.572454"><ele>425.52</ele><time>2010-09-04T08:10:00Z</time></trkpt>
<trkpt lat="39.631946" lon="2.572351"><ele>426.96</ele><time>2010-09-04T08:10:08Z</time></trkpt>
<trkpt lat="39.631892" lon="2.572214"><ele>428.89</ele><time>2010-09-04T08:10:18Z</time></trkpt>
<trkpt lat="39.631880" lon="2.572056"><ele>430.81</ele><time>2010-09-04T08:10:28Z</time></trkpt>
<trkpt lat="39.631860" lon="2.571884"><ele>432.25</ele><time>2010-09-04T08:10:39Z</time></trkpt>
<trkpt lat="39.631838" lon="2.571707"><ele>433.69</ele><time>2010-09-04T08:10:51Z</time></trkpt>
<trkpt lat="39.631834" lon="2.571671"><ele>434.17</ele><time>2010-09-04T08:10:53Z</time></trkpt>
<trkpt lat="39.631799" lon="2.571558"><ele>435.61</ele><time>2010-09-04T08:11:03Z</time></trkpt>
<trkpt lat="39.631792" lon="2.571497"><ele>437.06</ele><time>2010-09-04T08:11:10Z</time></trkpt>
<trkpt lat="39.631752" lon="2.571361"><ele>438.98</ele><time>2010-09-04T08:11:20Z</time></trkpt>
<trkpt lat="39.631720" lon="2.571225"><ele>439.94</ele><time>2010-09-04T08:11:30Z</time></trkpt>
<trkpt lat="39.631723" lon="2.571214"><ele>439.46</ele><time>2010-09-04T08:11:36Z</time></trkpt>
<trkpt lat="39.631742" lon="2.571139"><ele>441.86</ele><time>2010-09-04T08:12:41Z</time></trkpt>
<trkpt lat="39.631779" lon="2.571099"><ele>442.34</ele><time>2010-09-04T08:12:52Z</time></trkpt>
<trkpt lat="39.631778" lon="2.571109"><ele>442.34</ele><time>2010-09-04T08:13:05Z</time></trkpt>
<trkpt lat="39.631788" lon="2.571070"><ele>442.82</ele><time>2010-09-04T08:13:16Z</time></trkpt>
<trkpt lat="39.631829" lon="2.571042"><ele>443.31</ele><time>2010-09-04T08:13:21Z</time></trkpt>
<trkpt lat="39.631864" lon="2.571007"><ele>443.79</ele><time>2010-09-04T08:13:31Z</time></trkpt>
<trkpt lat="39.631915" lon="2.570965"><ele>445.71</ele><time>2010-09-04T08:14:31Z</time></trkpt>
<trkpt lat="39.631985" lon="2.570936"><ele>446.19</ele><time>2010-09-04T08:14:37Z</time></trkpt>
<trkpt lat="39.632100" lon="2.570908"><ele>447.63</ele><time>2010-09-04T08:14:43Z</time></trkpt>
<trkpt lat="39.632221" lon="2.570737"><ele>449.07</ele><time>2010-09-04T08:14:53Z</time></trkpt>
<trkpt lat="39.632287" lon="2.570563"><ele>447.63</ele><time>2010-09-04T08:14:58Z</time></trkpt>
<trkpt lat="39.632389" lon="2.570284"><ele>447.15</ele><time>2010-09-04T08:15:03Z</time></trkpt>
<trkpt lat="39.632445" lon="2.570029"><ele>446.19</ele><time>2010-09-04T08:15:07Z</time></trkpt>
<trkpt lat="39.632671" lon="2.569797"><ele>445.71</ele><time>2010-09-04T08:15:13Z</time></trkpt>
<trkpt lat="39.632758" lon="2.569700"><ele>446.19</ele><time>2010-09-04T08:15:19Z</time></trkpt>
<trkpt lat="39.632800" lon="2.569645"><ele>446.19</ele><time>2010-09-04T08:15:31Z</time></trkpt>
<trkpt lat="39.632810" lon="2.569617"><ele>446.67</ele><time>2010-09-04T08:15:59Z</time></trkpt>
<trkpt lat="39.632858" lon="2.569452"><ele>447.15</ele><time>2010-09-04T08:16:10Z</time></trkpt>
<trkpt lat="39.632878" lon="2.569348"><ele>447.63</ele><time>2010-09-04T08:16:16Z</time></trkpt>
<trkpt lat="39.632909" lon="2.569109"><ele>448.59</ele><time>2010-09-04T08:16:27Z</time></trkpt>
<trkpt lat="39.632880" lon="2.568806"><ele>448.59</ele><time>2010-09-04T08:16:37Z</time></trkpt>
<trkpt lat="39.632887" lon="2.568568"><ele>449.07</ele><time>2010-09-04T08:16:46Z</time></trkpt>
<trkpt lat="39.632879" lon="2.568313"><ele>451.00</ele><time>2010-09-04T08:16:56Z</time></trkpt>
<trkpt lat="39.632777" lon="2.568097"><ele>451.96</ele><time>2010-09-04T08:17:06Z</time></trkpt>
<trkpt lat="39.632651" lon="2.567879"><ele>452.92</ele><time>2010-09-04T08:17:17Z</time></trkpt>
<trkpt lat="39.632481" lon="2.567691"><ele>455.32</ele><time>2010-09-04T08:17:30Z</time></trkpt>
<trkpt lat="39.632364" lon="2.567569"><ele>457.72</ele><time>2010-09-04T08:17:40Z</time></trkpt>
<trkpt lat="39.632351" lon="2.567555"><ele>457.72</ele><time>2010-09-04T08:17:41Z</time></trkpt>
<trkpt lat="39.632253" lon="2.567401"><ele>459.17</ele><time>2010-09-04T08:17:51Z</time></trkpt>
<trkpt lat="39.632138" lon="2.567285"><ele>460.61</ele><time>2010-09-04T08:18:02Z</time></trkpt>
<trkpt lat="39.632128" lon="2.567274"><ele>460.61</ele><time>2010-09-04T08:18:03Z</time></trkpt>
<trkpt lat="39.632075" lon="2.567229"><ele>460.61</ele><time>2010-09-04T08:18:07Z</time></trkpt>
<trkpt lat="39.632034" lon="2.567144"><ele>462.05</ele><time>2010-09-04T08:18:14Z</time></trkpt>
<trkpt lat="39.631993" lon="2.567101"><ele>462.53</ele><time>2010-09-04T08:18:18Z</time></trkpt>
<trkpt lat="39.631911" lon="2.566892"><ele>464.45</ele><time>2010-09-04T08:18:30Z</time></trkpt>
<trkpt lat="39.631874" lon="2.566782"><ele>465.42</ele><time>2010-09-04T08:18:36Z</time></trkpt>
<trkpt lat="39.631833" lon="2.566602"><ele>466.38</ele><time>2010-09-04T08:18:46Z</time></trkpt>
<trkpt lat="39.631830" lon="2.566490"><ele>467.34</ele><time>2010-09-04T08:18:55Z</time></trkpt>
<trkpt lat="39.631827" lon="2.566462"><ele>467.34</ele><time>2010-09-04T08:18:57Z</time></trkpt>
<trkpt lat="39.631840" lon="2.566414"><ele>468.30</ele><time>2010-09-04T08:19:00Z</time></trkpt>
<trkpt lat="39.631848" lon="2.566374"><ele>468.78</ele><time>2010-09-04T08:19:03Z</time></trkpt>
<trkpt lat="39.631863" lon="2.566231"><ele>469.74</ele><time>2010-09-04T08:19:12Z</time></trkpt>
<trkpt lat="39.631911" lon="2.566038"><ele>471.66</ele><time>2010-09-04T08:19:24Z</time></trkpt>
<trkpt lat="39.631939" lon="2.565910"><ele>473.59</ele><time>2010-09-04T08:19:33Z</time></trkpt>
<trkpt lat="39.631947" lon="2.565852"><ele>474.55</ele><time>2010-09-04T08:19:37Z</time></trkpt>
<trkpt lat="39.631937" lon="2.565666"><ele>476.47</ele><time>2010-09-04T08:19:49Z</time></trkpt>
<trkpt lat="39.631986" lon="2.565640"><ele>477.43</ele><time>2010-09-04T08:19:54Z</time></trkpt>
<trkpt lat="39.632018" lon="2.565651"><ele>477.91</ele><time>2010-09-04T08:19:57Z</time></trkpt>
<trkpt lat="39.632053" lon="2.565655"><ele>478.39</ele><time>2010-09-04T08:20:00Z</time></trkpt>
<trkpt lat="39.632153" lon="2.565727"><ele>479.84</ele><time>2010-09-04T08:20:10Z</time></trkpt>
<trkpt lat="39.632213" lon="2.565754"><ele>480.32</ele><time>2010-09-04T08:20:19Z</time></trkpt>
<trkpt lat="39.632226" lon="2.565781"><ele>480.80</ele><time>2010-09-04T08:20:39Z</time></trkpt>
<trkpt lat="39.632263" lon="2.565820"><ele>481.28</ele><time>2010-09-04T08:20:43Z</time></trkpt>
<trkpt lat="39.632425" lon="2.565946"><ele>484.64</ele><time>2010-09-04T08:20:58Z</time></trkpt>
<trkpt lat="39.632552" lon="2.566010"><ele>487.05</ele><time>2010-09-04T08:21:10Z</time></trkpt>
<trkpt lat="39.632723" lon="2.566005"><ele>488.97</ele><time>2010-09-04T08:21:25Z</time></trkpt>
<trkpt lat="39.632789" lon="2.565899"><ele>491.37</ele><time>2010-09-04T08:21:35Z</time></trkpt>
<trkpt lat="39.632822" lon="2.565786"><ele>492.33</ele><time>2010-09-04T08:21:43Z</time></trkpt>
<trkpt lat="39.632821" lon="2.565571"><ele>494.26</ele><time>2010-09-04T08:21:57Z</time></trkpt>
<trkpt lat="39.632819" lon="2.565402"><ele>495.22</ele><time>2010-09-04T08:22:07Z</time></trkpt>
<trkpt lat="39.632769" lon="2.565183"><ele>496.18</ele><time>2010-09-04T08:22:20Z</time></trkpt>
<trkpt lat="39.632741" lon="2.565135"><ele>497.14</ele><time>2010-09-04T08:22:24Z</time></trkpt>
<trkpt lat="39.632660" lon="2.564910"><ele>499.54</ele><time>2010-09-04T08:22:40Z</time></trkpt>
<trkpt lat="39.632669" lon="2.564758"><ele>500.98</ele><time>2010-09-04T08:22:50Z</time></trkpt>
<trkpt lat="39.632686" lon="2.564692"><ele>501.95</ele><time>2010-09-04T08:22:55Z</time></trkpt>
<trkpt lat="39.632779" lon="2.564543"><ele>504.35</ele><time>2010-09-04T08:23:08Z</time></trkpt>
<trkpt lat="39.632851" lon="2.564474"><ele>505.79</ele><time>2010-09-04T08:23:20Z</time></trkpt>
<trkpt lat="39.632849" lon="2.564463"><ele>505.79</ele><time>2010-09-04T08:23:36Z</time></trkpt>
<trkpt lat="39.632850" lon="2.564452"><ele>505.79</ele><time>2010-09-04T08:23:37Z</time></trkpt>
<trkpt lat="39.632894" lon="2.564394"><ele>506.75</ele><time>2010-09-04T08:23:43Z</time></trkpt>
<trkpt lat="39.632999" lon="2.564307"><ele>508.19</ele><time>2010-09-04T08:23:54Z</time></trkpt>
<trkpt lat="39.633089" lon="2.564207"><ele>509.64</ele><time>2010-09-04T08:24:04Z</time></trkpt>
<trkpt lat="39.633183" lon="2.564066"><ele>511.08</ele><time>2010-09-04T08:24:17Z</time></trkpt>
<trkpt lat="39.633222" lon="2.563978"><ele>513.00</ele><time>2010-09-04T08:24:25Z</time></trkpt>
<trkpt lat="39.633241" lon="2.563911"><ele>513.48</ele><time>2010-09-04T08:24:30Z</time></trkpt>
<trkpt lat="39.633247" lon="2.563862"><ele>513.96</ele><time>2010-09-04T08:24:34Z</time></trkpt>
<trkpt lat="39.633240" lon="2.563803"><ele>514.44</ele><time>2010-09-04T08:24:44Z</time></trkpt>
<trkpt lat="39.633233" lon="2.563792"><ele>514.44</ele><time>2010-09-04T08:24:59Z</time></trkpt>
<trkpt lat="39.633227" lon="2.563653"><ele>515.88</ele><time>2010-09-04T08:25:10Z</time></trkpt>
<trkpt lat="39.633225" lon="2.563634"><ele>515.88</ele><time>2010-09-04T08:25:11Z</time></trkpt>
<trkpt lat="39.633210" lon="2.563581"><ele>516.37</ele><time>2010-09-04T08:25:14Z</time></trkpt>
<trkpt lat="39.633203" lon="2.563334"><ele>518.29</ele><time>2010-09-04T08:25:30Z</time></trkpt>
<trkpt lat="39.633224" lon="2.563211"><ele>519.73</ele><time>2010-09-04T08:25:38Z</time></trkpt>
<trkpt lat="39.633237" lon="2.563093"><ele>519.73</ele><time>2010-09-04T08:25:44Z</time></trkpt>
<trkpt lat="39.633253" lon="2.563050"><ele>520.21</ele><time>2010-09-04T08:25:47Z</time></trkpt>
<trkpt lat="39.633357" lon="2.562919"><ele>521.65</ele><time>2010-09-04T08:25:58Z</time></trkpt>
<trkpt lat="39.633456" lon="2.562822"><ele>522.13</ele><time>2010-09-04T08:26:06Z</time></trkpt>
<trkpt lat="39.633539" lon="2.562770"><ele>523.58</ele><time>2010-09-04T08:26:13Z</time></trkpt>
<trkpt lat="39.633576" lon="2.562732"><ele>524.06</ele><time>2010-09-04T08:26:17Z</time></trkpt>
<trkpt lat="39.633600" lon="2.562708"><ele>524.54</ele><time>2010-09-04T08:26:20Z</time></trkpt>
<trkpt lat="39.633655" lon="2.562630"><ele>525.02</ele><time>2010-09-04T08:26:31Z</time></trkpt>
<trkpt lat="39.633654" lon="2.562643"><ele>525.50</ele><time>2010-09-04T08:26:42Z</time></trkpt>
<trkpt lat="39.633699" lon="2.562608"><ele>525.98</ele><time>2010-09-04T08:27:01Z</time></trkpt>
<trkpt lat="39.633713" lon="2.562605"><ele>526.94</ele><time>2010-09-04T08:27:02Z</time></trkpt>
<trkpt lat="39.633805" lon="2.562557"><ele>527.90</ele><time>2010-09-04T08:27:12Z</time></trkpt>
<trkpt lat="39.633869" lon="2.562503"><ele>529.34</ele><time>2010-09-04T08:27:20Z</time></trkpt>
<trkpt lat="39.633918" lon="2.562457"><ele>530.79</ele><time>2010-09-04T08:27:28Z</time></trkpt>
<trkpt lat="39.634001" lon="2.562345"><ele>532.71</ele><time>2010-09-04T08:27:39Z</time></trkpt>
<trkpt lat="39.634073" lon="2.562297"><ele>534.15</ele><time>2010-09-04T08:27:47Z</time></trkpt>
<trkpt lat="39.634129" lon="2.562268"><ele>535.11</ele><time>2010-09-04T08:27:57Z</time></trkpt>
<trkpt lat="39.634128" lon="2.562264"><ele>535.11</ele><time>2010-09-04T08:28:04Z</time></trkpt>
<trkpt lat="39.634232" lon="2.562151"><ele>537.51</ele><time>2010-09-04T08:28:16Z</time></trkpt>
<trkpt lat="39.634341" lon="2.562073"><ele>538.96</ele><time>2010-09-04T08:28:26Z</time></trkpt>
<trkpt lat="39.634496" lon="2.561999"><ele>540.88</ele><time>2010-09-04T08:28:38Z</time></trkpt>
<trkpt lat="39.634663" lon="2.561916"><ele>541.84</ele><time>2010-09-04T08:28:49Z</time></trkpt>
<trkpt lat="39.634880" lon="2.561849"><ele>541.36</ele><time>2010-09-04T08:28:57Z</time></trkpt>
<trkpt lat="39.634935" lon="2.561828"><ele>541.36</ele><time>2010-09-04T08:28:59Z</time></trkpt>
<trkpt lat="39.635080" lon="2.561799"><ele>541.36</ele><time>2010-09-04T08:29:05Z</time></trkpt>
<trkpt lat="39.635347" lon="2.561912"><ele>539.92</ele><time>2010-09-04T08:29:12Z</time></trkpt>
<trkpt lat="39.635482" lon="2.561880"><ele>538.48</ele><time>2010-09-04T08:29:17Z</time></trkpt>
<trkpt lat="39.635505" lon="2.561842"><ele>537.99</ele><time>2010-09-04T08:29:19Z</time></trkpt>
<trkpt lat="39.635505" lon="2.561734"><ele>537.99</ele><time>2010-09-04T08:29:24Z</time></trkpt>
<trkpt lat="39.635441" lon="2.561745"><ele>537.99</ele><time>2010-09-04T08:29:33Z</time></trkpt>
<trkpt lat="39.635452" lon="2.561743"><ele>538.48</ele><time>2010-09-04T08:30:14Z</time></trkpt>
<trkpt lat="39.635504" lon="2.561711"><ele>538.48</ele><time>2010-09-04T08:30:20Z</time></trkpt>
<trkpt lat="39.635514" lon="2.561716"><ele>538.48</ele><time>2010-09-04T08:30:21Z</time></trkpt>
<trkpt lat="39.635597" lon="2.561752"><ele>537.99</ele><time>2010-09-04T08:30:27Z</time></trkpt>
<trkpt lat="39.635653" lon="2.561741"><ele>537.99</ele><time>2010-09-04T08:30:32Z</time></trkpt>
<trkpt lat="39.635869" lon="2.561712"><ele>536.55</ele><time>2010-09-04T08:30:43Z</time></trkpt>
<trkpt lat="39.635922" lon="2.561674"><ele>536.07</ele><time>2010-09-04T08:30:47Z</time></trkpt>
<trkpt lat="39.635914" lon="2.561600"><ele>537.03</ele><time>2010-09-04T08:30:54Z</time></trkpt>
<trkpt lat="39.635907" lon="2.561592"><ele>537.03</ele><time>2010-09-04T08:30:55Z</time></trkpt>
<trkpt lat="39.635812" lon="2.561555"><ele>537.99</ele><time>2010-09-04T08:31:05Z</time></trkpt>
<trkpt lat="39.635645" lon="2.561441"><ele>540.40</ele><time>2010-09-04T08:31:19Z</time></trkpt>
<trkpt lat="39.635443" lon="2.561285"><ele>541.84</ele><time>2010-09-04T08:31:33Z</time></trkpt>
<trkpt lat="39.635282" lon="2.561140"><ele>542.32</ele><time>2010-09-04T08:31:43Z</time></trkpt>
<trkpt lat="39.635207" lon="2.561053"><ele>543.28</ele><time>2010-09-04T08:31:49Z</time></trkpt>
<trkpt lat="39.635082" lon="2.560886"><ele>543.76</ele><time>2010-09-04T08:31:58Z</time></trkpt>
<trkpt lat="39.634909" lon="2.560601"><ele>544.72</ele><time>2010-09-04T08:32:11Z</time></trkpt>
<trkpt lat="39.634807" lon="2.560362"><ele>545.20</ele><time>2010-09-04T08:32:21Z</time></trkpt>
<trkpt lat="39.634739" lon="2.560176"><ele>546.65</ele><time>2010-09-04T08:32:29Z</time></trkpt>
<trkpt lat="39.634654" lon="2.559977"><ele>547.61</ele><time>2010-09-04T08:32:38Z</time></trkpt>
<trkpt lat="39.634571" lon="2.559809"><ele>548.57</ele><time>2010-09-04T08:32:47Z</time></trkpt>
<trkpt lat="39.634555" lon="2.559787"><ele>549.53</ele><time>2010-09-04T08:32:49Z</time></trkpt>
<trkpt lat="39.634514" lon="2.559645"><ele>550.97</ele><time>2010-09-04T08:32:59Z</time></trkpt>
<trkpt lat="39.634530" lon="2.559579"><ele>551.93</ele><time>2010-09-04T08:33:03Z</time></trkpt>
<trkpt lat="39.634543" lon="2.559540"><ele>551.93</ele><time>2010-09-04T08:33:06Z</time></trkpt>
<trkpt lat="39.634546" lon="2.559437"><ele>553.38</ele><time>2010-09-04T08:33:11Z</time></trkpt>
<trkpt lat="39.634555" lon="2.559379"><ele>553.86</ele><time>2010-09-04T08:33:14Z</time></trkpt>
<trkpt lat="39.634561" lon="2.559309"><ele>554.34</ele><time>2010-09-04T08:33:18Z</time></trkpt>
<trkpt lat="39.634581" lon="2.559191"><ele>555.78</ele><time>2010-09-04T08:33:25Z</time></trkpt>
<trkpt lat="39.634575" lon="2.559173"><ele>555.78</ele><time>2010-09-04T08:33:26Z</time></trkpt>
<trkpt lat="39.634579" lon="2.559139"><ele>556.26</ele><time>2010-09-04T08:33:29Z</time></trkpt>
<trkpt lat="39.634594" lon="2.559073"><ele>557.70</ele><time>2010-09-04T08:33:33Z</time></trkpt>
<trkpt lat="39.634618" lon="2.559029"><ele>558.18</ele><time>2010-09-04T08:33:37Z</time></trkpt>
<trkpt lat="39.634611" lon="2.558907"><ele>560.59</ele><time>2010-09-04T08:33:46Z</time></trkpt>
<trkpt lat="39.634643" lon="2.558854"><ele>561.55</ele><time>2010-09-04T08:33:51Z</time></trkpt>
<trkpt lat="39.634690" lon="2.558907"><ele>562.51</ele><time>2010-09-04T08:33:57Z</time></trkpt>
<trkpt lat="39.634730" lon="2.558951"><ele>563.47</ele><time>2010-09-04T08:34:02Z</time></trkpt>
<trkpt lat="39.634740" lon="2.559056"><ele>564.43</ele><time>2010-09-04T08:34:09Z</time></trkpt>
<trkpt lat="39.634778" lon="2.559158"><ele>566.35</ele><time>2010-09-04T08:34:19Z</time></trkpt>
<trkpt lat="39.634798" lon="2.559239"><ele>567.32</ele><time>2010-09-04T08:34:26Z</time></trkpt>
<trkpt lat="39.634831" lon="2.559365"><ele>569.24</ele><time>2010-09-04T08:34:37Z</time></trkpt>
<trkpt lat="39.634902" lon="2.559470"><ele>570.68</ele><time>2010-09-04T08:34:49Z</time></trkpt>
<trkpt lat="39.634982" lon="2.559550"><ele>572.60</ele><time>2010-09-04T08:35:01Z</time></trkpt>
<trkpt lat="39.635069" lon="2.559620"><ele>574.04</ele><time>2010-09-04T08:35:11Z</time></trkpt>
<trkpt lat="39.635192" lon="2.559760"><ele>575.49</ele><time>2010-09-04T08:35:25Z</time></trkpt>
<trkpt lat="39.635311" lon="2.559885"><ele>576.45</ele><time>2010-09-04T08:35:36Z</time></trkpt>
<trkpt lat="39.635441" lon="2.559937"><ele>577.41</ele><time>2010-09-04T08:35:47Z</time></trkpt>
<trkpt lat="39.635646" lon="2.559966"><ele>577.41</ele><time>2010-09-04T08:35:57Z</time></trkpt>
<trkpt lat="39.635813" lon="2.560063"><ele>576.93</ele><time>2010-09-04T08:36:04Z</time></trkpt>
<trkpt lat="39.635986" lon="2.560175"><ele>577.41</ele><time>2010-09-04T08:36:12Z</time></trkpt>
<trkpt lat="39.636146" lon="2.560196"><ele>577.89</ele><time>2010-09-04T08:36:20Z</time></trkpt>
<trkpt lat="39.636333" lon="2.560201"><ele>578.85</ele><time>2010-09-04T08:36:31Z</time></trkpt>
<trkpt lat="39.636440" lon="2.560200"><ele>580.29</ele><time>2010-09-04T08:36:38Z</time></trkpt>
<trkpt lat="39.636584" lon="2.560134"><ele>581.25</ele><time>2010-09-04T08:36:47Z</time></trkpt>
<trkpt lat="39.636792" lon="2.560012"><ele>583.18</ele><time>2010-09-04T08:37:01Z</time></trkpt>
<trkpt lat="39.636893" lon="2.559930"><ele>584.62</ele><time>2010-09-04T08:37:08Z</time></trkpt>
<trkpt lat="39.636909" lon="2.559882"><ele>585.10</ele><time>2010-09-04T08:37:11Z</time></trkpt>
<trkpt lat="39.636957" lon="2.559824"><ele>586.06</ele><time>2010-09-04T08:37:15Z</time></trkpt>
<trkpt lat="39.636966" lon="2.559791"><ele>586.54</ele><time>2010-09-04T08:37:17Z</time></trkpt>
<trkpt lat="39.637025" lon="2.559699"><ele>587.98</ele><time>2010-09-04T08:37:23Z</time></trkpt>
<trkpt lat="39.637033" lon="2.559684"><ele>588.46</ele><time>2010-09-04T08:37:24Z</time></trkpt>
<trkpt lat="39.637049" lon="2.559638"><ele>588.95</ele><time>2010-09-04T08:37:26Z</time></trkpt>
<trkpt lat="39.637072" lon="2.559609"><ele>589.43</ele><time>2010-09-04T08:37:28Z</time></trkpt>
<trkpt lat="39.637071" lon="2.559515"><ele>590.87</ele><time>2010-09-04T08:37:36Z</time></trkpt>
<trkpt lat="39.637036" lon="2.559506"><ele>591.35</ele><time>2010-09-04T08:37:39Z</time></trkpt>
<trkpt lat="39.636977" lon="2.559504"><ele>592.31</ele><time>2010-09-04T08:37:49Z</time></trkpt>
<trkpt lat="39.636878" lon="2.559535"><ele>593.27</ele><time>2010-09-04T08:38:02Z</time></trkpt>
<trkpt lat="39.636838" lon="2.559525"><ele>593.75</ele><time>2010-09-04T08:38:12Z</time></trkpt>
<trkpt lat="39.636746" lon="2.559516"><ele>595.19</ele><time>2010-09-04T08:38:23Z</time></trkpt>
<trkpt lat="39.636668" lon="2.559537"><ele>597.12</ele><time>2010-09-04T08:38:35Z</time></trkpt>
<trkpt lat="39.636566" lon="2.559605"><ele>599.04</ele><time>2010-09-04T08:38:50Z</time></trkpt>
<trkpt lat="39.636497" lon="2.559615"><ele>600.48</ele><time>2010-09-04T08:39:01Z</time></trkpt>
<trkpt lat="39.636440" lon="2.559608"><ele>601.44</ele><time>2010-09-04T08:39:19Z</time></trkpt>
<trkpt lat="39.636335" lon="2.559583"><ele>603.36</ele><time>2010-09-04T08:39:31Z</time></trkpt>
<trkpt lat="39.636234" lon="2.559563"><ele>604.81</ele><time>2010-09-04T08:39:41Z</time></trkpt>
<trkpt lat="39.636170" lon="2.559564"><ele>605.77</ele><time>2010-09-04T08:39:48Z</time></trkpt>
<trkpt lat="39.636118" lon="2.559519"><ele>606.25</ele><time>2010-09-04T08:39:54Z</time></trkpt>
<trkpt lat="39.636102" lon="2.559491"><ele>606.73</ele><time>2010-09-04T08:40:00Z</time></trkpt>
<trkpt lat="39.636096" lon="2.559481"><ele>606.73</ele><time>2010-09-04T08:40:01Z</time></trkpt>
<trkpt lat="39.636051" lon="2.559415"><ele>607.69</ele><time>2010-09-04T08:40:06Z</time></trkpt>
<trkpt lat="39.636044" lon="2.559364"><ele>608.17</ele><time>2010-09-04T08:40:09Z</time></trkpt>
<trkpt lat="39.635977" lon="2.559258"><ele>609.61</ele><time>2010-09-04T08:40:17Z</time></trkpt>
<trkpt lat="39.635956" lon="2.559245"><ele>610.09</ele><time>2010-09-04T08:40:19Z</time></trkpt>
<trkpt lat="39.635926" lon="2.559175"><ele>611.06</ele><time>2010-09-04T08:40:24Z</time></trkpt>
<trkpt lat="39.635886" lon="2.559149"><ele>611.54</ele><time>2010-09-04T08:40:28Z</time></trkpt>
<trkpt lat="39.635762" lon="2.559068"><ele>613.46</ele><time>2010-09-04T08:40:38Z</time></trkpt>
<trkpt lat="39.635709" lon="2.558968"><ele>614.90</ele><time>2010-09-04T08:40:47Z</time></trkpt>
<trkpt lat="39.635714" lon="2.558959"><ele>615.38</ele><time>2010-09-04T08:40:48Z</time></trkpt>
<trkpt lat="39.635739" lon="2.558945"><ele>615.86</ele><time>2010-09-04T08:40:51Z</time></trkpt>
<trkpt lat="39.635844" lon="2.558957"><ele>617.30</ele><time>2010-09-04T08:41:01Z</time></trkpt>
<trkpt lat="39.635866" lon="2.558963"><ele>617.78</ele><time>2010-09-04T08:41:03Z</time></trkpt>
<trkpt lat="39.635942" lon="2.558986"><ele>618.26</ele><time>2010-09-04T08:41:10Z</time></trkpt>
<trkpt lat="39.635975" lon="2.558986"><ele>618.75</ele><time>2010-09-04T08:41:13Z</time></trkpt>
<trkpt lat="39.636063" lon="2.559049"><ele>619.23</ele><time>2010-09-04T08:41:21Z</time></trkpt>
<trkpt lat="39.636113" lon="2.559057"><ele>620.19</ele><time>2010-09-04T08:41:26Z</time></trkpt>
<trkpt lat="39.636181" lon="2.559083"><ele>621.15</ele><time>2010-09-04T08:41:33Z</time></trkpt>
<trkpt lat="39.636182" lon="2.559022"><ele>622.11</ele><time>2010-09-04T08:41:39Z</time></trkpt>
<trkpt lat="39.636114" lon="2.558973"><ele>623.55</ele><time>2010-09-04T08:41:48Z</time></trkpt>
<trkpt lat="39.636104" lon="2.558947"><ele>624.03</ele><time>2010-09-04T08:41:50Z</time></trkpt>
<trkpt lat="39.636042" lon="2.558908"><ele>624.99</ele><time>2010-09-04T08:41:57Z</time></trkpt>
<trkpt lat="39.636037" lon="2.558897"><ele>625.47</ele><time>2010-09-04T08:41:59Z</time></trkpt>
<trkpt lat="39.635934" lon="2.558847"><ele>626.92</ele><time>2010-09-04T08:42:09Z</time></trkpt>
<trkpt lat="39.635852" lon="2.558818"><ele>628.84</ele><time>2010-09-04T08:42:18Z</time></trkpt>
<trkpt lat="39.635812" lon="2.558725"><ele>630.28</ele><time>2010-09-04T08:42:27Z</time></trkpt>
<trkpt lat="39.635894" lon="2.558676"><ele>631.72</ele><time>2010-09-04T08:42:37Z</time></trkpt>
<trkpt lat="39.635943" lon="2.558666"><ele>632.68</ele><time>2010-09-04T08:42:43Z</time></trkpt>
<trkpt lat="39.636043" lon="2.558655"><ele>634.61</ele><time>2010-09-04T08:42:54Z</time></trkpt>
<trkpt lat="39.636165" lon="2.558588"><ele>637.01</ele><time>2010-09-04T08:43:08Z</time></trkpt>
<trkpt lat="39.636241" lon="2.558554"><ele>638.45</ele><time>2010-09-04T08:43:17Z</time></trkpt>
<trkpt lat="39.636330" lon="2.558544"><ele>639.41</ele><time>2010-09-04T08:43:26Z</time></trkpt>
<trkpt lat="39.636411" lon="2.558502"><ele>640.86</ele><time>2010-09-04T08:43:36Z</time></trkpt>
<trkpt lat="39.636482" lon="2.558474"><ele>641.82</ele><time>2010-09-04T08:43:44Z</time></trkpt>
<trkpt lat="39.636538" lon="2.558436"><ele>642.78</ele><time>2010-09-04T08:43:51Z</time></trkpt>
<trkpt lat="39.636694" lon="2.558337"><ele>645.18</ele><time>2010-09-04T08:44:07Z</time></trkpt>
<trkpt lat="39.636821" lon="2.558262"><ele>647.10</ele><time>2010-09-04T08:44:20Z</time></trkpt>
<trkpt lat="39.636982" lon="2.558183"><ele>649.51</ele><time>2010-09-04T08:44:37Z</time></trkpt>
<trkpt lat="39.637151" lon="2.558051"><ele>652.39</ele><time>2010-09-04T08:44:55Z</time></trkpt>
<trkpt lat="39.637274" lon="2.557782"><ele>653.83</ele><time>2010-09-04T08:45:13Z</time></trkpt>
<trkpt lat="39.637368" lon="2.557564"><ele>655.28</ele><time>2010-09-04T08:45:25Z</time></trkpt>
<trkpt lat="39.637451" lon="2.557330"><ele>655.28</ele><time>2010-09-04T08:45:35Z</time></trkpt>
<trkpt lat="39.637573" lon="2.557155"><ele>656.72</ele><time>2010-09-04T08:45:46Z</time></trkpt>
<trkpt lat="39.637731" lon="2.557044"><ele>658.64</ele><time>2010-09-04T08:45:58Z</time></trkpt>
<trkpt lat="39.637892" lon="2.556954"><ele>660.56</ele><time>2010-09-04T08:46:10Z</time></trkpt>
<trkpt lat="39.638064" lon="2.556860"><ele>662.01</ele><time>2010-09-04T08:46:23Z</time></trkpt>
<trkpt lat="39.638226" lon="2.556773"><ele>662.97</ele><time>2010-09-04T08:46:35Z</time></trkpt>
<trkpt lat="39.638367" lon="2.556695"><ele>664.89</ele><time>2010-09-04T08:46:47Z</time></trkpt>
<trkpt lat="39.638519" lon="2.556617"><ele>667.29</ele><time>2010-09-04T08:47:01Z</time></trkpt>
<trkpt lat="39.638688" lon="2.556544"><ele>669.70</ele><time>2010-09-04T08:47:17Z</time></trkpt>
<trkpt lat="39.638715" lon="2.556532"><ele>670.18</ele><time>2010-09-04T08:47:23Z</time></trkpt>
<trkpt lat="39.638782" lon="2.556522"><ele>670.66</ele><time>2010-09-04T08:48:08Z</time></trkpt>
<trkpt lat="39.638971" lon="2.556520"><ele>673.06</ele><time>2010-09-04T08:48:21Z</time></trkpt>
<trkpt lat="39.639185" lon="2.556520"><ele>674.98</ele><time>2010-09-04T08:48:34Z</time></trkpt>
<trkpt lat="39.639381" lon="2.556500"><ele>677.39</ele><time>2010-09-04T08:48:48Z</time></trkpt>
<trkpt lat="39.639563" lon="2.556476"><ele>678.83</ele><time>2010-09-04T08:49:01Z</time></trkpt>
<trkpt lat="39.639740" lon="2.556462"><ele>680.75</ele><time>2010-09-04T08:49:12Z</time></trkpt>
<trkpt lat="39.639858" lon="2.556331"><ele>680.75</ele><time>2010-09-04T08:49:21Z</time></trkpt>
<trkpt lat="39.639857" lon="2.556298"><ele>680.27</ele><time>2010-09-04T08:49:27Z</time></trkpt>
<trkpt lat="39.639865" lon="2.556312"><ele>682.19</ele><time>2010-09-04T09:01:03Z</time></trkpt>
<trkpt lat="39.639867" lon="2.556316"><ele>682.67</ele><time>2010-09-04T09:04:42Z</time></trkpt>
<trkpt lat="39.639865" lon="2.556319"><ele>683.15</ele><time>2010-09-04T09:05:43Z</time></trkpt>
<trkpt lat="39.639871" lon="2.556314"><ele>684.12</ele><time>2010-09-04T09:08:31Z</time></trkpt>
<trkpt lat="39.639871" lon="2.556309"><ele>685.08</ele><time>2010-09-04T09:10:46Z</time></trkpt>
<trkpt lat="39.639970" lon="2.556172"><ele>684.12</ele><time>2010-09-04T09:10:54Z</time></trkpt>
<trkpt lat="39.640015" lon="2.556126"><ele>684.12</ele><time>2010-09-04T09:10:57Z</time></trkpt>
<trkpt lat="39.640033" lon="2.556111"><ele>683.63</ele><time>2010-09-04T09:11:02Z</time></trkpt>
<trkpt lat="39.640055" lon="2.556095"><ele>684.12</ele><time>2010-09-04T09:11:06Z</time></trkpt>
<trkpt lat="39.640079" lon="2.556066"><ele>683.63</ele><time>2010-09-04T09:11:12Z</time></trkpt>
<trkpt lat="39.640105" lon="2.556033"><ele>683.63</ele><time>2010-09-04T09:11:19Z</time></trkpt>
<trkpt lat="39.640186" lon="2.555940"><ele>683.15</ele><time>2010-09-04T09:11:28Z</time></trkpt>
<trkpt lat="39.640289" lon="2.555787"><ele>684.12</ele><time>2010-09-04T09:11:35Z</time></trkpt>
<trkpt lat="39.640362" lon="2.555726"><ele>684.60</ele><time>2010-09-04T09:11:39Z</time></trkpt>
<trkpt lat="39.640433" lon="2.555541"><ele>685.08</ele><time>2010-09-04T09:11:48Z</time></trkpt>
<trkpt lat="39.640428" lon="2.555507"><ele>684.60</ele><time>2010-09-04T09:11:54Z</time></trkpt>
<trkpt lat="39.640460" lon="2.555454"><ele>685.08</ele><time>2010-09-04T09:12:02Z</time></trkpt>
<trkpt lat="39.640460" lon="2.555442"><ele>685.08</ele><time>2010-09-04T09:12:03Z</time></trkpt>
<trkpt lat="39.640490" lon="2.555357"><ele>685.08</ele><time>2010-09-04T09:12:10Z</time></trkpt>
<trkpt lat="39.640455" lon="2.555304"><ele>686.04</ele><time>2010-09-04T09:12:17Z</time></trkpt>
<trkpt lat="39.640450" lon="2.555221"><ele>687.00</ele><time>2010-09-04T09:12:25Z</time></trkpt>
<trkpt lat="39.640454" lon="2.555198"><ele>687.48</ele><time>2010-09-04T09:12:27Z</time></trkpt>
<trkpt lat="39.640459" lon="2.555099"><ele>688.44</ele><time>2010-09-04T09:12:34Z</time></trkpt>
<trkpt lat="39.640456" lon="2.555030"><ele>688.92</ele><time>2010-09-04T09:12:43Z</time></trkpt>
<trkpt lat="39.640471" lon="2.555038"><ele>688.92</ele><time>2010-09-04T09:12:49Z</time></trkpt>
<trkpt lat="39.640571" lon="2.554946"><ele>688.44</ele><time>2010-09-04T09:12:55Z</time></trkpt>
<trkpt lat="39.640665" lon="2.554876"><ele>688.92</ele><time>2010-09-04T09:13:00Z</time></trkpt>
<trkpt lat="39.640701" lon="2.554835"><ele>688.92</ele><time>2010-09-04T09:13:02Z</time></trkpt>
<trkpt lat="39.640855" lon="2.554739"><ele>687.96</ele><time>2010-09-04T09:13:08Z</time></trkpt>
<trkpt lat="39.641009" lon="2.554619"><ele>687.48</ele><time>2010-09-04T09:13:13Z</time></trkpt>
<trkpt lat="39.641154" lon="2.554688"><ele>687.00</ele><time>2010-09-04T09:13:18Z</time></trkpt>
<trkpt lat="39.641248" lon="2.554650"><ele>687.00</ele><time>2010-09-04T09:13:24Z</time></trkpt>
<trkpt lat="39.641310" lon="2.554528"><ele>687.00</ele><time>2010-09-04T09:13:30Z</time></trkpt>
<trkpt lat="39.641358" lon="2.554470"><ele>687.48</ele><time>2010-09-04T09:13:34Z</time></trkpt>
<trkpt lat="39.641349" lon="2.554425"><ele>687.96</ele><time>2010-09-04T09:13:37Z</time></trkpt>
<trkpt lat="39.641308" lon="2.554309"><ele>689.40</ele><time>2010-09-04T09:13:46Z</time></trkpt>
<trkpt lat="39.641345" lon="2.554296"><ele>689.40</ele><time>2010-09-04T09:13:53Z</time></trkpt>
<trkpt lat="39.641352" lon="2.554303"><ele>689.88</ele><time>2010-09-04T09:14:00Z</time></trkpt>
<trkpt lat="39.641400" lon="2.554256"><ele>691.33</ele><time>2010-09-04T09:14:10Z</time></trkpt>
<trkpt lat="39.641399" lon="2.554246"><ele>691.33</ele><time>2010-09-04T09:14:11Z</time></trkpt>
<trkpt lat="39.641407" lon="2.554221"><ele>691.33</ele><time>2010-09-04T09:14:13Z</time></trkpt>
<trkpt lat="39.641429" lon="2.554194"><ele>691.81</ele><time>2010-09-04T09:14:20Z</time></trkpt>
<trkpt lat="39.641445" lon="2.554193"><ele>691.81</ele><time>2010-09-04T09:14:28Z</time></trkpt>
<trkpt lat="39.641494" lon="2.554146"><ele>692.29</ele><time>2010-09-04T09:14:32Z</time></trkpt>
<trkpt lat="39.641579" lon="2.554054"><ele>693.25</ele><time>2010-09-04T09:14:38Z</time></trkpt>
<trkpt lat="39.641639" lon="2.553936"><ele>694.69</ele><time>2010-09-04T09:14:46Z</time></trkpt>
<trkpt lat="39.641668" lon="2.553865"><ele>695.17</ele><time>2010-09-04T09:14:50Z</time></trkpt>
<trkpt lat="39.641688" lon="2.553831"><ele>695.17</ele><time>2010-09-04T09:14:52Z</time></trkpt>
<trkpt lat="39.641758" lon="2.553757"><ele>695.17</ele><time>2010-09-04T09:14:57Z</time></trkpt>
<trkpt lat="39.641870" lon="2.553609"><ele>696.13</ele><time>2010-09-04T09:15:06Z</time></trkpt>
<trkpt lat="39.641898" lon="2.553605"><ele>696.13</ele><time>2010-09-04T09:15:07Z</time></trkpt>
<trkpt lat="39.642035" lon="2.553519"><ele>696.13</ele><time>2010-09-04T09:15:15Z</time></trkpt>
<trkpt lat="39.642129" lon="2.553452"><ele>697.57</ele><time>2010-09-04T09:15:22Z</time></trkpt>
<trkpt lat="39.642159" lon="2.553432"><ele>698.05</ele><time>2010-09-04T09:15:24Z</time></trkpt>
<trkpt lat="39.642296" lon="2.553340"><ele>699.02</ele><time>2010-09-04T09:15:31Z</time></trkpt>
<trkpt lat="39.642409" lon="2.553227"><ele>699.50</ele><time>2010-09-04T09:15:38Z</time></trkpt>
<trkpt lat="39.642499" lon="2.553114"><ele>699.98</ele><time>2010-09-04T09:15:46Z</time></trkpt>
<trkpt lat="39.642575" lon="2.553025"><ele>699.50</ele><time>2010-09-04T09:15:50Z</time></trkpt>
<trkpt lat="39.642668" lon="2.552836"><ele>699.02</ele><time>2010-09-04T09:15:59Z</time></trkpt>
<trkpt lat="39.642732" lon="2.552675"><ele>699.02</ele><time>2010-09-04T09:16:06Z</time></trkpt>
<trkpt lat="39.642766" lon="2.552450"><ele>699.02</ele><time>2010-09-04T09:16:15Z</time></trkpt>
<trkpt lat="39.642800" lon="2.552240"><ele>699.02</ele><time>2010-09-04T09:16:22Z</time></trkpt>
<trkpt lat="39.642824" lon="2.552035"><ele>699.02</ele><time>2010-09-04T09:16:28Z</time></trkpt>
<trkpt lat="39.642855" lon="2.551882"><ele>698.53</ele><time>2010-09-04T09:16:34Z</time></trkpt>
<trkpt lat="39.642876" lon="2.551665"><ele>697.09</ele><time>2010-09-04T09:16:40Z</time></trkpt>
<trkpt lat="39.642882" lon="2.551539"><ele>696.61</ele><time>2010-09-04T09:16:44Z</time></trkpt>
<trkpt lat="39.642982" lon="2.551474"><ele>696.13</ele><time>2010-09-04T09:16:49Z</time></trkpt>
<trkpt lat="39.643009" lon="2.551403"><ele>695.65</ele><time>2010-09-04T09:16:53Z</time></trkpt>
<trkpt lat="39.643005" lon="2.551192"><ele>694.21</ele><time>2010-09-04T09:16:59Z</time></trkpt>
<trkpt lat="39.642942" lon="2.550988"><ele>692.77</ele><time>2010-09-04T09:17:06Z</time></trkpt>
<trkpt lat="39.642971" lon="2.550796"><ele>691.81</ele><time>2010-09-04T09:17:12Z</time></trkpt>
<trkpt lat="39.642967" lon="2.550633"><ele>691.33</ele><time>2010-09-04T09:17:17Z</time></trkpt>
<trkpt lat="39.643021" lon="2.550532"><ele>691.33</ele><time>2010-09-04T09:17:22Z</time></trkpt>
<trkpt lat="39.643060" lon="2.550457"><ele>691.81</ele><time>2010-09-04T09:17:26Z</time></trkpt>
<trkpt lat="39.643075" lon="2.550419"><ele>692.29</ele><time>2010-09-04T09:17:29Z</time></trkpt>
<trkpt lat="39.643074" lon="2.550377"><ele>692.29</ele><time>2010-09-04T09:17:31Z</time></trkpt>
<trkpt lat="39.643054" lon="2.550302"><ele>692.29</ele><time>2010-09-04T09:17:34Z</time></trkpt>
<trkpt lat="39.643088" lon="2.550127"><ele>690.84</ele><time>2010-09-04T09:17:42Z</time></trkpt>
<trkpt lat="39.643088" lon="2.550081"><ele>690.36</ele><time>2010-09-04T09:17:47Z</time></trkpt>
<trkpt lat="39.643109" lon="2.550089"><ele>689.88</ele><time>2010-09-04T09:17:55Z</time></trkpt>
<trkpt lat="39.643106" lon="2.550095"><ele>689.88</ele><time>2010-09-04T09:18:02Z</time></trkpt>
<trkpt lat="39.643094" lon="2.550100"><ele>689.88</ele><time>2010-09-04T09:18:13Z</time></trkpt>
<trkpt lat="39.643098" lon="2.550014"><ele>689.40</ele><time>2010-09-04T09:18:51Z</time></trkpt>
<trkpt lat="39.643112" lon="2.549979"><ele>689.40</ele><time>2010-09-04T09:18:56Z</time></trkpt>
<trkpt lat="39.643095" lon="2.549959"><ele>689.40</ele><time>2010-09-04T09:19:35Z</time></trkpt>
<trkpt lat="39.643130" lon="2.549901"><ele>689.88</ele><time>2010-09-04T09:19:40Z</time></trkpt>
<trkpt lat="39.643132" lon="2.549883"><ele>689.88</ele><time>2010-09-04T09:19:41Z</time></trkpt>
<trkpt lat="39.643147" lon="2.549689"><ele>690.36</ele><time>2010-09-04T09:19:49Z</time></trkpt>
<trkpt lat="39.643146" lon="2.549665"><ele>690.36</ele><time>2010-09-04T09:19:50Z</time></trkpt>
<trkpt lat="39.643130" lon="2.549576"><ele>690.36</ele><time>2010-09-04T09:19:54Z</time></trkpt>
<trkpt lat="39.643116" lon="2.549483"><ele>690.36</ele><time>2010-09-04T09:19:58Z</time></trkpt>
<trkpt lat="39.643170" lon="2.549332"><ele>690.36</ele><time>2010-09-04T09:20:04Z</time></trkpt>
<trkpt lat="39.643203" lon="2.549236"><ele>690.84</ele><time>2010-09-04T09:20:10Z</time></trkpt>
<trkpt lat="39.643208" lon="2.549204"><ele>690.84</ele><time>2010-09-04T09:20:12Z</time></trkpt>
<trkpt lat="39.643228" lon="2.549074"><ele>691.33</ele><time>2010-09-04T09:20:18Z</time></trkpt>
<trkpt lat="39.643363" lon="2.548897"><ele>691.33</ele><time>2010-09-04T09:20:29Z</time></trkpt>
<trkpt lat="39.643477" lon="2.548796"><ele>692.29</ele><time>2010-09-04T09:20:39Z</time></trkpt>
<trkpt lat="39.643492" lon="2.548759"><ele>691.81</ele><time>2010-09-04T09:20:45Z</time></trkpt>
<trkpt lat="39.643514" lon="2.548742"><ele>692.29</ele><time>2010-09-04T09:20:51Z</time></trkpt>
<trkpt lat="39.643597" lon="2.548660"><ele>692.29</ele><time>2010-09-04T09:20:57Z</time></trkpt>
<trkpt lat="39.643618" lon="2.548632"><ele>692.29</ele><time>2010-09-04T09:20:59Z</time></trkpt>
<trkpt lat="39.643670" lon="2.548579"><ele>692.29</ele><time>2010-09-04T09:21:03Z</time></trkpt>
<trkpt lat="39.643719" lon="2.548569"><ele>692.29</ele><time>2010-09-04T09:21:08Z</time></trkpt>
<trkpt lat="39.643716" lon="2.548622"><ele>692.77</ele><time>2010-09-04T09:21:12Z</time></trkpt>
<trkpt lat="39.643659" lon="2.548779"><ele>693.25</ele><time>2010-09-04T09:21:21Z</time></trkpt>
<trkpt lat="39.643651" lon="2.548887"><ele>693.73</ele><time>2010-09-04T09:21:27Z</time></trkpt>
<trkpt lat="39.643659" lon="2.549042"><ele>694.21</ele><time>2010-09-04T09:21:35Z</time></trkpt>
<trkpt lat="39.643663" lon="2.549065"><ele>694.21</ele><time>2010-09-04T09:21:36Z</time></trkpt>
<trkpt lat="39.643676" lon="2.549189"><ele>694.69</ele><time>2010-09-04T09:21:43Z</time></trkpt>
<trkpt lat="39.643690" lon="2.549327"><ele>695.65</ele><time>2010-09-04T09:21:49Z</time></trkpt>
<trkpt lat="39.643708" lon="2.549404"><ele>695.65</ele><time>2010-09-04T09:21:56Z</time></trkpt>
<trkpt lat="39.643715" lon="2.549448"><ele>696.13</ele><time>2010-09-04T09:22:06Z</time></trkpt>
<trkpt lat="39.643711" lon="2.549503"><ele>696.13</ele><time>2010-09-04T09:22:12Z</time></trkpt>
<trkpt lat="39.643713" lon="2.549556"><ele>696.61</ele><time>2010-09-04T09:22:21Z</time></trkpt>
<trkpt lat="39.643722" lon="2.549585"><ele>696.61</ele><time>2010-09-04T09:22:27Z</time></trkpt>
<trkpt lat="39.643726" lon="2.549641"><ele>697.09</ele><time>2010-09-04T09:22:34Z</time></trkpt>
<trkpt lat="39.643728" lon="2.549721"><ele>697.09</ele><time>2010-09-04T09:22:47Z</time></trkpt>
<trkpt lat="39.643760" lon="2.549842"><ele>698.05</ele><time>2010-09-04T09:22:56Z</time></trkpt>
<trkpt lat="39.643763" lon="2.549869"><ele>698.05</ele><time>2010-09-04T09:22:58Z</time></trkpt>
<trkpt lat="39.643784" lon="2.549920"><ele>698.53</ele><time>2010-09-04T09:23:06Z</time></trkpt>
<trkpt lat="39.643792" lon="2.549955"><ele>698.53</ele><time>2010-09-04T09:23:08Z</time></trkpt>
<trkpt lat="39.643810" lon="2.550030"><ele>699.02</ele><time>2010-09-04T09:23:12Z</time></trkpt>
<trkpt lat="39.643844" lon="2.550071"><ele>699.02</ele><time>2010-09-04T09:23:16Z</time></trkpt>
<trkpt lat="39.643855" lon="2.550114"><ele>699.50</ele><time>2010-09-04T09:23:19Z</time></trkpt>
<trkpt lat="39.643929" lon="2.550168"><ele>699.98</ele><time>2010-09-04T09:23:27Z</time></trkpt>
<trkpt lat="39.643980" lon="2.550171"><ele>700.46</ele><time>2010-09-04T09:23:35Z</time></trkpt>
<trkpt lat="39.644029" lon="2.550158"><ele>701.42</ele><time>2010-09-04T09:23:45Z</time></trkpt>
<trkpt lat="39.644081" lon="2.550171"><ele>702.38</ele><time>2010-09-04T09:23:55Z</time></trkpt>
<trkpt lat="39.644123" lon="2.550189"><ele>701.90</ele><time>2010-09-04T09:24:03Z</time></trkpt>
<trkpt lat="39.644199" lon="2.550348"><ele>702.86</ele><time>2010-09-04T09:24:12Z</time></trkpt>
<trkpt lat="39.644274" lon="2.550483"><ele>703.82</ele><time>2010-09-04T09:24:19Z</time></trkpt>
<trkpt lat="39.644310" lon="2.550579"><ele>704.30</ele><time>2010-09-04T09:24:24Z</time></trkpt>
<trkpt lat="39.644335" lon="2.550635"><ele>704.78</ele><time>2010-09-04T09:24:30Z</time></trkpt>
<trkpt lat="39.644365" lon="2.550663"><ele>705.26</ele><time>2010-09-04T09:24:38Z</time></trkpt>
<trkpt lat="39.644401" lon="2.550743"><ele>705.26</ele><time>2010-09-04T09:24:47Z</time></trkpt>
<trkpt lat="39.644463" lon="2.550826"><ele>706.23</ele><time>2010-09-04T09:24:56Z</time></trkpt>
<trkpt lat="39.644575" lon="2.550794"><ele>706.23</ele><time>2010-09-04T09:25:05Z</time></trkpt>
<trkpt lat="39.644766" lon="2.550729"><ele>706.71</ele><time>2010-09-04T09:25:15Z</time></trkpt>
<trkpt lat="39.644882" lon="2.550676"><ele>706.71</ele><time>2010-09-04T09:25:21Z</time></trkpt>
<trkpt lat="39.644995" lon="2.550476"><ele>707.19</ele><time>2010-09-04T09:25:30Z</time></trkpt>
<trkpt lat="39.645132" lon="2.550392"><ele>707.19</ele><time>2010-09-04T09:25:39Z</time></trkpt>
<trkpt lat="39.645316" lon="2.550318"><ele>707.19</ele><time>2010-09-04T09:25:48Z</time></trkpt>
<trkpt lat="39.645495" lon="2.550252"><ele>706.23</ele><time>2010-09-04T09:25:57Z</time></trkpt>
<trkpt lat="39.645527" lon="2.550242"><ele>706.23</ele><time>2010-09-04T09:25:59Z</time></trkpt>
<trkpt lat="39.645728" lon="2.550113"><ele>706.23</ele><time>2010-09-04T09:26:10Z</time></trkpt>
<trkpt lat="39.645837" lon="2.550195"><ele>706.23</ele><time>2010-09-04T09:26:17Z</time></trkpt>
<trkpt lat="39.645923" lon="2.550387"><ele>707.19</ele><time>2010-09-04T09:26:26Z</time></trkpt>
<trkpt lat="39.645980" lon="2.550370"><ele>707.67</ele><time>2010-09-04T09:26:30Z</time></trkpt>
<trkpt lat="39.646071" lon="2.550179"><ele>709.11</ele><time>2010-09-04T09:26:40Z</time></trkpt>
<trkpt lat="39.646144" lon="2.550219"><ele>709.59</ele><time>2010-09-04T09:26:46Z</time></trkpt>
<trkpt lat="39.646156" lon="2.550301"><ele>710.07</ele><time>2010-09-04T09:26:49Z</time></trkpt>
<trkpt lat="39.646173" lon="2.550456"><ele>710.55</ele><time>2010-09-04T09:26:57Z</time></trkpt>
<trkpt lat="39.646184" lon="2.550587"><ele>711.03</ele><time>2010-09-04T09:27:04Z</time></trkpt>
<trkpt lat="39.646188" lon="2.550642"><ele>711.51</ele><time>2010-09-04T09:27:07Z</time></trkpt>
<trkpt lat="39.646234" lon="2.550667"><ele>711.99</ele><time>2010-09-04T09:27:11Z</time></trkpt>
<trkpt lat="39.646294" lon="2.550488"><ele>712.47</ele><time>2010-09-04T09:27:20Z</time></trkpt>
<trkpt lat="39.646345" lon="2.550320"><ele>712.47</ele><time>2010-09-04T09:27:28Z</time></trkpt>
<trkpt lat="39.646368" lon="2.550258"><ele>712.95</ele><time>2010-09-04T09:27:31Z</time></trkpt>
<trkpt lat="39.646434" lon="2.550036"><ele>713.44</ele><time>2010-09-04T09:27:41Z</time></trkpt>
<trkpt lat="39.646514" lon="2.549865"><ele>713.92</ele><time>2010-09-04T09:27:49Z</time></trkpt>
<trkpt lat="39.646622" lon="2.549696"><ele>715.36</ele><time>2010-09-04T09:27:58Z</time></trkpt>
<trkpt lat="39.646710" lon="2.549474"><ele>716.80</ele><time>2010-09-04T09:28:09Z</time></trkpt>
<trkpt lat="39.646760" lon="2.549352"><ele>717.76</ele><time>2010-09-04T09:28:16Z</time></trkpt>
<trkpt lat="39.646830" lon="2.549185"><ele>718.72</ele><time>2010-09-04T09:28:25Z</time></trkpt>
<trkpt lat="39.646867" lon="2.549091"><ele>719.20</ele><time>2010-09-04T09:28:30Z</time></trkpt>
<trkpt lat="39.646923" lon="2.548996"><ele>719.68</ele><time>2010-09-04T09:28:36Z</time></trkpt>
<trkpt lat="39.646946" lon="2.548973"><ele>719.68</ele><time>2010-09-04T09:28:41Z</time></trkpt>
<trkpt lat="39.646993" lon="2.548922"><ele>719.68</ele><time>2010-09-04T09:28:53Z</time></trkpt>
<trkpt lat="39.647010" lon="2.548868"><ele>719.68</ele><time>2010-09-04T09:28:56Z</time></trkpt>
<trkpt lat="39.647046" lon="2.548799"><ele>720.16</ele><time>2010-09-04T09:29:00Z</time></trkpt>
<trkpt lat="39.647090" lon="2.548705"><ele>720.65</ele><time>2010-09-04T09:29:05Z</time></trkpt>
<trkpt lat="39.647140" lon="2.548703"><ele>721.61</ele><time>2010-09-04T09:29:09Z</time></trkpt>
<trkpt lat="39.647147" lon="2.548805"><ele>722.09</ele><time>2010-09-04T09:29:14Z</time></trkpt>
<trkpt lat="39.647158" lon="2.548900"><ele>723.05</ele><time>2010-09-04T09:29:20Z</time></trkpt>
<trkpt lat="39.647220" lon="2.548926"><ele>723.53</ele><time>2010-09-04T09:29:24Z</time></trkpt>
<trkpt lat="39.647241" lon="2.548834"><ele>723.53</ele><time>2010-09-04T09:29:29Z</time></trkpt>
<trkpt lat="39.647273" lon="2.548683"><ele>724.49</ele><time>2010-09-04T09:29:36Z</time></trkpt>
<trkpt lat="39.647278" lon="2.548619"><ele>724.01</ele><time>2010-09-04T09:29:39Z</time></trkpt>
<trkpt lat="39.647342" lon="2.548436"><ele>724.97</ele><time>2010-09-04T09:29:46Z</time></trkpt>
<trkpt lat="39.647476" lon="2.548175"><ele>726.41</ele><time>2010-09-04T09:29:57Z</time></trkpt>
<trkpt lat="39.647605" lon="2.548006"><ele>726.89</ele><time>2010-09-04T09:30:04Z</time></trkpt>
<trkpt lat="39.647674" lon="2.547852"><ele>726.89</ele><time>2010-09-04T09:30:10Z</time></trkpt>
<trkpt lat="39.647685" lon="2.547832"><ele>727.37</ele><time>2010-09-04T09:30:11Z</time></trkpt>
<trkpt lat="39.647806" lon="2.547654"><ele>727.86</ele><time>2010-09-04T09:30:20Z</time></trkpt>
<trkpt lat="39.647907" lon="2.547502"><ele>728.34</ele><time>2010-09-04T09:30:26Z</time></trkpt>
<trkpt lat="39.647963" lon="2.547412"><ele>728.82</ele><time>2010-09-04T09:30:30Z</time></trkpt>
<trkpt lat="39.648151" lon="2.547273"><ele>729.78</ele><time>2010-09-04T09:30:39Z</time></trkpt>
<trkpt lat="39.648301" lon="2.547189"><ele>730.74</ele><time>2010-09-04T09:30:47Z</time></trkpt>
<trkpt lat="39.648418" lon="2.547145"><ele>731.22</ele><time>2010-09-04T09:30:54Z</time></trkpt>
<trkpt lat="39.648527" lon="2.547125"><ele>731.22</ele><time>2010-09-04T09:31:00Z</time></trkpt>
<trkpt lat="39.648587" lon="2.547130"><ele>731.70</ele><time>2010-09-04T09:31:06Z</time></trkpt>
<trkpt lat="39.648632" lon="2.547094"><ele>731.22</ele><time>2010-09-04T09:31:17Z</time></trkpt>
<trkpt lat="39.648750" lon="2.547052"><ele>731.70</ele><time>2010-09-04T09:31:25Z</time></trkpt>
<trkpt lat="39.648942" lon="2.546980"><ele>731.70</ele><time>2010-09-04T09:31:33Z</time></trkpt>
<trkpt lat="39.649108" lon="2.546942"><ele>731.22</ele><time>2010-09-04T09:31:39Z</time></trkpt>
<trkpt lat="39.649226" lon="2.546972"><ele>731.70</ele><time>2010-09-04T09:31:45Z</time></trkpt>
<trkpt lat="39.649349" lon="2.546939"><ele>732.18</ele><time>2010-09-04T09:31:50Z</time></trkpt>
<trkpt lat="39.649473" lon="2.547012"><ele>732.18</ele><time>2010-09-04T09:31:56Z</time></trkpt>
<trkpt lat="39.649523" lon="2.547055"><ele>732.18</ele><time>2010-09-04T09:32:02Z</time></trkpt>
<trkpt lat="39.649528" lon="2.547056"><ele>732.18</ele><time>2010-09-04T09:32:24Z</time></trkpt>
<trkpt lat="39.649539" lon="2.547068"><ele>732.18</ele><time>2010-09-04T09:32:49Z</time></trkpt>
<trkpt lat="39.649592" lon="2.547098"><ele>732.18</ele><time>2010-09-04T09:33:49Z</time></trkpt>
<trkpt lat="39.649570" lon="2.547090"><ele>732.18</ele><time>2010-09-04T09:34:35Z</time></trkpt>
<trkpt lat="39.649556" lon="2.547083"><ele>732.66</ele><time>2010-09-04T09:34:44Z</time></trkpt>
<trkpt lat="39.649513" lon="2.547092"><ele>733.62</ele><time>2010-09-04T09:35:58Z</time></trkpt>
<trkpt lat="39.649430" lon="2.547127"><ele>735.07</ele><time>2010-09-04T09:36:07Z</time></trkpt>
<trkpt lat="39.649362" lon="2.547161"><ele>736.51</ele><time>2010-09-04T09:36:16Z</time></trkpt>
<trkpt lat="39.649312" lon="2.547240"><ele>737.95</ele><time>2010-09-04T09:36:25Z</time></trkpt>
<trkpt lat="39.649282" lon="2.547332"><ele>739.87</ele><time>2010-09-04T09:36:37Z</time></trkpt>
<trkpt lat="39.649295" lon="2.547364"><ele>740.35</ele><time>2010-09-04T09:36:42Z</time></trkpt>
<trkpt lat="39.649329" lon="2.547401"><ele>741.79</ele><time>2010-09-04T09:36:50Z</time></trkpt>
<trkpt lat="39.649353" lon="2.547444"><ele>742.76</ele><time>2010-09-04T09:36:57Z</time></trkpt>
<trkpt lat="39.649392" lon="2.547512"><ele>744.20</ele><time>2010-09-04T09:37:07Z</time></trkpt>
<trkpt lat="39.649443" lon="2.547550"><ele>745.16</ele><time>2010-09-04T09:37:14Z</time></trkpt>
<trkpt lat="39.649416" lon="2.547592"><ele>745.64</ele><time>2010-09-04T09:37:22Z</time></trkpt>
<trkpt lat="39.649407" lon="2.547597"><ele>745.64</ele><time>2010-09-04T09:37:29Z</time></trkpt>
<trkpt lat="39.649388" lon="2.547604"><ele>746.12</ele><time>2010-09-04T09:37:38Z</time></trkpt>
<trkpt lat="39.649382" lon="2.547609"><ele>746.12</ele><time>2010-09-04T09:37:39Z</time></trkpt>
<trkpt lat="39.649322" lon="2.547667"><ele>747.56</ele><time>2010-09-04T09:37:45Z</time></trkpt>
<trkpt lat="39.649292" lon="2.547692"><ele>748.52</ele><time>2010-09-04T09:37:54Z</time></trkpt>
<trkpt lat="39.649277" lon="2.547723"><ele>749.49</ele><time>2010-09-04T09:38:03Z</time></trkpt>
<trkpt lat="39.649308" lon="2.547755"><ele>750.93</ele><time>2010-09-04T09:38:19Z</time></trkpt>
<trkpt lat="39.649343" lon="2.547835"><ele>752.85</ele><time>2010-09-04T09:38:32Z</time></trkpt>
<trkpt lat="39.649374" lon="2.547865"><ele>754.29</ele><time>2010-09-04T09:38:42Z</time></trkpt>
<trkpt lat="39.649408" lon="2.547915"><ele>755.73</ele><time>2010-09-04T09:38:57Z</time></trkpt>
<trkpt lat="39.649440" lon="2.547934"><ele>756.21</ele><time>2010-09-04T09:39:06Z</time></trkpt>
<trkpt lat="39.649473" lon="2.547954"><ele>757.18</ele><time>2010-09-04T09:39:15Z</time></trkpt>
<trkpt lat="39.649487" lon="2.548008"><ele>758.62</ele><time>2010-09-04T09:39:23Z</time></trkpt>
<trkpt lat="39.649462" lon="2.548065"><ele>759.10</ele><time>2010-09-04T09:39:29Z</time></trkpt>
<trkpt lat="39.649452" lon="2.548069"><ele>759.10</ele><time>2010-09-04T09:39:36Z</time></trkpt>
<trkpt lat="39.649403" lon="2.548084"><ele>760.54</ele><time>2010-09-04T09:39:46Z</time></trkpt>
<trkpt lat="39.649388" lon="2.548127"><ele>762.46</ele><time>2010-09-04T09:39:53Z</time></trkpt>
<trkpt lat="39.649407" lon="2.548188"><ele>763.90</ele><time>2010-09-04T09:39:59Z</time></trkpt>
<trkpt lat="39.649453" lon="2.548252"><ele>764.39</ele><time>2010-09-04T09:40:03Z</time></trkpt>
<trkpt lat="39.649471" lon="2.548306"><ele>765.83</ele><time>2010-09-04T09:40:07Z</time></trkpt>
<trkpt lat="39.649500" lon="2.548432"><ele>767.75</ele><time>2010-09-04T09:40:15Z</time></trkpt>
<trkpt lat="39.649505" lon="2.548478"><ele>768.23</ele><time>2010-09-04T09:40:23Z</time></trkpt>
<trkpt lat="39.649523" lon="2.548527"><ele>769.19</ele><time>2010-09-04T09:40:32Z</time></trkpt>
<trkpt lat="39.649559" lon="2.548568"><ele>769.67</ele><time>2010-09-04T09:40:39Z</time></trkpt>
<trkpt lat="39.649582" lon="2.548577"><ele>770.15</ele><time>2010-09-04T09:40:50Z</time></trkpt>
<trkpt lat="39.649566" lon="2.548581"><ele>770.63</ele><time>2010-09-04T09:41:10Z</time></trkpt>
<trkpt lat="39.649520" lon="2.548641"><ele>773.04</ele><time>2010-09-04T09:41:21Z</time></trkpt>
<trkpt lat="39.649477" lon="2.548683"><ele>774.96</ele><time>2010-09-04T09:41:33Z</time></trkpt>
<trkpt lat="39.649447" lon="2.548686"><ele>775.44</ele><time>2010-09-04T09:41:44Z</time></trkpt>
<trkpt lat="39.649456" lon="2.548711"><ele>776.88</ele><time>2010-09-04T09:41:54Z</time></trkpt>
<trkpt lat="39.649473" lon="2.548717"><ele>776.88</ele><time>2010-09-04T09:42:04Z</time></trkpt>
<trkpt lat="39.649435" lon="2.548757"><ele>779.77</ele><time>2010-09-04T09:43:04Z</time></trkpt>
<trkpt lat="39.649378" lon="2.548804"><ele>781.21</ele><time>2010-09-04T09:43:17Z</time></trkpt>
<trkpt lat="39.649365" lon="2.548840"><ele>782.17</ele><time>2010-09-04T09:43:25Z</time></trkpt>
<trkpt lat="39.649352" lon="2.548895"><ele>784.09</ele><time>2010-09-04T09:43:39Z</time></trkpt>
<trkpt lat="39.649353" lon="2.548922"><ele>785.05</ele><time>2010-09-04T09:43:53Z</time></trkpt>
<trkpt lat="39.649342" lon="2.548936"><ele>788.42</ele><time>2010-09-04T09:44:14Z</time></trkpt>
<trkpt lat="39.649303" lon="2.549027"><ele>789.86</ele><time>2010-09-04T09:44:26Z</time></trkpt>
<trkpt lat="39.649302" lon="2.549038"><ele>789.86</ele><time>2010-09-04T09:44:27Z</time></trkpt>
<trkpt lat="39.649338" lon="2.549083"><ele>790.34</ele><time>2010-09-04T09:44:33Z</time></trkpt>
<trkpt lat="39.649347" lon="2.549108"><ele>790.82</ele><time>2010-09-04T09:44:43Z</time></trkpt>
<trkpt lat="39.649375" lon="2.549168"><ele>790.34</ele><time>2010-09-04T09:44:56Z</time></trkpt>
<trkpt lat="39.649366" lon="2.549248"><ele>790.82</ele><time>2010-09-04T09:45:00Z</time></trkpt>
<trkpt lat="39.649402" lon="2.549375"><ele>791.30</ele><time>2010-09-04T09:45:08Z</time></trkpt>
<trkpt lat="39.649443" lon="2.549450"><ele>791.30</ele><time>2010-09-04T09:45:11Z</time></trkpt>
<trkpt lat="39.649467" lon="2.549558"><ele>791.30</ele><time>2010-09-04T09:45:19Z</time></trkpt>
<trkpt lat="39.649513" lon="2.549623"><ele>790.82</ele><time>2010-09-04T09:45:30Z</time></trkpt>
<trkpt lat="39.649497" lon="2.549696"><ele>791.30</ele><time>2010-09-04T09:45:39Z</time></trkpt>
<trkpt lat="39.649449" lon="2.549720"><ele>792.74</ele><time>2010-09-04T09:46:13Z</time></trkpt>
<trkpt lat="39.649404" lon="2.549763"><ele>793.71</ele><time>2010-09-04T09:46:22Z</time></trkpt>
<trkpt lat="39.649391" lon="2.549806"><ele>794.19</ele><time>2010-09-04T09:46:30Z</time></trkpt>
<trkpt lat="39.649379" lon="2.549831"><ele>794.67</ele><time>2010-09-04T09:46:37Z</time></trkpt>
<trkpt lat="39.649392" lon="2.549826"><ele>794.67</ele><time>2010-09-04T09:46:45Z</time></trkpt>
<trkpt lat="39.649360" lon="2.549834"><ele>795.63</ele><time>2010-09-04T09:47:00Z</time></trkpt>
<trkpt lat="39.649312" lon="2.549818"><ele>796.59</ele><time>2010-09-04T09:47:09Z</time></trkpt>
<trkpt lat="39.649320" lon="2.549895"><ele>796.59</ele><time>2010-09-04T09:47:15Z</time></trkpt>
<trkpt lat="39.649325" lon="2.549966"><ele>797.55</ele><time>2010-09-04T09:47:23Z</time></trkpt>
<trkpt lat="39.649299" lon="2.550029"><ele>798.03</ele><time>2010-09-04T09:47:30Z</time></trkpt>
<trkpt lat="39.649321" lon="2.550144"><ele>799.47</ele><time>2010-09-04T09:47:41Z</time></trkpt>
<trkpt lat="39.649364" lon="2.550204"><ele>799.47</ele><time>2010-09-04T09:47:48Z</time></trkpt>
<trkpt lat="39.649428" lon="2.550239"><ele>799.47</ele><time>2010-09-04T09:47:57Z</time></trkpt>
<trkpt lat="39.649470" lon="2.550255"><ele>799.95</ele><time>2010-09-04T09:48:06Z</time></trkpt>
<trkpt lat="39.649463" lon="2.550262"><ele>799.95</ele><time>2010-09-04T09:48:33Z</time></trkpt>
<trkpt lat="39.649453" lon="2.550305"><ele>800.92</ele><time>2010-09-04T09:52:40Z</time></trkpt>
<trkpt lat="39.649454" lon="2.550361"><ele>801.88</ele><time>2010-09-04T09:52:46Z</time></trkpt>
<trkpt lat="39.649469" lon="2.550422"><ele>803.32</ele><time>2010-09-04T09:52:54Z</time></trkpt>
<trkpt lat="39.649467" lon="2.550500"><ele>804.28</ele><time>2010-09-04T09:53:05Z</time></trkpt>
<trkpt lat="39.649469" lon="2.550506"><ele>804.28</ele><time>2010-09-04T09:53:11Z</time></trkpt>
<trkpt lat="39.649530" lon="2.550543"><ele>804.28</ele><time>2010-09-04T09:53:15Z</time></trkpt>
<trkpt lat="39.649658" lon="2.550625"><ele>804.28</ele><time>2010-09-04T09:53:21Z</time></trkpt>
<trkpt lat="39.649689" lon="2.550690"><ele>804.76</ele><time>2010-09-04T09:53:25Z</time></trkpt>
<trkpt lat="39.649688" lon="2.550743"><ele>805.24</ele><time>2010-09-04T09:53:28Z</time></trkpt>
<trkpt lat="39.649688" lon="2.550810"><ele>806.20</ele><time>2010-09-04T09:53:36Z</time></trkpt>
<trkpt lat="39.649704" lon="2.550891"><ele>808.13</ele><time>2010-09-04T09:53:49Z</time></trkpt>
<trkpt lat="39.649718" lon="2.551001"><ele>810.05</ele><time>2010-09-04T09:53:59Z</time></trkpt>
<trkpt lat="39.649712" lon="2.551098"><ele>811.49</ele><time>2010-09-04T09:54:09Z</time></trkpt>
<trkpt lat="39.649709" lon="2.551123"><ele>811.97</ele><time>2010-09-04T09:54:11Z</time></trkpt>
<trkpt lat="39.649713" lon="2.551194"><ele>812.93</ele><time>2010-09-04T09:54:18Z</time></trkpt>
<trkpt lat="39.649717" lon="2.551240"><ele>813.41</ele><time>2010-09-04T09:54:23Z</time></trkpt>
<trkpt lat="39.649715" lon="2.551285"><ele>814.37</ele><time>2010-09-04T09:54:28Z</time></trkpt>
<trkpt lat="39.649734" lon="2.551394"><ele>815.82</ele><time>2010-09-04T09:54:37Z</time></trkpt>
<trkpt lat="39.649719" lon="2.551436"><ele>815.82</ele><time>2010-09-04T09:54:41Z</time></trkpt>
<trkpt lat="39.649694" lon="2.551473"><ele>816.30</ele><time>2010-09-04T09:54:47Z</time></trkpt>
<trkpt lat="39.649685" lon="2.551565"><ele>815.34</ele><time>2010-09-04T09:54:53Z</time></trkpt>
<trkpt lat="39.649719" lon="2.551654"><ele>814.37</ele><time>2010-09-04T09:54:57Z</time></trkpt>
<trkpt lat="39.649751" lon="2.551695"><ele>814.85</ele><time>2010-09-04T09:54:59Z</time></trkpt>
<trkpt lat="39.649801" lon="2.551785"><ele>814.85</ele><time>2010-09-04T09:55:06Z</time></trkpt>
<trkpt lat="39.649864" lon="2.551795"><ele>814.37</ele><time>2010-09-04T09:55:13Z</time></trkpt>
<trkpt lat="39.649879" lon="2.551784"><ele>814.37</ele><time>2010-09-04T10:03:05Z</time></trkpt>
<trkpt lat="39.649892" lon="2.551777"><ele>813.41</ele><time>2010-09-04T10:03:07Z</time></trkpt>
<trkpt lat="39.649933" lon="2.551789"><ele>812.93</ele><time>2010-09-04T10:03:10Z</time></trkpt>
<trkpt lat="39.649999" lon="2.551808"><ele>812.93</ele><time>2010-09-04T10:03:15Z</time></trkpt>
<trkpt lat="39.650075" lon="2.551812"><ele>811.97</ele><time>2010-09-04T10:03:19Z</time></trkpt>
<trkpt lat="39.650104" lon="2.551790"><ele>810.53</ele><time>2010-09-04T10:03:22Z</time></trkpt>
<trkpt lat="39.650141" lon="2.551777"><ele>809.09</ele><time>2010-09-04T10:03:26Z</time></trkpt>
<trkpt lat="39.650271" lon="2.551808"><ele>805.72</ele><time>2010-09-04T10:03:33Z</time></trkpt>
<trkpt lat="39.650442" lon="2.551793"><ele>801.88</ele><time>2010-09-04T10:03:41Z</time></trkpt>
<trkpt lat="39.650457" lon="2.551798"><ele>801.88</ele><time>2010-09-04T10:03:42Z</time></trkpt>
<trkpt lat="39.650486" lon="2.551799"><ele>801.40</ele><time>2010-09-04T10:03:43Z</time></trkpt>
<trkpt lat="39.650613" lon="2.551755"><ele>798.03</ele><time>2010-09-04T10:03:52Z</time></trkpt>
<trkpt lat="39.650637" lon="2.551742"><ele>798.03</ele><time>2010-09-04T10:04:00Z</time></trkpt>
<trkpt lat="39.650740" lon="2.551697"><ele>796.11</ele><time>2010-09-04T10:04:09Z</time></trkpt>
<trkpt lat="39.650831" lon="2.551687"><ele>796.11</ele><time>2010-09-04T10:04:15Z</time></trkpt>
<trkpt lat="39.650853" lon="2.551687"><ele>796.11</ele><time>2010-09-04T10:04:17Z</time></trkpt>
<trkpt lat="39.650885" lon="2.551673"><ele>795.63</ele><time>2010-09-04T10:04:24Z</time></trkpt>
<trkpt lat="39.650903" lon="2.551611"><ele>796.11</ele><time>2010-09-04T10:05:09Z</time></trkpt>
<trkpt lat="39.650895" lon="2.551478"><ele>795.63</ele><time>2010-09-04T10:05:15Z</time></trkpt>
<trkpt lat="39.650999" lon="2.551261"><ele>794.67</ele><time>2010-09-04T10:05:21Z</time></trkpt>
<trkpt lat="39.651127" lon="2.551077"><ele>794.67</ele><time>2010-09-04T10:05:27Z</time></trkpt>
<trkpt lat="39.651143" lon="2.551072"><ele>794.67</ele><time>2010-09-04T10:05:28Z</time></trkpt>
<trkpt lat="39.651254" lon="2.550947"><ele>794.19</ele><time>2010-09-04T10:05:35Z</time></trkpt>
<trkpt lat="39.651330" lon="2.550878"><ele>793.22</ele><time>2010-09-04T10:05:38Z</time></trkpt>
<trkpt lat="39.651451" lon="2.550833"><ele>791.30</ele><time>2010-09-04T10:05:43Z</time></trkpt>
<trkpt lat="39.651555" lon="2.550821"><ele>790.34</ele><time>2010-09-04T10:05:49Z</time></trkpt>
<trkpt lat="39.651574" lon="2.550816"><ele>790.34</ele><time>2010-09-04T10:05:50Z</time></trkpt>
<trkpt lat="39.651645" lon="2.550788"><ele>789.86</ele><time>2010-09-04T10:05:54Z</time></trkpt>
<trkpt lat="39.651747" lon="2.550698"><ele>789.86</ele><time>2010-09-04T10:06:02Z</time></trkpt>
<trkpt lat="39.651811" lon="2.550678"><ele>789.86</ele><time>2010-09-04T10:06:08Z</time></trkpt>
<trkpt lat="39.651819" lon="2.550677"><ele>789.86</ele><time>2010-09-04T10:06:09Z</time></trkpt>
<trkpt lat="39.651912" lon="2.550682"><ele>789.38</ele><time>2010-09-04T10:06:16Z</time></trkpt>
<trkpt lat="39.651954" lon="2.550694"><ele>788.90</ele><time>2010-09-04T10:06:23Z</time></trkpt>
<trkpt lat="39.651974" lon="2.550752"><ele>788.90</ele><time>2010-09-04T10:06:31Z</time></trkpt>
<trkpt lat="39.652031" lon="2.550780"><ele>788.42</ele><time>2010-09-04T10:06:39Z</time></trkpt>
<trkpt lat="39.652078" lon="2.550808"><ele>787.46</ele><time>2010-09-04T10:06:46Z</time></trkpt>
<trkpt lat="39.652106" lon="2.550823"><ele>786.50</ele><time>2010-09-04T10:06:54Z</time></trkpt>
<trkpt lat="39.652115" lon="2.550774"><ele>785.53</ele><time>2010-09-04T10:07:01Z</time></trkpt>
<trkpt lat="39.652156" lon="2.550788"><ele>784.57</ele><time>2010-09-04T10:07:08Z</time></trkpt>
<trkpt lat="39.652206" lon="2.550875"><ele>783.61</ele><time>2010-09-04T10:07:17Z</time></trkpt>
<trkpt lat="39.652237" lon="2.550940"><ele>783.61</ele><time>2010-09-04T10:07:24Z</time></trkpt>
<trkpt lat="39.652287" lon="2.550958"><ele>783.61</ele><time>2010-09-04T10:07:30Z</time></trkpt>
<trkpt lat="39.652320" lon="2.550992"><ele>784.57</ele><time>2010-09-04T10:07:38Z</time></trkpt>
<trkpt lat="39.652383" lon="2.551084"><ele>784.57</ele><time>2010-09-04T10:07:50Z</time></trkpt>
<trkpt lat="39.652385" lon="2.551123"><ele>784.09</ele><time>2010-09-04T10:08:00Z</time></trkpt>
<trkpt lat="39.652390" lon="2.551134"><ele>784.09</ele><time>2010-09-04T10:08:02Z</time></trkpt>
<trkpt lat="39.652436" lon="2.551197"><ele>783.13</ele><time>2010-09-04T10:08:10Z</time></trkpt>
<trkpt lat="39.652498" lon="2.551326"><ele>781.21</ele><time>2010-09-04T10:08:17Z</time></trkpt>
<trkpt lat="39.652542" lon="2.551375"><ele>779.77</ele><time>2010-09-04T10:08:20Z</time></trkpt>
<trkpt lat="39.652575" lon="2.551521"><ele>777.36</ele><time>2010-09-04T10:08:26Z</time></trkpt>
<trkpt lat="39.652591" lon="2.551558"><ele>776.40</ele><time>2010-09-04T10:08:28Z</time></trkpt>
<trkpt lat="39.652644" lon="2.551599"><ele>774.48</ele><time>2010-09-04T10:08:32Z</time></trkpt>
<trkpt lat="39.652633" lon="2.551594"><ele>774.00</ele><time>2010-09-04T10:08:39Z</time></trkpt>
<trkpt lat="39.652700" lon="2.551549"><ele>773.04</ele><time>2010-09-04T10:08:54Z</time></trkpt>
<trkpt lat="39.652729" lon="2.551493"><ele>772.08</ele><time>2010-09-04T10:09:01Z</time></trkpt>
<trkpt lat="39.652706" lon="2.551452"><ele>770.63</ele><time>2010-09-04T10:09:07Z</time></trkpt>
<trkpt lat="39.652728" lon="2.551451"><ele>769.67</ele><time>2010-09-04T10:09:14Z</time></trkpt>
<trkpt lat="39.652802" lon="2.551403"><ele>768.23</ele><time>2010-09-04T10:09:23Z</time></trkpt>
<trkpt lat="39.652807" lon="2.551393"><ele>767.75</ele><time>2010-09-04T10:09:24Z</time></trkpt>
<trkpt lat="39.652818" lon="2.551346"><ele>766.31</ele><time>2010-09-04T10:09:31Z</time></trkpt>
<trkpt lat="39.652835" lon="2.551278"><ele>765.83</ele><time>2010-09-04T10:09:37Z</time></trkpt>
<trkpt lat="39.652840" lon="2.551264"><ele>765.35</ele><time>2010-09-04T10:09:39Z</time></trkpt>
<trkpt lat="39.652881" lon="2.551232"><ele>763.90</ele><time>2010-09-04T10:09:46Z</time></trkpt>
<trkpt lat="39.652883" lon="2.551203"><ele>763.42</ele><time>2010-09-04T10:09:51Z</time></trkpt>
<trkpt lat="39.652884" lon="2.551164"><ele>762.46</ele><time>2010-09-04T10:09:57Z</time></trkpt>
<trkpt lat="39.652914" lon="2.551186"><ele>760.54</ele><time>2010-09-04T10:10:04Z</time></trkpt>
<trkpt lat="39.652937" lon="2.551207"><ele>760.06</ele><time>2010-09-04T10:10:09Z</time></trkpt>
<trkpt lat="39.652927" lon="2.551143"><ele>759.10</ele><time>2010-09-04T10:10:16Z</time></trkpt>
<trkpt lat="39.652942" lon="2.551067"><ele>756.21</ele><time>2010-09-04T10:10:24Z</time></trkpt>
<trkpt lat="39.653053" lon="2.551012"><ele>752.37</ele><time>2010-09-04T10:10:30Z</time></trkpt>
<trkpt lat="39.653074" lon="2.551005"><ele>751.89</ele><time>2010-09-04T10:10:31Z</time></trkpt>
<trkpt lat="39.653137" lon="2.550943"><ele>750.93</ele><time>2010-09-04T10:10:38Z</time></trkpt>
<trkpt lat="39.653197" lon="2.550936"><ele>749.00</ele><time>2010-09-04T10:10:45Z</time></trkpt>
<trkpt lat="39.653218" lon="2.550939"><ele>748.52</ele><time>2010-09-04T10:10:46Z</time></trkpt>
<trkpt lat="39.653235" lon="2.550919"><ele>747.56</ele><time>2010-09-04T10:10:52Z</time></trkpt>
<trkpt lat="39.653297" lon="2.550899"><ele>746.12</ele><time>2010-09-04T10:10:59Z</time></trkpt>
<trkpt lat="39.653303" lon="2.550892"><ele>745.64</ele><time>2010-09-04T10:11:00Z</time></trkpt>
<trkpt lat="39.653336" lon="2.550815"><ele>743.24</ele><time>2010-09-04T10:11:07Z</time></trkpt>
<trkpt lat="39.653352" lon="2.550781"><ele>741.79</ele><time>2010-09-04T10:11:12Z</time></trkpt>
<trkpt lat="39.653398" lon="2.550643"><ele>738.91</ele><time>2010-09-04T10:11:20Z</time></trkpt>
<trkpt lat="39.653476" lon="2.550565"><ele>736.03</ele><time>2010-09-04T10:11:27Z</time></trkpt>
<trkpt lat="39.653532" lon="2.550586"><ele>734.58</ele><time>2010-09-04T10:11:33Z</time></trkpt>
<trkpt lat="39.653535" lon="2.550602"><ele>734.10</ele><time>2010-09-04T10:11:40Z</time></trkpt>
<trkpt lat="39.653564" lon="2.550630"><ele>732.66</ele><time>2010-09-04T10:11:46Z</time></trkpt>
<trkpt lat="39.653636" lon="2.550727"><ele>730.74</ele><time>2010-09-04T10:11:55Z</time></trkpt>
<trkpt lat="39.653644" lon="2.550769"><ele>729.30</ele><time>2010-09-04T10:12:01Z</time></trkpt>
<trkpt lat="39.653663" lon="2.550843"><ele>727.37</ele><time>2010-09-04T10:12:10Z</time></trkpt>
<trkpt lat="39.653713" lon="2.550863"><ele>724.97</ele><time>2010-09-04T10:12:19Z</time></trkpt>
<trkpt lat="39.653736" lon="2.550903"><ele>724.01</ele><time>2010-09-04T10:12:26Z</time></trkpt>
<trkpt lat="39.653787" lon="2.550977"><ele>721.61</ele><time>2010-09-04T10:12:35Z</time></trkpt>
<trkpt lat="39.653804" lon="2.551030"><ele>721.13</ele><time>2010-09-04T10:12:38Z</time></trkpt>
<trkpt lat="39.653852" lon="2.551030"><ele>719.68</ele><time>2010-09-04T10:12:43Z</time></trkpt>
<trkpt lat="39.653947" lon="2.550938"><ele>717.28</ele><time>2010-09-04T10:12:55Z</time></trkpt>
<trkpt lat="39.653998" lon="2.550898"><ele>715.36</ele><time>2010-09-04T10:13:05Z</time></trkpt>
<trkpt lat="39.654004" lon="2.550899"><ele>715.36</ele><time>2010-09-04T10:13:06Z</time></trkpt>
<trkpt lat="39.654046" lon="2.550912"><ele>712.95</ele><time>2010-09-04T10:13:15Z</time></trkpt>
<trkpt lat="39.654147" lon="2.550913"><ele>711.03</ele><time>2010-09-04T10:13:22Z</time></trkpt>
<trkpt lat="39.654191" lon="2.550884"><ele>710.07</ele><time>2010-09-04T10:13:27Z</time></trkpt>
<trkpt lat="39.654230" lon="2.550880"><ele>708.63</ele><time>2010-09-04T10:13:30Z</time></trkpt>
<trkpt lat="39.654315" lon="2.550858"><ele>704.78</ele><time>2010-09-04T10:13:37Z</time></trkpt>
<trkpt lat="39.654414" lon="2.550811"><ele>702.38</ele><time>2010-09-04T10:13:42Z</time></trkpt>
<trkpt lat="39.654539" lon="2.550787"><ele>699.98</ele><time>2010-09-04T10:13:50Z</time></trkpt>
<trkpt lat="39.654610" lon="2.550747"><ele>699.98</ele><time>2010-09-04T10:14:06Z</time></trkpt>
<trkpt lat="39.654602" lon="2.550664"><ele>700.46</ele><time>2010-09-04T10:14:15Z</time></trkpt>
<trkpt lat="39.654640" lon="2.550605"><ele>699.02</ele><time>2010-09-04T10:14:24Z</time></trkpt>
<trkpt lat="39.654701" lon="2.550562"><ele>696.61</ele><time>2010-09-04T10:14:33Z</time></trkpt>
<trkpt lat="39.654736" lon="2.550504"><ele>694.69</ele><time>2010-09-04T10:14:42Z</time></trkpt>
<trkpt lat="39.654745" lon="2.550490"><ele>692.77</ele><time>2010-09-04T10:14:49Z</time></trkpt>
<trkpt lat="39.654804" lon="2.550536"><ele>690.84</ele><time>2010-09-04T10:14:59Z</time></trkpt>
<trkpt lat="39.654849" lon="2.550530"><ele>688.92</ele><time>2010-09-04T10:15:07Z</time></trkpt>
<trkpt lat="39.654891" lon="2.550522"><ele>687.96</ele><time>2010-09-04T10:15:18Z</time></trkpt>
<trkpt lat="39.654925" lon="2.550523"><ele>687.00</ele><time>2010-09-04T10:15:21Z</time></trkpt>
<trkpt lat="39.654966" lon="2.550528"><ele>686.52</ele><time>2010-09-04T10:15:23Z</time></trkpt>
<trkpt lat="39.655013" lon="2.550447"><ele>683.63</ele><time>2010-09-04T10:15:30Z</time></trkpt>
<trkpt lat="39.655020" lon="2.550417"><ele>682.67</ele><time>2010-09-04T10:15:32Z</time></trkpt>
<trkpt lat="39.655097" lon="2.550372"><ele>681.23</ele><time>2010-09-04T10:15:36Z</time></trkpt>
<trkpt lat="39.655193" lon="2.550359"><ele>680.27</ele><time>2010-09-04T10:15:40Z</time></trkpt>
<trkpt lat="39.655302" lon="2.550335"><ele>679.31</ele><time>2010-09-04T10:15:46Z</time></trkpt>
<trkpt lat="39.655379" lon="2.550315"><ele>678.35</ele><time>2010-09-04T10:15:49Z</time></trkpt>
<trkpt lat="39.655408" lon="2.550196"><ele>677.87</ele><time>2010-09-04T10:15:55Z</time></trkpt>
<trkpt lat="39.655399" lon="2.550114"><ele>676.91</ele><time>2010-09-04T10:15:58Z</time></trkpt>
<trkpt lat="39.655405" lon="2.550088"><ele>676.42</ele><time>2010-09-04T10:16:05Z</time></trkpt>
<trkpt lat="39.655438" lon="2.550156"><ele>677.39</ele><time>2010-09-04T10:16:12Z</time></trkpt>
<trkpt lat="39.655446" lon="2.550245"><ele>677.87</ele><time>2010-09-04T10:16:20Z</time></trkpt>
<trkpt lat="39.655435" lon="2.550287"><ele>678.35</ele><time>2010-09-04T10:16:29Z</time></trkpt>
<trkpt lat="39.655428" lon="2.550363"><ele>678.83</ele><time>2010-09-04T10:16:37Z</time></trkpt>
<trkpt lat="39.655438" lon="2.550394"><ele>678.83</ele><time>2010-09-04T10:16:42Z</time></trkpt>
<trkpt lat="39.655454" lon="2.550471"><ele>678.35</ele><time>2010-09-04T10:16:50Z</time></trkpt>
<trkpt lat="39.655434" lon="2.550477"><ele>677.87</ele><time>2010-09-04T10:17:03Z</time></trkpt>
<trkpt lat="39.655433" lon="2.550481"><ele>677.87</ele><time>2010-09-04T10:19:41Z</time></trkpt>
<trkpt lat="39.655421" lon="2.550550"><ele>676.91</ele><time>2010-09-04T10:19:45Z</time></trkpt>
<trkpt lat="39.655394" lon="2.550716"><ele>674.98</ele><time>2010-09-04T10:19:50Z</time></trkpt>
<trkpt lat="39.655409" lon="2.550919"><ele>672.58</ele><time>2010-09-04T10:19:55Z</time></trkpt>
<trkpt lat="39.655480" lon="2.551098"><ele>670.18</ele><time>2010-09-04T10:20:00Z</time></trkpt>
<trkpt lat="39.655485" lon="2.551126"><ele>670.18</ele><time>2010-09-04T10:20:01Z</time></trkpt>
<trkpt lat="39.655481" lon="2.551296"><ele>668.25</ele><time>2010-09-04T10:20:06Z</time></trkpt>
<trkpt lat="39.655476" lon="2.551326"><ele>667.77</ele><time>2010-09-04T10:20:07Z</time></trkpt>
<trkpt lat="39.655567" lon="2.551550"><ele>665.37</ele><time>2010-09-04T10:20:13Z</time></trkpt>
<trkpt lat="39.655621" lon="2.551661"><ele>663.93</ele><time>2010-09-04T10:20:16Z</time></trkpt>
<trkpt lat="39.655715" lon="2.551793"><ele>662.01</ele><time>2010-09-04T10:20:20Z</time></trkpt>
<trkpt lat="39.655743" lon="2.551830"><ele>661.04</ele><time>2010-09-04T10:20:22Z</time></trkpt>
<trkpt lat="39.655754" lon="2.551898"><ele>660.08</ele><time>2010-09-04T10:20:25Z</time></trkpt>
<trkpt lat="39.655718" lon="2.552150"><ele>657.68</ele><time>2010-09-04T10:20:32Z</time></trkpt>
<trkpt lat="39.655704" lon="2.552464"><ele>655.76</ele><time>2010-09-04T10:20:39Z</time></trkpt>
<trkpt lat="39.655653" lon="2.552629"><ele>653.35</ele><time>2010-09-04T10:20:44Z</time></trkpt>
<trkpt lat="39.655719" lon="2.552758"><ele>650.95</ele><time>2010-09-04T10:20:49Z</time></trkpt>
<trkpt lat="39.655813" lon="2.552904"><ele>649.99</ele><time>2010-09-04T10:20:53Z</time></trkpt>
<trkpt lat="39.656006" lon="2.553299"><ele>649.99</ele><time>2010-09-04T10:21:00Z</time></trkpt>
<trkpt lat="39.656151" lon="2.553612"><ele>650.47</ele><time>2010-09-04T10:21:06Z</time></trkpt>
<trkpt lat="39.656247" lon="2.553939"><ele>650.95</ele><time>2010-09-04T10:21:13Z</time></trkpt>
<trkpt lat="39.656278" lon="2.554030"><ele>650.95</ele><time>2010-09-04T10:21:15Z</time></trkpt>
<trkpt lat="39.656469" lon="2.554318"><ele>647.59</ele><time>2010-09-04T10:21:22Z</time></trkpt>
<trkpt lat="39.656508" lon="2.554400"><ele>646.14</ele><time>2010-09-04T10:21:24Z</time></trkpt>
<trkpt lat="39.656502" lon="2.554481"><ele>645.18</ele><time>2010-09-04T10:21:26Z</time></trkpt>
<trkpt lat="39.656675" lon="2.554548"><ele>642.78</ele><time>2010-09-04T10:21:31Z</time></trkpt>
<trkpt lat="39.656784" lon="2.554483"><ele>639.41</ele><time>2010-09-04T10:21:34Z</time></trkpt>
<trkpt lat="39.656967" lon="2.554367"><ele>637.49</ele><time>2010-09-04T10:21:39Z</time></trkpt>
<trkpt lat="39.657009" lon="2.554327"><ele>637.01</ele><time>2010-09-04T10:21:41Z</time></trkpt>
<trkpt lat="39.657010" lon="2.554416"><ele>635.57</ele><time>2010-09-04T10:21:47Z</time></trkpt>
<trkpt lat="39.656989" lon="2.554640"><ele>633.65</ele><time>2010-09-04T10:21:51Z</time></trkpt>
<trkpt lat="39.656965" lon="2.554777"><ele>633.17</ele><time>2010-09-04T10:21:54Z</time></trkpt>
<trkpt lat="39.656939" lon="2.555044"><ele>633.65</ele><time>2010-09-04T10:21:58Z</time></trkpt>
<trkpt lat="39.656848" lon="2.555272"><ele>633.65</ele><time>2010-09-04T10:22:03Z</time></trkpt>
<trkpt lat="39.656791" lon="2.555507"><ele>635.09</ele><time>2010-09-04T10:22:08Z</time></trkpt>
<trkpt lat="39.656647" lon="2.555765"><ele>636.05</ele><time>2010-09-04T10:22:14Z</time></trkpt>
<trkpt lat="39.656728" lon="2.555913"><ele>636.05</ele><time>2010-09-04T10:22:16Z</time></trkpt>
<trkpt lat="39.656798" lon="2.555996"><ele>637.01</ele><time>2010-09-04T10:22:19Z</time></trkpt>
<trkpt lat="39.656851" lon="2.556198"><ele>637.97</ele><time>2010-09-04T10:22:26Z</time></trkpt>
<trkpt lat="39.656916" lon="2.556260"><ele>638.45</ele><time>2010-09-04T10:22:29Z</time></trkpt>
<trkpt lat="39.656994" lon="2.556471"><ele>637.97</ele><time>2010-09-04T10:22:35Z</time></trkpt>
<trkpt lat="39.657008" lon="2.556504"><ele>637.97</ele><time>2010-09-04T10:22:36Z</time></trkpt>
<trkpt lat="39.657048" lon="2.556786"><ele>637.97</ele><time>2010-09-04T10:22:42Z</time></trkpt>
<trkpt lat="39.657082" lon="2.556957"><ele>637.97</ele><time>2010-09-04T10:22:46Z</time></trkpt>
<trkpt lat="39.657107" lon="2.557135"><ele>638.45</ele><time>2010-09-04T10:22:51Z</time></trkpt>
<trkpt lat="39.657130" lon="2.557280"><ele>638.45</ele><time>2010-09-04T10:22:54Z</time></trkpt>
<trkpt lat="39.657174" lon="2.557366"><ele>638.45</ele><time>2010-09-04T10:22:56Z</time></trkpt>
<trkpt lat="39.657283" lon="2.557635"><ele>637.01</ele><time>2010-09-04T10:23:02Z</time></trkpt>
<trkpt lat="39.657304" lon="2.557686"><ele>637.01</ele><time>2010-09-04T10:23:03Z</time></trkpt>
<trkpt lat="39.657351" lon="2.557826"><ele>635.57</ele><time>2010-09-04T10:23:06Z</time></trkpt>
<trkpt lat="39.657252" lon="2.558245"><ele>633.17</ele><time>2010-09-04T10:23:14Z</time></trkpt>
<trkpt lat="39.657240" lon="2.558346"><ele>631.24</ele><time>2010-09-04T10:23:18Z</time></trkpt>
<trkpt lat="39.657279" lon="2.558459"><ele>628.36</ele><time>2010-09-04T10:23:22Z</time></trkpt>
<trkpt lat="39.657278" lon="2.558772"><ele>623.07</ele><time>2010-09-04T10:23:28Z</time></trkpt>
<trkpt lat="39.657312" lon="2.558863"><ele>622.11</ele><time>2010-09-04T10:23:30Z</time></trkpt>
<trkpt lat="39.657637" lon="2.559019"><ele>620.19</ele><time>2010-09-04T10:23:35Z</time></trkpt>
<trkpt lat="39.657699" lon="2.559078"><ele>619.71</ele><time>2010-09-04T10:23:36Z</time></trkpt>
<trkpt lat="39.657924" lon="2.559317"><ele>619.23</ele><time>2010-09-04T10:23:40Z</time></trkpt>
<trkpt lat="39.658062" lon="2.559560"><ele>618.26</ele><time>2010-09-04T10:23:44Z</time></trkpt>
<trkpt lat="39.658126" lon="2.559654"><ele>617.30</ele><time>2010-09-04T10:23:46Z</time></trkpt>
<trkpt lat="39.658374" lon="2.559815"><ele>615.38</ele><time>2010-09-04T10:23:51Z</time></trkpt>
<trkpt lat="39.658522" lon="2.559910"><ele>612.02</ele><time>2010-09-04T10:23:56Z</time></trkpt>
<trkpt lat="39.658645" lon="2.560107"><ele>609.13</ele><time>2010-09-04T10:24:01Z</time></trkpt>
<trkpt lat="39.658712" lon="2.560229"><ele>608.17</ele><time>2010-09-04T10:24:04Z</time></trkpt>
<trkpt lat="39.658668" lon="2.560447"><ele>607.21</ele><time>2010-09-04T10:24:08Z</time></trkpt>
<trkpt lat="39.658812" lon="2.560859"><ele>606.25</ele><time>2010-09-04T10:24:13Z</time></trkpt>
<trkpt lat="39.658904" lon="2.560958"><ele>604.33</ele><time>2010-09-04T10:24:16Z</time></trkpt>
<trkpt lat="39.658951" lon="2.560983"><ele>603.85</ele><time>2010-09-04T10:24:18Z</time></trkpt>
<trkpt lat="39.659047" lon="2.560926"><ele>603.85</ele><time>2010-09-04T10:24:26Z</time></trkpt>
<trkpt lat="39.659013" lon="2.560884"><ele>602.88</ele><time>2010-09-04T10:24:31Z</time></trkpt>
<trkpt lat="39.659021" lon="2.560890"><ele>603.85</ele><time>2010-09-04T10:24:50Z</time></trkpt>
<trkpt lat="39.659017" lon="2.560964"><ele>603.85</ele><time>2010-09-04T10:24:55Z</time></trkpt>
<trkpt lat="39.658931" lon="2.561019"><ele>603.85</ele><time>2010-09-04T10:25:00Z</time></trkpt>
<trkpt lat="39.658915" lon="2.561019"><ele>604.81</ele><time>2010-09-04T10:25:02Z</time></trkpt>
<trkpt lat="39.658857" lon="2.560949"><ele>605.77</ele><time>2010-09-04T10:25:10Z</time></trkpt>
<trkpt lat="39.658837" lon="2.560921"><ele>605.77</ele><time>2010-09-04T10:25:26Z</time></trkpt>
<trkpt lat="39.658844" lon="2.560952"><ele>605.29</ele><time>2010-09-04T10:30:00Z</time></trkpt>
<trkpt lat="39.658934" lon="2.560894"><ele>603.85</ele><time>2010-09-04T10:30:04Z</time></trkpt>
<trkpt lat="39.659046" lon="2.560684"><ele>604.81</ele><time>2010-09-04T10:30:11Z</time></trkpt>
<trkpt lat="39.659157" lon="2.560521"><ele>603.85</ele><time>2010-09-04T10:30:16Z</time></trkpt>
<trkpt lat="39.659270" lon="2.560261"><ele>604.33</ele><time>2010-09-04T10:30:23Z</time></trkpt>
<trkpt lat="39.659356" lon="2.560231"><ele>603.85</ele><time>2010-09-04T10:30:26Z</time></trkpt>
<trkpt lat="39.659356" lon="2.560342"><ele>603.36</ele><time>2010-09-04T10:30:29Z</time></trkpt>
<trkpt lat="39.659433" lon="2.560405"><ele>602.88</ele><time>2010-09-04T10:30:33Z</time></trkpt>
<trkpt lat="39.659579" lon="2.560266"><ele>603.36</ele><time>2010-09-04T10:30:40Z</time></trkpt>
<trkpt lat="39.659595" lon="2.560246"><ele>602.40</ele><time>2010-09-04T10:30:41Z</time></trkpt>
<trkpt lat="39.659695" lon="2.560294"><ele>600.48</ele><time>2010-09-04T10:30:45Z</time></trkpt>
<trkpt lat="39.659725" lon="2.560372"><ele>600.00</ele><time>2010-09-04T10:30:47Z</time></trkpt>
<trkpt lat="39.659774" lon="2.560520"><ele>597.60</ele><time>2010-09-04T10:30:52Z</time></trkpt>
<trkpt lat="39.659756" lon="2.560557"><ele>596.64</ele><time>2010-09-04T10:30:54Z</time></trkpt>
<trkpt lat="39.659844" lon="2.560552"><ele>595.67</ele><time>2010-09-04T10:30:59Z</time></trkpt>
<trkpt lat="39.659921" lon="2.560507"><ele>594.71</ele><time>2010-09-04T10:31:01Z</time></trkpt>
<trkpt lat="39.659956" lon="2.560494"><ele>594.23</ele><time>2010-09-04T10:31:02Z</time></trkpt>
<trkpt lat="39.659991" lon="2.560508"><ele>593.27</ele><time>2010-09-04T10:31:04Z</time></trkpt>
<trkpt lat="39.660024" lon="2.560543"><ele>592.79</ele><time>2010-09-04T10:31:06Z</time></trkpt>
<trkpt lat="39.660026" lon="2.560636"><ele>591.35</ele><time>2010-09-04T10:31:09Z</time></trkpt>
<trkpt lat="39.660062" lon="2.560856"><ele>588.46</ele><time>2010-09-04T10:31:14Z</time></trkpt>
<trkpt lat="39.659973" lon="2.561104"><ele>586.54</ele><time>2010-09-04T10:31:20Z</time></trkpt>
<trkpt lat="39.659974" lon="2.561325"><ele>584.62</ele><time>2010-09-04T10:31:25Z</time></trkpt>
<trkpt lat="39.660138" lon="2.561563"><ele>582.70</ele><time>2010-09-04T10:31:31Z</time></trkpt>
<trkpt lat="39.660209" lon="2.561670"><ele>582.70</ele><time>2010-09-04T10:31:33Z</time></trkpt>
<trkpt lat="39.660418" lon="2.562006"><ele>583.18</ele><time>2010-09-04T10:31:41Z</time></trkpt>
<trkpt lat="39.660457" lon="2.562173"><ele>584.14</ele><time>2010-09-04T10:31:48Z</time></trkpt>
<trkpt lat="39.660456" lon="2.562214"><ele>584.14</ele><time>2010-09-04T10:31:56Z</time></trkpt>
<trkpt lat="39.660440" lon="2.562253"><ele>584.14</ele><time>2010-09-04T10:32:03Z</time></trkpt>
<trkpt lat="39.660444" lon="2.562249"><ele>583.18</ele><time>2010-09-04T10:36:46Z</time></trkpt>
<trkpt lat="39.660458" lon="2.562342"><ele>582.70</ele><time>2010-09-04T10:36:58Z</time></trkpt>
<trkpt lat="39.660416" lon="2.562507"><ele>580.77</ele><time>2010-09-04T10:37:03Z</time></trkpt>
<trkpt lat="39.660449" lon="2.562653"><ele>578.37</ele><time>2010-09-04T10:37:07Z</time></trkpt>
<trkpt lat="39.660551" lon="2.562728"><ele>576.45</ele><time>2010-09-04T10:37:11Z</time></trkpt>
<trkpt lat="39.660585" lon="2.562956"><ele>573.08</ele><time>2010-09-04T10:37:16Z</time></trkpt>
<trkpt lat="39.660622" lon="2.563157"><ele>571.16</ele><time>2010-09-04T10:37:20Z</time></trkpt>
<trkpt lat="39.660685" lon="2.563314"><ele>568.76</ele><time>2010-09-04T10:37:27Z</time></trkpt>
<trkpt lat="39.660718" lon="2.563367"><ele>568.76</ele><time>2010-09-04T10:37:30Z</time></trkpt>
<trkpt lat="39.660781" lon="2.563405"><ele>567.80</ele><time>2010-09-04T10:37:35Z</time></trkpt>
<trkpt lat="39.660833" lon="2.563359"><ele>566.83</ele><time>2010-09-04T10:37:38Z</time></trkpt>
<trkpt lat="39.660892" lon="2.563383"><ele>564.91</ele><time>2010-09-04T10:37:42Z</time></trkpt>
<trkpt lat="39.660996" lon="2.563469"><ele>561.55</ele><time>2010-09-04T10:37:48Z</time></trkpt>
<trkpt lat="39.661077" lon="2.563472"><ele>559.62</ele><time>2010-09-04T10:37:52Z</time></trkpt>
<trkpt lat="39.661111" lon="2.563465"><ele>557.70</ele><time>2010-09-04T10:37:54Z</time></trkpt>
<trkpt lat="39.661146" lon="2.563468"><ele>556.74</ele><time>2010-09-04T10:37:56Z</time></trkpt>
<trkpt lat="39.661254" lon="2.563574"><ele>553.86</ele><time>2010-09-04T10:38:01Z</time></trkpt>
<trkpt lat="39.661341" lon="2.563613"><ele>551.93</ele><time>2010-09-04T10:38:05Z</time></trkpt>
<trkpt lat="39.661445" lon="2.563670"><ele>549.05</ele><time>2010-09-04T10:38:10Z</time></trkpt>
<trkpt lat="39.661476" lon="2.563694"><ele>548.57</ele><time>2010-09-04T10:38:11Z</time></trkpt>
<trkpt lat="39.661519" lon="2.563766"><ele>547.61</ele><time>2010-09-04T10:38:14Z</time></trkpt>
<trkpt lat="39.661545" lon="2.563828"><ele>546.17</ele><time>2010-09-04T10:38:18Z</time></trkpt>
<trkpt lat="39.661553" lon="2.563962"><ele>544.72</ele><time>2010-09-04T10:38:23Z</time></trkpt>
<trkpt lat="39.661621" lon="2.564020"><ele>543.28</ele><time>2010-09-04T10:38:26Z</time></trkpt>
<trkpt lat="39.661710" lon="2.564048"><ele>539.44</ele><time>2010-09-04T10:38:33Z</time></trkpt>
<trkpt lat="39.661739" lon="2.564066"><ele>536.55</ele><time>2010-09-04T10:38:40Z</time></trkpt>
<trkpt lat="39.661786" lon="2.564098"><ele>536.55</ele><time>2010-09-04T10:38:49Z</time></trkpt>
<trkpt lat="39.661809" lon="2.564089"><ele>535.59</ele><time>2010-09-04T10:38:57Z</time></trkpt>
<trkpt lat="39.661839" lon="2.564069"><ele>534.15</ele><time>2010-09-04T10:39:04Z</time></trkpt>
<trkpt lat="39.661863" lon="2.564096"><ele>532.71</ele><time>2010-09-04T10:39:11Z</time></trkpt>
<trkpt lat="39.661894" lon="2.564110"><ele>529.82</ele><time>2010-09-04T10:39:19Z</time></trkpt>
<trkpt lat="39.661974" lon="2.564080"><ele>528.86</ele><time>2010-09-04T10:39:26Z</time></trkpt>
<trkpt lat="39.662023" lon="2.564038"><ele>527.42</ele><time>2010-09-04T10:39:29Z</time></trkpt>
<trkpt lat="39.662021" lon="2.564032"><ele>526.94</ele><time>2010-09-04T10:39:30Z</time></trkpt>
<trkpt lat="39.662045" lon="2.564070"><ele>525.50</ele><time>2010-09-04T10:39:33Z</time></trkpt>
<trkpt lat="39.662096" lon="2.564189"><ele>522.61</ele><time>2010-09-04T10:39:39Z</time></trkpt>
<trkpt lat="39.662169" lon="2.564228"><ele>519.73</ele><time>2010-09-04T10:39:44Z</time></trkpt>
<trkpt lat="39.662218" lon="2.564313"><ele>517.81</ele><time>2010-09-04T10:39:50Z</time></trkpt>
<trkpt lat="39.662418" lon="2.564392"><ele>514.44</ele><time>2010-09-04T10:39:58Z</time></trkpt>
<trkpt lat="39.662526" lon="2.564472"><ele>514.44</ele><time>2010-09-04T10:40:06Z</time></trkpt>
<trkpt lat="39.662545" lon="2.564467"><ele>513.48</ele><time>2010-09-04T10:40:23Z</time></trkpt>
<trkpt lat="39.662592" lon="2.564493"><ele>510.60</ele><time>2010-09-04T10:40:35Z</time></trkpt>
<trkpt lat="39.662638" lon="2.564451"><ele>508.19</ele><time>2010-09-04T10:40:44Z</time></trkpt>
<trkpt lat="39.662629" lon="2.564381"><ele>506.27</ele><time>2010-09-04T10:40:51Z</time></trkpt>
<trkpt lat="39.662635" lon="2.564344"><ele>505.79</ele><time>2010-09-04T10:40:54Z</time></trkpt>
<trkpt lat="39.662677" lon="2.564346"><ele>503.39</ele><time>2010-09-04T10:41:02Z</time></trkpt>
<trkpt lat="39.662803" lon="2.564308"><ele>501.46</ele><time>2010-09-04T10:41:21Z</time></trkpt>
<trkpt lat="39.662805" lon="2.564266"><ele>501.46</ele><time>2010-09-04T10:41:34Z</time></trkpt>
<trkpt lat="39.662875" lon="2.564244"><ele>499.54</ele><time>2010-09-04T10:42:29Z</time></trkpt>
<trkpt lat="39.663023" lon="2.564294"><ele>496.66</ele><time>2010-09-04T10:42:34Z</time></trkpt>
<trkpt lat="39.663047" lon="2.564431"><ele>493.29</ele><time>2010-09-04T10:42:37Z</time></trkpt>
<trkpt lat="39.663170" lon="2.564647"><ele>488.97</ele><time>2010-09-04T10:42:42Z</time></trkpt>
<trkpt lat="39.663309" lon="2.564670"><ele>486.08</ele><time>2010-09-04T10:42:45Z</time></trkpt>
<trkpt lat="39.663465" lon="2.564779"><ele>481.76</ele><time>2010-09-04T10:42:50Z</time></trkpt>
<trkpt lat="39.663518" lon="2.564952"><ele>477.91</ele><time>2010-09-04T10:42:55Z</time></trkpt>
<trkpt lat="39.663618" lon="2.564955"><ele>475.99</ele><time>2010-09-04T10:42:58Z</time></trkpt>
<trkpt lat="39.663622" lon="2.565056"><ele>474.07</ele><time>2010-09-04T10:43:02Z</time></trkpt>
<trkpt lat="39.663594" lon="2.565090"><ele>473.11</ele><time>2010-09-04T10:43:03Z</time></trkpt>
<trkpt lat="39.663587" lon="2.565160"><ele>470.70</ele><time>2010-09-04T10:43:06Z</time></trkpt>
<trkpt lat="39.663731" lon="2.565221"><ele>466.86</ele><time>2010-09-04T10:43:11Z</time></trkpt>
<trkpt lat="39.663808" lon="2.565357"><ele>463.97</ele><time>2010-09-04T10:43:15Z</time></trkpt>
<trkpt lat="39.663965" lon="2.565494"><ele>461.57</ele><time>2010-09-04T10:43:17Z</time></trkpt>
<trkpt lat="39.664149" lon="2.565699"><ele>457.24</ele><time>2010-09-04T10:43:22Z</time></trkpt>
<trkpt lat="39.664251" lon="2.565817"><ele>454.36</ele><time>2010-09-04T10:43:26Z</time></trkpt>
<trkpt lat="39.664326" lon="2.565888"><ele>454.36</ele><time>2010-09-04T10:43:27Z</time></trkpt>
<trkpt lat="39.664397" lon="2.565835"><ele>451.48</ele><time>2010-09-04T10:43:31Z</time></trkpt>
<trkpt lat="39.664435" lon="2.565686"><ele>449.55</ele><time>2010-09-04T10:43:34Z</time></trkpt>
<trkpt lat="39.664497" lon="2.565501"><ele>444.75</ele><time>2010-09-04T10:43:39Z</time></trkpt>
<trkpt lat="39.664668" lon="2.565481"><ele>443.31</ele><time>2010-09-04T10:43:42Z</time></trkpt>
<trkpt lat="39.664729" lon="2.565477"><ele>442.34</ele><time>2010-09-04T10:43:50Z</time></trkpt>
<trkpt lat="39.664696" lon="2.565442"><ele>442.82</ele><time>2010-09-04T10:45:27Z</time></trkpt>
<trkpt lat="39.664618" lon="2.565407"><ele>444.27</ele><time>2010-09-04T10:45:40Z</time></trkpt>
<trkpt lat="39.664539" lon="2.565499"><ele>446.19</ele><time>2010-09-04T10:45:54Z</time></trkpt>
<trkpt lat="39.664527" lon="2.565528"><ele>446.67</ele><time>2010-09-04T10:45:57Z</time></trkpt>
<trkpt lat="39.664483" lon="2.565646"><ele>448.11</ele><time>2010-09-04T10:46:08Z</time></trkpt>
<trkpt lat="39.664402" lon="2.565731"><ele>449.07</ele><time>2010-09-04T10:46:16Z</time></trkpt>
<trkpt lat="39.664380" lon="2.565811"><ele>450.52</ele><time>2010-09-04T10:46:24Z</time></trkpt>
<trkpt lat="39.664342" lon="2.565843"><ele>451.00</ele><time>2010-09-04T10:46:31Z</time></trkpt>
<trkpt lat="39.664328" lon="2.565898"><ele>452.44</ele><time>2010-09-04T10:46:39Z</time></trkpt>
<trkpt lat="39.664281" lon="2.565903"><ele>453.40</ele><time>2010-09-04T10:46:45Z</time></trkpt>
<trkpt lat="39.664291" lon="2.565943"><ele>453.88</ele><time>2010-09-04T10:46:54Z</time></trkpt>
<trkpt lat="39.664302" lon="2.565977"><ele>454.36</ele><time>2010-09-04T10:47:00Z</time></trkpt>
<trkpt lat="39.664284" lon="2.566003"><ele>454.36</ele><time>2010-09-04T10:47:09Z</time></trkpt>
<trkpt lat="39.664283" lon="2.566020"><ele>454.84</ele><time>2010-09-04T10:47:22Z</time></trkpt>
<trkpt lat="39.664286" lon="2.566030"><ele>454.36</ele><time>2010-09-04T10:47:27Z</time></trkpt>
<trkpt lat="39.664238" lon="2.566105"><ele>454.36</ele><time>2010-09-04T10:47:32Z</time></trkpt>
<trkpt lat="39.664148" lon="2.566192"><ele>455.32</ele><time>2010-09-04T10:47:38Z</time></trkpt>
<trkpt lat="39.664145" lon="2.566274"><ele>456.76</ele><time>2010-09-04T10:47:45Z</time></trkpt>
<trkpt lat="39.664162" lon="2.566316"><ele>457.72</ele><time>2010-09-04T10:47:48Z</time></trkpt>
<trkpt lat="39.664163" lon="2.566459"><ele>459.17</ele><time>2010-09-04T10:47:57Z</time></trkpt>
<trkpt lat="39.664118" lon="2.566492"><ele>460.61</ele><time>2010-09-04T10:48:04Z</time></trkpt>
<trkpt lat="39.664092" lon="2.566536"><ele>461.09</ele><time>2010-09-04T10:48:10Z</time></trkpt>
<trkpt lat="39.664074" lon="2.566585"><ele>462.05</ele><time>2010-09-04T10:48:18Z</time></trkpt>
<trkpt lat="39.664038" lon="2.566599"><ele>463.01</ele><time>2010-09-04T10:48:29Z</time></trkpt>
<trkpt lat="39.664046" lon="2.566613"><ele>463.01</ele><time>2010-09-04T10:48:41Z</time></trkpt>
<trkpt lat="39.664025" lon="2.566636"><ele>462.53</ele><time>2010-09-04T10:49:03Z</time></trkpt>
<trkpt lat="39.663995" lon="2.566714"><ele>461.57</ele><time>2010-09-04T10:49:08Z</time></trkpt>
<trkpt lat="39.663938" lon="2.566778"><ele>461.09</ele><time>2010-09-04T10:49:13Z</time></trkpt>
<trkpt lat="39.663929" lon="2.566832"><ele>460.13</ele><time>2010-09-04T10:49:15Z</time></trkpt>
<trkpt lat="39.663909" lon="2.566904"><ele>459.17</ele><time>2010-09-04T10:49:17Z</time></trkpt>
<trkpt lat="39.663853" lon="2.567060"><ele>457.72</ele><time>2010-09-04T10:49:23Z</time></trkpt>
<trkpt lat="39.663876" lon="2.567176"><ele>455.80</ele><time>2010-09-04T10:49:31Z</time></trkpt>
<trkpt lat="39.663890" lon="2.567272"><ele>455.80</ele><time>2010-09-04T10:49:42Z</time></trkpt>
<trkpt lat="39.663887" lon="2.567302"><ele>454.84</ele><time>2010-09-04T10:50:21Z</time></trkpt>
<trkpt lat="39.663846" lon="2.567336"><ele>453.88</ele><time>2010-09-04T10:50:32Z</time></trkpt>
<trkpt lat="39.663839" lon="2.567413"><ele>452.92</ele><time>2010-09-04T10:50:38Z</time></trkpt>
<trkpt lat="39.663826" lon="2.567459"><ele>451.96</ele><time>2010-09-04T10:50:45Z</time></trkpt>
<trkpt lat="39.663829" lon="2.567469"><ele>451.96</ele><time>2010-09-04T10:50:50Z</time></trkpt>
<trkpt lat="39.663832" lon="2.567367"><ele>453.40</ele><time>2010-09-04T10:51:01Z</time></trkpt>
<trkpt lat="39.663844" lon="2.567323"><ele>453.88</ele><time>2010-09-04T10:51:08Z</time></trkpt>
<trkpt lat="39.663848" lon="2.567305"><ele>454.36</ele><time>2010-09-04T10:52:09Z</time></trkpt>
<trkpt lat="39.663874" lon="2.567254"><ele>455.32</ele><time>2010-09-04T10:52:17Z</time></trkpt>
<trkpt lat="39.663892" lon="2.567177"><ele>456.28</ele><time>2010-09-04T10:52:25Z</time></trkpt>
<trkpt lat="39.663901" lon="2.567123"><ele>456.76</ele><time>2010-09-04T10:52:32Z</time></trkpt>
<trkpt lat="39.663893" lon="2.567106"><ele>456.76</ele><time>2010-09-04T10:52:44Z</time></trkpt>
<trkpt lat="39.663916" lon="2.567052"><ele>457.24</ele><time>2010-09-04T10:52:57Z</time></trkpt>
<trkpt lat="39.663953" lon="2.567009"><ele>457.24</ele><time>2010-09-04T10:53:05Z</time></trkpt>
<trkpt lat="39.664032" lon="2.566991"><ele>453.88</ele><time>2010-09-04T10:53:22Z</time></trkpt>
<trkpt lat="39.664039" lon="2.566990"><ele>453.40</ele><time>2010-09-04T10:53:23Z</time></trkpt>
<trkpt lat="39.664083" lon="2.566948"><ele>452.44</ele><time>2010-09-04T10:53:26Z</time></trkpt>
<trkpt lat="39.664183" lon="2.566962"><ele>451.48</ele><time>2010-09-04T10:53:28Z</time></trkpt>
<trkpt lat="39.664246" lon="2.567008"><ele>449.55</ele><time>2010-09-04T10:53:32Z</time></trkpt>
<trkpt lat="39.664266" lon="2.567048"><ele>447.63</ele><time>2010-09-04T10:53:38Z</time></trkpt>
<trkpt lat="39.664294" lon="2.567050"><ele>447.15</ele><time>2010-09-04T10:53:46Z</time></trkpt>
<trkpt lat="39.664321" lon="2.567030"><ele>446.67</ele><time>2010-09-04T10:53:58Z</time></trkpt>
<trkpt lat="39.664389" lon="2.566985"><ele>446.19</ele><time>2010-09-04T10:54:30Z</time></trkpt>
<trkpt lat="39.664417" lon="2.566990"><ele>445.71</ele><time>2010-09-04T10:54:44Z</time></trkpt>
<trkpt lat="39.664454" lon="2.567047"><ele>444.75</ele><time>2010-09-04T10:54:51Z</time></trkpt>
<trkpt lat="39.664455" lon="2.567085"><ele>444.27</ele><time>2010-09-04T10:55:01Z</time></trkpt>
<trkpt lat="39.664463" lon="2.567121"><ele>443.79</ele><time>2010-09-04T10:55:09Z</time></trkpt>
<trkpt lat="39.664460" lon="2.567163"><ele>442.82</ele><time>2010-09-04T10:55:17Z</time></trkpt>
<trkpt lat="39.664435" lon="2.567202"><ele>441.86</ele><time>2010-09-04T10:55:24Z</time></trkpt>
<trkpt lat="39.664408" lon="2.567294"><ele>440.42</ele><time>2010-09-04T10:55:32Z</time></trkpt>
<trkpt lat="39.664439" lon="2.567377"><ele>438.50</ele><time>2010-09-04T10:55:36Z</time></trkpt>
<trkpt lat="39.664395" lon="2.567438"><ele>437.06</ele><time>2010-09-04T10:55:43Z</time></trkpt>
<trkpt lat="39.664343" lon="2.567446"><ele>437.06</ele><time>2010-09-04T10:55:48Z</time></trkpt>
<trkpt lat="39.664336" lon="2.567457"><ele>437.06</ele><time>2010-09-04T10:55:50Z</time></trkpt>
<trkpt lat="39.664228" lon="2.567495"><ele>436.58</ele><time>2010-09-04T10:55:57Z</time></trkpt>
<trkpt lat="39.664159" lon="2.567585"><ele>432.73</ele><time>2010-09-04T10:56:02Z</time></trkpt>
<trkpt lat="39.664099" lon="2.567661"><ele>431.29</ele><time>2010-09-04T10:56:05Z</time></trkpt>
<trkpt lat="39.664087" lon="2.567678"><ele>431.29</ele><time>2010-09-04T10:56:06Z</time></trkpt>
<trkpt lat="39.664036" lon="2.567755"><ele>430.33</ele><time>2010-09-04T10:56:14Z</time></trkpt>
<trkpt lat="39.664041" lon="2.567805"><ele>429.85</ele><time>2010-09-04T10:56:22Z</time></trkpt>
<trkpt lat="39.664075" lon="2.567835"><ele>427.92</ele><time>2010-09-04T10:56:29Z</time></trkpt>
<trkpt lat="39.664067" lon="2.567861"><ele>427.44</ele><time>2010-09-04T10:56:36Z</time></trkpt>
<trkpt lat="39.664068" lon="2.567930"><ele>425.52</ele><time>2010-09-04T10:56:46Z</time></trkpt>
<trkpt lat="39.664063" lon="2.567983"><ele>424.08</ele><time>2010-09-04T10:56:52Z</time></trkpt>
<trkpt lat="39.664042" lon="2.568027"><ele>422.16</ele><time>2010-09-04T10:56:59Z</time></trkpt>
<trkpt lat="39.664045" lon="2.568055"><ele>421.19</ele><time>2010-09-04T10:57:12Z</time></trkpt>
<trkpt lat="39.664061" lon="2.568094"><ele>421.19</ele><time>2010-09-04T10:57:19Z</time></trkpt>
<trkpt lat="39.664026" lon="2.568128"><ele>420.23</ele><time>2010-09-04T10:57:26Z</time></trkpt>
<trkpt lat="39.664027" lon="2.568139"><ele>419.75</ele><time>2010-09-04T10:57:38Z</time></trkpt>
<trkpt lat="39.664016" lon="2.568138"><ele>419.75</ele><time>2010-09-04T11:01:34Z</time></trkpt>
<trkpt lat="39.663971" lon="2.568218"><ele>416.39</ele><time>2010-09-04T11:01:45Z</time></trkpt>
<trkpt lat="39.663966" lon="2.568237"><ele>415.91</ele><time>2010-09-04T11:01:52Z</time></trkpt>
<trkpt lat="39.663962" lon="2.568242"><ele>415.43</ele><time>2010-09-04T11:01:59Z</time></trkpt>
<trkpt lat="39.663929" lon="2.568328"><ele>413.98</ele><time>2010-09-04T11:02:02Z</time></trkpt>
<trkpt lat="39.663697" lon="2.568561"><ele>412.06</ele><time>2010-09-04T11:02:09Z</time></trkpt>
<trkpt lat="39.663553" lon="2.568711"><ele>408.70</ele><time>2010-09-04T11:02:13Z</time></trkpt>
<trkpt lat="39.663537" lon="2.568744"><ele>408.22</ele><time>2010-09-04T11:02:14Z</time></trkpt>
<trkpt lat="39.663503" lon="2.568838"><ele>405.81</ele><time>2010-09-04T11:02:18Z</time></trkpt>
<trkpt lat="39.663523" lon="2.568905"><ele>404.85</ele><time>2010-09-04T11:02:24Z</time></trkpt>
<trkpt lat="39.663540" lon="2.568930"><ele>404.85</ele><time>2010-09-04T11:04:04Z</time></trkpt>
<trkpt lat="39.663567" lon="2.568953"><ele>403.89</ele><time>2010-09-04T11:04:11Z</time></trkpt>
<trkpt lat="39.663583" lon="2.568959"><ele>403.41</ele><time>2010-09-04T11:04:23Z</time></trkpt>
<trkpt lat="39.663595" lon="2.568925"><ele>403.41</ele><time>2010-09-04T11:04:35Z</time></trkpt>
<trkpt lat="39.663644" lon="2.568953"><ele>401.49</ele><time>2010-09-04T11:04:45Z</time></trkpt>
<trkpt lat="39.663712" lon="2.568799"><ele>400.05</ele><time>2010-09-04T11:04:50Z</time></trkpt>
<trkpt lat="39.663951" lon="2.568778"><ele>398.60</ele><time>2010-09-04T11:04:56Z</time></trkpt>
<trkpt lat="39.663935" lon="2.568804"><ele>397.64</ele><time>2010-09-04T11:04:59Z</time></trkpt>
<trkpt lat="39.663853" lon="2.568853"><ele>396.20</ele><time>2010-09-04T11:05:02Z</time></trkpt>
<trkpt lat="39.663818" lon="2.569067"><ele>393.32</ele><time>2010-09-04T11:05:06Z</time></trkpt>
<trkpt lat="39.663789" lon="2.569106"><ele>392.36</ele><time>2010-09-04T11:05:07Z</time></trkpt>
<trkpt lat="39.663610" lon="2.569238"><ele>390.91</ele><time>2010-09-04T11:05:13Z</time></trkpt>
<trkpt lat="39.663528" lon="2.569360"><ele>390.91</ele><time>2010-09-04T11:05:16Z</time></trkpt>
<trkpt lat="39.663382" lon="2.569737"><ele>389.47</ele><time>2010-09-04T11:05:25Z</time></trkpt>
<trkpt lat="39.663340" lon="2.569885"><ele>389.47</ele><time>2010-09-04T11:05:29Z</time></trkpt>
<trkpt lat="39.663271" lon="2.569930"><ele>388.99</ele><time>2010-09-04T11:05:32Z</time></trkpt>
<trkpt lat="39.663072" lon="2.570089"><ele>387.07</ele><time>2010-09-04T11:05:37Z</time></trkpt>
<trkpt lat="39.662907" lon="2.570226"><ele>387.07</ele><time>2010-09-04T11:05:42Z</time></trkpt>
<trkpt lat="39.662684" lon="2.570417"><ele>385.15</ele><time>2010-09-04T11:05:49Z</time></trkpt>
<trkpt lat="39.662637" lon="2.570438"><ele>384.66</ele><time>2010-09-04T11:05:50Z</time></trkpt>
<trkpt lat="39.662506" lon="2.570510"><ele>383.70</ele><time>2010-09-04T11:05:54Z</time></trkpt>
<trkpt lat="39.662359" lon="2.570617"><ele>381.78</ele><time>2010-09-04T11:05:59Z</time></trkpt>
<trkpt lat="39.662266" lon="2.570811"><ele>378.42</ele><time>2010-09-04T11:06:03Z</time></trkpt>
<trkpt lat="39.662219" lon="2.570893"><ele>376.97</ele><time>2010-09-04T11:06:06Z</time></trkpt>
<trkpt lat="39.662215" lon="2.570918"><ele>376.49</ele><time>2010-09-04T11:06:07Z</time></trkpt>
<trkpt lat="39.662229" lon="2.570981"><ele>375.53</ele><time>2010-09-04T11:06:09Z</time></trkpt>
<trkpt lat="39.662212" lon="2.571025"><ele>374.57</ele><time>2010-09-04T11:06:11Z</time></trkpt>
<trkpt lat="39.662167" lon="2.571099"><ele>374.57</ele><time>2010-09-04T11:06:16Z</time></trkpt>
<trkpt lat="39.662158" lon="2.571123"><ele>374.09</ele><time>2010-09-04T11:06:21Z</time></trkpt>
<trkpt lat="39.662248" lon="2.571161"><ele>372.65</ele><time>2010-09-04T11:06:26Z</time></trkpt>
<trkpt lat="39.662269" lon="2.571156"><ele>373.13</ele><time>2010-09-04T11:06:27Z</time></trkpt>
<trkpt lat="39.662390" lon="2.571029"><ele>371.21</ele><time>2010-09-04T11:06:33Z</time></trkpt>
<trkpt lat="39.662405" lon="2.571003"><ele>370.73</ele><time>2010-09-04T11:06:34Z</time></trkpt>
<trkpt lat="39.662427" lon="2.570984"><ele>369.76</ele><time>2010-09-04T11:06:36Z</time></trkpt>
<trkpt lat="39.662429" lon="2.571194"><ele>367.36</ele><time>2010-09-04T11:06:42Z</time></trkpt>
<trkpt lat="39.662368" lon="2.571402"><ele>364.96</ele><time>2010-09-04T11:06:47Z</time></trkpt>
<trkpt lat="39.662283" lon="2.571566"><ele>362.55</ele><time>2010-09-04T11:06:52Z</time></trkpt>
<trkpt lat="39.662197" lon="2.571699"><ele>360.15</ele><time>2010-09-04T11:06:57Z</time></trkpt>
<trkpt lat="39.662120" lon="2.571775"><ele>358.71</ele><time>2010-09-04T11:07:03Z</time></trkpt>
<trkpt lat="39.662064" lon="2.571827"><ele>358.71</ele><time>2010-09-04T11:07:11Z</time></trkpt>
<trkpt lat="39.662051" lon="2.571839"><ele>358.23</ele><time>2010-09-04T11:07:20Z</time></trkpt>
<trkpt lat="39.662009" lon="2.571999"><ele>355.83</ele><time>2010-09-04T11:07:25Z</time></trkpt>
<trkpt lat="39.661990" lon="2.572066"><ele>354.86</ele><time>2010-09-04T11:07:26Z</time></trkpt>
<trkpt lat="39.661936" lon="2.572257"><ele>353.90</ele><time>2010-09-04T11:07:29Z</time></trkpt>
<trkpt lat="39.661920" lon="2.572555"><ele>349.10</ele><time>2010-09-04T11:07:33Z</time></trkpt>
<trkpt lat="39.661918" lon="2.572885"><ele>346.21</ele><time>2010-09-04T11:07:37Z</time></trkpt>
<trkpt lat="39.662021" lon="2.573056"><ele>343.33</ele><time>2010-09-04T11:07:42Z</time></trkpt>
<trkpt lat="39.662115" lon="2.573159"><ele>340.44</ele><time>2010-09-04T11:07:46Z</time></trkpt>
<trkpt lat="39.662175" lon="2.573140"><ele>339.96</ele><time>2010-09-04T11:07:48Z</time></trkpt>
<trkpt lat="39.662245" lon="2.572962"><ele>337.08</ele><time>2010-09-04T11:07:53Z</time></trkpt>
<trkpt lat="39.662271" lon="2.572930"><ele>335.64</ele><time>2010-09-04T11:07:55Z</time></trkpt>
<trkpt lat="39.662336" lon="2.572842"><ele>333.71</ele><time>2010-09-04T11:07:58Z</time></trkpt>
<trkpt lat="39.662363" lon="2.572785"><ele>333.23</ele><time>2010-09-04T11:07:59Z</time></trkpt>
<trkpt lat="39.662539" lon="2.572494"><ele>331.31</ele><time>2010-09-04T11:08:05Z</time></trkpt>
<trkpt lat="39.662577" lon="2.572420"><ele>330.83</ele><time>2010-09-04T11:08:07Z</time></trkpt>
<trkpt lat="39.662751" lon="2.572411"><ele>328.43</ele><time>2010-09-04T11:08:13Z</time></trkpt>
<trkpt lat="39.662827" lon="2.572398"><ele>326.99</ele><time>2010-09-04T11:08:47Z</time></trkpt>
<trkpt lat="39.662994" lon="2.572392"><ele>323.62</ele><time>2010-09-04T11:08:50Z</time></trkpt>
<trkpt lat="39.663179" lon="2.572395"><ele>320.26</ele><time>2010-09-04T11:08:54Z</time></trkpt>
<trkpt lat="39.663239" lon="2.572558"><ele>316.41</ele><time>2010-09-04T11:09:00Z</time></trkpt>
<trkpt lat="39.663172" lon="2.572768"><ele>311.60</ele><time>2010-09-04T11:09:04Z</time></trkpt>
<trkpt lat="39.663089" lon="2.572978"><ele>309.68</ele><time>2010-09-04T11:09:08Z</time></trkpt>
<trkpt lat="39.663072" lon="2.573029"><ele>309.20</ele><time>2010-09-04T11:09:09Z</time></trkpt>
<trkpt lat="39.663061" lon="2.573212"><ele>307.28</ele><time>2010-09-04T11:09:13Z</time></trkpt>
<trkpt lat="39.663051" lon="2.573369"><ele>303.43</ele><time>2010-09-04T11:09:17Z</time></trkpt>
<trkpt lat="39.663000" lon="2.573614"><ele>300.55</ele><time>2010-09-04T11:09:22Z</time></trkpt>
<trkpt lat="39.662970" lon="2.573633"><ele>300.07</ele><time>2010-09-04T11:09:24Z</time></trkpt>
<trkpt lat="39.662928" lon="2.573639"><ele>300.07</ele><time>2010-09-04T11:09:27Z</time></trkpt>
<trkpt lat="39.662892" lon="2.573723"><ele>299.11</ele><time>2010-09-04T11:09:33Z</time></trkpt>
<trkpt lat="39.662882" lon="2.573727"><ele>299.11</ele><time>2010-09-04T11:09:52Z</time></trkpt>
<trkpt lat="39.662841" lon="2.573789"><ele>298.15</ele><time>2010-09-04T11:10:05Z</time></trkpt>
<trkpt lat="39.662718" lon="2.573926"><ele>298.15</ele><time>2010-09-04T11:10:10Z</time></trkpt>
<trkpt lat="39.662618" lon="2.574042"><ele>298.15</ele><time>2010-09-04T11:10:15Z</time></trkpt>
<trkpt lat="39.662599" lon="2.574060"><ele>298.15</ele><time>2010-09-04T11:10:16Z</time></trkpt>
<trkpt lat="39.662485" lon="2.574314"><ele>299.11</ele><time>2010-09-04T11:10:25Z</time></trkpt>
<trkpt lat="39.662467" lon="2.574529"><ele>300.07</ele><time>2010-09-04T11:10:32Z</time></trkpt>
<trkpt lat="39.662441" lon="2.574841"><ele>300.07</ele><time>2010-09-04T11:10:40Z</time></trkpt>
<trkpt lat="39.662432" lon="2.574890"><ele>300.07</ele><time>2010-09-04T11:10:41Z</time></trkpt>
<trkpt lat="39.662420" lon="2.575131"><ele>298.63</ele><time>2010-09-04T11:10:45Z</time></trkpt>
<trkpt lat="39.662312" lon="2.575390"><ele>296.70</ele><time>2010-09-04T11:10:50Z</time></trkpt>
<trkpt lat="39.662257" lon="2.575393"><ele>295.74</ele><time>2010-09-04T11:10:52Z</time></trkpt>
<trkpt lat="39.662055" lon="2.575342"><ele>296.70</ele><time>2010-09-04T11:11:02Z</time></trkpt>
<trkpt lat="39.661811" lon="2.575343"><ele>298.15</ele><time>2010-09-04T11:11:13Z</time></trkpt>
<trkpt lat="39.661694" lon="2.575298"><ele>299.11</ele><time>2010-09-04T11:11:18Z</time></trkpt>
<trkpt lat="39.661492" lon="2.575061"><ele>301.03</ele><time>2010-09-04T11:11:29Z</time></trkpt>
<trkpt lat="39.661311" lon="2.574795"><ele>302.47</ele><time>2010-09-04T11:11:40Z</time></trkpt>
<trkpt lat="39.661184" lon="2.574490"><ele>303.91</ele><time>2010-09-04T11:11:51Z</time></trkpt>
<trkpt lat="39.661086" lon="2.574134"><ele>305.84</ele><time>2010-09-04T11:12:03Z</time></trkpt>
<trkpt lat="39.661079" lon="2.573997"><ele>306.80</ele><time>2010-09-04T11:12:08Z</time></trkpt>
<trkpt lat="39.661087" lon="2.573892"><ele>307.28</ele><time>2010-09-04T11:12:12Z</time></trkpt>
<trkpt lat="39.661126" lon="2.573765"><ele>308.72</ele><time>2010-09-04T11:12:19Z</time></trkpt>
<trkpt lat="39.661089" lon="2.573606"><ele>309.68</ele><time>2010-09-04T11:12:25Z</time></trkpt>
<trkpt lat="39.661018" lon="2.573423"><ele>310.64</ele><time>2010-09-04T11:12:32Z</time></trkpt>
<trkpt lat="39.660926" lon="2.573296"><ele>311.60</ele><time>2010-09-04T11:12:38Z</time></trkpt>
<trkpt lat="39.660857" lon="2.573163"><ele>312.09</ele><time>2010-09-04T11:12:43Z</time></trkpt>
<trkpt lat="39.660772" lon="2.573014"><ele>313.53</ele><time>2010-09-04T11:12:49Z</time></trkpt>
<trkpt lat="39.660658" lon="2.572833"><ele>314.49</ele><time>2010-09-04T11:12:57Z</time></trkpt>
<trkpt lat="39.660568" lon="2.572689"><ele>315.45</ele><time>2010-09-04T11:13:03Z</time></trkpt>
<trkpt lat="39.660490" lon="2.572532"><ele>315.93</ele><time>2010-09-04T11:13:09Z</time></trkpt>
<trkpt lat="39.660369" lon="2.572337"><ele>316.89</ele><time>2010-09-04T11:13:16Z</time></trkpt>
<trkpt lat="39.660162" lon="2.572216"><ele>317.85</ele><time>2010-09-04T11:13:24Z</time></trkpt>
<trkpt lat="39.659974" lon="2.572297"><ele>318.33</ele><time>2010-09-04T11:13:31Z</time></trkpt>
<trkpt lat="39.659776" lon="2.572443"><ele>319.30</ele><time>2010-09-04T11:13:39Z</time></trkpt>
<trkpt lat="39.659507" lon="2.572644"><ele>319.78</ele><time>2010-09-04T11:13:49Z</time></trkpt>
<trkpt lat="39.659258" lon="2.572816"><ele>321.22</ele><time>2010-09-04T11:13:58Z</time></trkpt>
<trkpt lat="39.658906" lon="2.572906"><ele>322.18</ele><time>2010-09-04T11:14:09Z</time></trkpt>
<trkpt lat="39.658561" lon="2.572892"><ele>323.62</ele><time>2010-09-04T11:14:21Z</time></trkpt>
<trkpt lat="39.658232" lon="2.572990"><ele>325.06</ele><time>2010-09-04T11:14:32Z</time></trkpt>
<trkpt lat="39.657944" lon="2.573190"><ele>326.50</ele><time>2010-09-04T11:14:43Z</time></trkpt>
<trkpt lat="39.657652" lon="2.573424"><ele>327.95</ele><time>2010-09-04T11:14:55Z</time></trkpt>
<trkpt lat="39.657340" lon="2.573615"><ele>328.91</ele><time>2010-09-04T11:15:07Z</time></trkpt>
<trkpt lat="39.657165" lon="2.573549"><ele>330.35</ele><time>2010-09-04T11:15:14Z</time></trkpt>
<trkpt lat="39.657039" lon="2.573464"><ele>330.35</ele><time>2010-09-04T11:15:22Z</time></trkpt>
<trkpt lat="39.656861" lon="2.573277"><ele>329.39</ele><time>2010-09-04T11:15:30Z</time></trkpt>
<trkpt lat="39.656640" lon="2.572977"><ele>328.43</ele><time>2010-09-04T11:15:39Z</time></trkpt>
<trkpt lat="39.656343" lon="2.572593"><ele>326.99</ele><time>2010-09-04T11:15:48Z</time></trkpt>
<trkpt lat="39.656031" lon="2.572362"><ele>325.06</ele><time>2010-09-04T11:15:54Z</time></trkpt>
<trkpt lat="39.655800" lon="2.572229"><ele>323.62</ele><time>2010-09-04T11:15:58Z</time></trkpt>
<trkpt lat="39.655607" lon="2.572124"><ele>322.18</ele><time>2010-09-04T11:16:01Z</time></trkpt>
<trkpt lat="39.655377" lon="2.572053"><ele>321.22</ele><time>2010-09-04T11:16:04Z</time></trkpt>
<trkpt lat="39.655125" lon="2.571975"><ele>319.78</ele><time>2010-09-04T11:16:07Z</time></trkpt>
<trkpt lat="39.654883" lon="2.571868"><ele>318.33</ele><time>2010-09-04T11:16:10Z</time></trkpt>
<trkpt lat="39.654644" lon="2.571809"><ele>316.89</ele><time>2010-09-04T11:16:13Z</time></trkpt>
<trkpt lat="39.654361" lon="2.571862"><ele>315.45</ele><time>2010-09-04T11:16:17Z</time></trkpt>
<trkpt lat="39.654274" lon="2.571900"><ele>314.49</ele><time>2010-09-04T11:16:20Z</time></trkpt>
<trkpt lat="39.654247" lon="2.572028"><ele>313.53</ele><time>2010-09-04T11:16:26Z</time></trkpt>
<trkpt lat="39.654146" lon="2.572256"><ele>311.12</ele><time>2010-09-04T11:16:33Z</time></trkpt>
<trkpt lat="39.653955" lon="2.572597"><ele>307.28</ele><time>2010-09-04T11:16:38Z</time></trkpt>
<trkpt lat="39.653914" lon="2.572674"><ele>306.80</ele><time>2010-09-04T11:16:39Z</time></trkpt>
<trkpt lat="39.653757" lon="2.572966"><ele>303.91</ele><time>2010-09-04T11:16:43Z</time></trkpt>
<trkpt lat="39.653552" lon="2.573254"><ele>300.07</ele><time>2010-09-04T11:16:47Z</time></trkpt>
<trkpt lat="39.653383" lon="2.573482"><ele>296.70</ele><time>2010-09-04T11:16:50Z</time></trkpt>
<trkpt lat="39.653243" lon="2.573608"><ele>295.26</ele><time>2010-09-04T11:16:52Z</time></trkpt>
<trkpt lat="39.652971" lon="2.573728"><ele>292.38</ele><time>2010-09-04T11:16:55Z</time></trkpt>
<trkpt lat="39.652442" lon="2.573867"><ele>287.57</ele><time>2010-09-04T11:17:00Z</time></trkpt>
<trkpt lat="39.651998" lon="2.574169"><ele>285.17</ele><time>2010-09-04T11:17:05Z</time></trkpt>
<trkpt lat="39.651768" lon="2.574371"><ele>281.80</ele><time>2010-09-04T11:17:09Z</time></trkpt>
<trkpt lat="39.651690" lon="2.574429"><ele>281.32</ele><time>2010-09-04T11:17:11Z</time></trkpt>
<trkpt lat="39.651568" lon="2.574529"><ele>279.40</ele><time>2010-09-04T11:17:17Z</time></trkpt>
<trkpt lat="39.651523" lon="2.574568"><ele>278.92</ele><time>2010-09-04T11:17:24Z</time></trkpt>
<trkpt lat="39.651468" lon="2.574749"><ele>278.44</ele><time>2010-09-04T11:17:32Z</time></trkpt>
<trkpt lat="39.651423" lon="2.574811"><ele>278.44</ele><time>2010-09-04T11:17:35Z</time></trkpt>
<trkpt lat="39.651392" lon="2.574864"><ele>278.44</ele><time>2010-09-04T11:17:38Z</time></trkpt>
<trkpt lat="39.651256" lon="2.574916"><ele>277.96</ele><time>2010-09-04T11:17:47Z</time></trkpt>
<trkpt lat="39.651101" lon="2.574962"><ele>277.96</ele><time>2010-09-04T11:17:58Z</time></trkpt>
<trkpt lat="39.650975" lon="2.574994"><ele>277.48</ele><time>2010-09-04T11:18:06Z</time></trkpt>
<trkpt lat="39.650774" lon="2.575083"><ele>275.56</ele><time>2010-09-04T11:18:13Z</time></trkpt>
<trkpt lat="39.650728" lon="2.575114"><ele>275.07</ele><time>2010-09-04T11:18:14Z</time></trkpt>
<trkpt lat="39.650616" lon="2.575155"><ele>274.59</ele><time>2010-09-04T11:18:16Z</time></trkpt>
<trkpt lat="39.650446" lon="2.575228"><ele>272.67</ele><time>2010-09-04T11:18:19Z</time></trkpt>
<trkpt lat="39.650261" lon="2.575416"><ele>272.19</ele><time>2010-09-04T11:18:23Z</time></trkpt>
<trkpt lat="39.650069" lon="2.575724"><ele>273.63</ele><time>2010-09-04T11:18:31Z</time></trkpt>
<trkpt lat="39.649879" lon="2.575802"><ele>272.67</ele><time>2010-09-04T11:18:35Z</time></trkpt>
<trkpt lat="39.649702" lon="2.575989"><ele>271.23</ele><time>2010-09-04T11:18:39Z</time></trkpt>
<trkpt lat="39.649649" lon="2.576038"><ele>271.23</ele><time>2010-09-04T11:18:40Z</time></trkpt>
<trkpt lat="39.649465" lon="2.576183"><ele>270.27</ele><time>2010-09-04T11:18:43Z</time></trkpt>
<trkpt lat="39.649225" lon="2.576306"><ele>268.35</ele><time>2010-09-04T11:18:47Z</time></trkpt>
<trkpt lat="39.648936" lon="2.576309"><ele>265.94</ele><time>2010-09-04T11:18:52Z</time></trkpt>
<trkpt lat="39.648664" lon="2.576257"><ele>263.06</ele><time>2010-09-04T11:18:56Z</time></trkpt>
<trkpt lat="39.648438" lon="2.576133"><ele>259.69</ele><time>2010-09-04T11:19:00Z</time></trkpt>
<trkpt lat="39.648159" lon="2.576136"><ele>256.81</ele><time>2010-09-04T11:19:05Z</time></trkpt>
<trkpt lat="39.648096" lon="2.576154"><ele>256.33</ele><time>2010-09-04T11:19:06Z</time></trkpt>
<trkpt lat="39.647884" lon="2.576297"><ele>256.81</ele><time>2010-09-04T11:19:11Z</time></trkpt>
<trkpt lat="39.647765" lon="2.576373"><ele>256.81</ele><time>2010-09-04T11:19:15Z</time></trkpt>
<trkpt lat="39.647410" lon="2.576469"><ele>254.89</ele><time>2010-09-04T11:19:21Z</time></trkpt>
<trkpt lat="39.647011" lon="2.576564"><ele>252.48</ele><time>2010-09-04T11:19:26Z</time></trkpt>
<trkpt lat="39.646937" lon="2.576575"><ele>252.00</ele><time>2010-09-04T11:19:27Z</time></trkpt>
<trkpt lat="39.646522" lon="2.576747"><ele>251.52</ele><time>2010-09-04T11:19:33Z</time></trkpt>
<trkpt lat="39.646197" lon="2.577066"><ele>252.48</ele><time>2010-09-04T11:19:40Z</time></trkpt>
<trkpt lat="39.645898" lon="2.577353"><ele>254.41</ele><time>2010-09-04T11:19:48Z</time></trkpt>
<trkpt lat="39.645623" lon="2.577491"><ele>256.33</ele><time>2010-09-04T11:19:55Z</time></trkpt>
<trkpt lat="39.645140" lon="2.577695"><ele>255.85</ele><time>2010-09-04T11:20:06Z</time></trkpt>
<trkpt lat="39.644570" lon="2.577943"><ele>254.89</ele><time>2010-09-04T11:20:17Z</time></trkpt>
<trkpt lat="39.644523" lon="2.577960"><ele>254.41</ele><time>2010-09-04T11:20:18Z</time></trkpt>
<trkpt lat="39.644331" lon="2.577965"><ele>253.44</ele><time>2010-09-04T11:20:22Z</time></trkpt>
<trkpt lat="39.643954" lon="2.578030"><ele>251.52</ele><time>2010-09-04T11:20:28Z</time></trkpt>
<trkpt lat="39.643748" lon="2.577959"><ele>249.12</ele><time>2010-09-04T11:20:32Z</time></trkpt>
<trkpt lat="39.643541" lon="2.577780"><ele>245.27</ele><time>2010-09-04T11:20:36Z</time></trkpt>
<trkpt lat="39.643503" lon="2.577750"><ele>244.79</ele><time>2010-09-04T11:20:37Z</time></trkpt>
<trkpt lat="39.643385" lon="2.577824"><ele>242.87</ele><time>2010-09-04T11:20:42Z</time></trkpt>
<trkpt lat="39.643401" lon="2.577995"><ele>240.95</ele><time>2010-09-04T11:20:45Z</time></trkpt>
<trkpt lat="39.643422" lon="2.578135"><ele>239.99</ele><time>2010-09-04T11:20:47Z</time></trkpt>
<trkpt lat="39.643393" lon="2.578579"><ele>236.62</ele><time>2010-09-04T11:20:52Z</time></trkpt>
<trkpt lat="39.643385" lon="2.578665"><ele>235.66</ele><time>2010-09-04T11:20:53Z</time></trkpt>
<trkpt lat="39.643177" lon="2.579392"><ele>231.81</ele><time>2010-09-04T11:21:02Z</time></trkpt>
<trkpt lat="39.642835" lon="2.579982"><ele>228.93</ele><time>2010-09-04T11:21:10Z</time></trkpt>
<trkpt lat="39.642711" lon="2.580184"><ele>228.45</ele><time>2010-09-04T11:21:13Z</time></trkpt>
<trkpt lat="39.642540" lon="2.580505"><ele>226.05</ele><time>2010-09-04T11:21:19Z</time></trkpt>
<trkpt lat="39.642537" lon="2.580498"><ele>226.05</ele><time>2010-09-04T11:21:27Z</time></trkpt>
<trkpt lat="39.642506" lon="2.580571"><ele>226.05</ele><time>2010-09-04T11:22:08Z</time></trkpt>
<trkpt lat="39.642347" lon="2.580876"><ele>225.57</ele><time>2010-09-04T11:22:13Z</time></trkpt>
<trkpt lat="39.642231" lon="2.581112"><ele>224.61</ele><time>2010-09-04T11:22:16Z</time></trkpt>
<trkpt lat="39.642124" lon="2.581600"><ele>223.16</ele><time>2010-09-04T11:22:21Z</time></trkpt>
<trkpt lat="39.642033" lon="2.581953"><ele>221.72</ele><time>2010-09-04T11:22:25Z</time></trkpt>
<trkpt lat="39.641915" lon="2.582117"><ele>220.76</ele><time>2010-09-04T11:22:31Z</time></trkpt>
<trkpt lat="39.641828" lon="2.582396"><ele>220.28</ele><time>2010-09-04T11:22:39Z</time></trkpt>
<trkpt lat="39.641730" lon="2.582819"><ele>219.80</ele><time>2010-09-04T11:22:48Z</time></trkpt>
<trkpt lat="39.641732" lon="2.583178"><ele>217.40</ele><time>2010-09-04T11:22:55Z</time></trkpt>
<trkpt lat="39.641706" lon="2.583598"><ele>215.95</ele><time>2010-09-04T11:23:03Z</time></trkpt>
<trkpt lat="39.641740" lon="2.583811"><ele>214.99</ele><time>2010-09-04T11:23:07Z</time></trkpt>
<trkpt lat="39.641876" lon="2.584086"><ele>214.99</ele><time>2010-09-04T11:23:13Z</time></trkpt>
<trkpt lat="39.641921" lon="2.584243"><ele>214.51</ele><time>2010-09-04T11:23:16Z</time></trkpt>
<trkpt lat="39.641960" lon="2.584854"><ele>214.03</ele><time>2010-09-04T11:23:26Z</time></trkpt>
<trkpt lat="39.642027" lon="2.585325"><ele>214.03</ele><time>2010-09-04T11:23:34Z</time></trkpt>
<trkpt lat="39.642068" lon="2.585582"><ele>214.51</ele><time>2010-09-04T11:23:39Z</time></trkpt>
<trkpt lat="39.642074" lon="2.586025"><ele>214.51</ele><time>2010-09-04T11:23:47Z</time></trkpt>
<trkpt lat="39.642075" lon="2.586311"><ele>214.51</ele><time>2010-09-04T11:23:52Z</time></trkpt>
<trkpt lat="39.642084" lon="2.586474"><ele>214.99</ele><time>2010-09-04T11:23:55Z</time></trkpt>
<trkpt lat="39.642064" lon="2.586712"><ele>213.55</ele><time>2010-09-04T11:23:59Z</time></trkpt>
<trkpt lat="39.642012" lon="2.586901"><ele>212.59</ele><time>2010-09-04T11:24:02Z</time></trkpt>
<trkpt lat="39.641837" lon="2.587351"><ele>209.70</ele><time>2010-09-04T11:24:08Z</time></trkpt>
<trkpt lat="39.641606" lon="2.588007"><ele>207.78</ele><time>2010-09-04T11:24:16Z</time></trkpt>
<trkpt lat="39.641549" lon="2.588225"><ele>206.34</ele><time>2010-09-04T11:24:19Z</time></trkpt>
<trkpt lat="39.641407" lon="2.588734"><ele>204.42</ele><time>2010-09-04T11:24:27Z</time></trkpt>
<trkpt lat="39.641295" lon="2.589267"><ele>203.46</ele><time>2010-09-04T11:24:35Z</time></trkpt>
<trkpt lat="39.641253" lon="2.589946"><ele>202.01</ele><time>2010-09-04T11:24:45Z</time></trkpt>
<trkpt lat="39.641324" lon="2.590471"><ele>201.53</ele><time>2010-09-04T11:24:53Z</time></trkpt>
<trkpt lat="39.641396" lon="2.590794"><ele>201.53</ele><time>2010-09-04T11:24:58Z</time></trkpt>
<trkpt lat="39.641367" lon="2.591128"><ele>200.57</ele><time>2010-09-04T11:25:03Z</time></trkpt>
<trkpt lat="39.641076" lon="2.591693"><ele>197.69</ele><time>2010-09-04T11:25:11Z</time></trkpt>
<trkpt lat="39.641002" lon="2.591860"><ele>196.73</ele><time>2010-09-04T11:25:13Z</time></trkpt>
<trkpt lat="39.640955" lon="2.592047"><ele>196.25</ele><time>2010-09-04T11:25:15Z</time></trkpt>
<trkpt lat="39.640959" lon="2.592421"><ele>194.32</ele><time>2010-09-04T11:25:19Z</time></trkpt>
<trkpt lat="39.641120" lon="2.593114"><ele>193.84</ele><time>2010-09-04T11:25:28Z</time></trkpt>
<trkpt lat="39.641321" lon="2.593811"><ele>192.88</ele><time>2010-09-04T11:25:38Z</time></trkpt>
<trkpt lat="39.641547" lon="2.594506"><ele>191.44</ele><time>2010-09-04T11:25:48Z</time></trkpt>
<trkpt lat="39.641655" lon="2.594808"><ele>190.00</ele><time>2010-09-04T11:25:52Z</time></trkpt>
<trkpt lat="39.641695" lon="2.594993"><ele>189.52</ele><time>2010-09-04T11:25:54Z</time></trkpt>
<trkpt lat="39.641794" lon="2.595480"><ele>187.11</ele><time>2010-09-04T11:25:59Z</time></trkpt>
<trkpt lat="39.641838" lon="2.595680"><ele>185.67</ele><time>2010-09-04T11:26:01Z</time></trkpt>
<trkpt lat="39.641943" lon="2.596323"><ele>184.23</ele><time>2010-09-04T11:26:08Z</time></trkpt>
<trkpt lat="39.641948" lon="2.596851"><ele>182.79</ele><time>2010-09-04T11:26:14Z</time></trkpt>
<trkpt lat="39.641857" lon="2.597404"><ele>181.83</ele><time>2010-09-04T11:26:21Z</time></trkpt>
<trkpt lat="39.641848" lon="2.597562"><ele>181.35</ele><time>2010-09-04T11:26:23Z</time></trkpt>
<trkpt lat="39.641906" lon="2.598002"><ele>179.90</ele><time>2010-09-04T11:26:30Z</time></trkpt>
<trkpt lat="39.641770" lon="2.598150"><ele>179.90</ele><time>2010-09-04T11:26:35Z</time></trkpt>
<trkpt lat="39.641402" lon="2.598270"><ele>179.90</ele><time>2010-09-04T11:26:44Z</time></trkpt>
<trkpt lat="39.641001" lon="2.598399"><ele>180.87</ele><time>2010-09-04T11:26:54Z</time></trkpt>
<trkpt lat="39.640706" lon="2.598498"><ele>183.27</ele><time>2010-09-04T11:27:04Z</time></trkpt>
<trkpt lat="39.640528" lon="2.598636"><ele>184.23</ele><time>2010-09-04T11:27:11Z</time></trkpt>
<trkpt lat="39.640192" lon="2.598786"><ele>184.71</ele><time>2010-09-04T11:27:22Z</time></trkpt>
<trkpt lat="39.639879" lon="2.598837"><ele>184.23</ele><time>2010-09-04T11:27:29Z</time></trkpt>
<trkpt lat="39.639756" lon="2.598821"><ele>184.71</ele><time>2010-09-04T11:27:32Z</time></trkpt>
<trkpt lat="39.639601" lon="2.598887"><ele>184.71</ele><time>2010-09-04T11:27:36Z</time></trkpt>
<trkpt lat="39.639011" lon="2.599484"><ele>182.79</ele><time>2010-09-04T11:27:50Z</time></trkpt>
<trkpt lat="39.638512" lon="2.600025"><ele>182.31</ele><time>2010-09-04T11:28:02Z</time></trkpt>
<trkpt lat="39.638443" lon="2.600115"><ele>182.31</ele><time>2010-09-04T11:28:04Z</time></trkpt>
<trkpt lat="39.638338" lon="2.600405"><ele>182.31</ele><time>2010-09-04T11:28:09Z</time></trkpt>
<trkpt lat="39.638162" lon="2.601092"><ele>181.35</ele><time>2010-09-04T11:28:20Z</time></trkpt>
<trkpt lat="39.638030" lon="2.601448"><ele>179.90</ele><time>2010-09-04T11:28:25Z</time></trkpt>
<trkpt lat="39.637838" lon="2.601672"><ele>178.46</ele><time>2010-09-04T11:28:29Z</time></trkpt>
<trkpt lat="39.637304" lon="2.602025"><ele>175.10</ele><time>2010-09-04T11:28:37Z</time></trkpt>
<trkpt lat="39.636759" lon="2.602405"><ele>171.73</ele><time>2010-09-04T11:28:44Z</time></trkpt>
<trkpt lat="39.636328" lon="2.602665"><ele>168.85</ele><time>2010-09-04T11:28:49Z</time></trkpt>
<trkpt lat="39.636239" lon="2.602699"><ele>168.37</ele><time>2010-09-04T11:28:50Z</time></trkpt>
<trkpt lat="39.635955" lon="2.602775"><ele>166.93</ele><time>2010-09-04T11:28:53Z</time></trkpt>
<trkpt lat="39.635213" lon="2.602938"><ele>164.52</ele><time>2010-09-04T11:29:02Z</time></trkpt>
<trkpt lat="39.634742" lon="2.603108"><ele>164.52</ele><time>2010-09-04T11:29:09Z</time></trkpt>
<trkpt lat="39.634330" lon="2.603364"><ele>165.96</ele><time>2010-09-04T11:29:17Z</time></trkpt>
<trkpt lat="39.634153" lon="2.603479"><ele>166.93</ele><time>2010-09-04T11:29:21Z</time></trkpt>
<trkpt lat="39.634006" lon="2.603703"><ele>167.89</ele><time>2010-09-04T11:29:26Z</time></trkpt>
<trkpt lat="39.633994" lon="2.603768"><ele>167.89</ele><time>2010-09-04T11:29:27Z</time></trkpt>
<trkpt lat="39.633975" lon="2.604172"><ele>168.85</ele><time>2010-09-04T11:29:34Z</time></trkpt>
<trkpt lat="39.633961" lon="2.604279"><ele>169.33</ele><time>2010-09-04T11:29:36Z</time></trkpt>
<trkpt lat="39.633938" lon="2.604381"><ele>169.81</ele><time>2010-09-04T11:29:38Z</time></trkpt>
<trkpt lat="39.633727" lon="2.604654"><ele>169.81</ele><time>2010-09-04T11:29:45Z</time></trkpt>
<trkpt lat="39.633264" lon="2.604882"><ele>169.33</ele><time>2010-09-04T11:29:56Z</time></trkpt>
<trkpt lat="39.633165" lon="2.604901"><ele>168.85</ele><time>2010-09-04T11:29:58Z</time></trkpt>
<trkpt lat="39.632997" lon="2.605024"><ele>169.33</ele><time>2010-09-04T11:30:02Z</time></trkpt>
<trkpt lat="39.632904" lon="2.605152"><ele>169.33</ele><time>2010-09-04T11:30:05Z</time></trkpt>
<trkpt lat="39.632724" lon="2.605240"><ele>168.85</ele><time>2010-09-04T11:30:09Z</time></trkpt>
<trkpt lat="39.632273" lon="2.605330"><ele>165.48</ele><time>2010-09-04T11:30:16Z</time></trkpt>
<trkpt lat="39.631963" lon="2.605608"><ele>163.56</ele><time>2010-09-04T11:30:21Z</time></trkpt>
<trkpt lat="39.631709" lon="2.605952"><ele>162.12</ele><time>2010-09-04T11:30:26Z</time></trkpt>
<trkpt lat="39.631592" lon="2.606072"><ele>161.16</ele><time>2010-09-04T11:30:28Z</time></trkpt>
<trkpt lat="39.631526" lon="2.606130"><ele>160.68</ele><time>2010-09-04T11:30:29Z</time></trkpt>
<trkpt lat="39.631356" lon="2.606432"><ele>160.68</ele><time>2010-09-04T11:30:33Z</time></trkpt>
<trkpt lat="39.631353" lon="2.606524"><ele>160.20</ele><time>2010-09-04T11:30:34Z</time></trkpt>
<trkpt lat="39.631302" lon="2.607045"><ele>161.16</ele><time>2010-09-04T11:30:41Z</time></trkpt>
<trkpt lat="39.631309" lon="2.607314"><ele>161.64</ele><time>2010-09-04T11:30:45Z</time></trkpt>
<trkpt lat="39.631378" lon="2.607965"><ele>162.12</ele><time>2010-09-04T11:30:55Z</time></trkpt>
<trkpt lat="39.631384" lon="2.608148"><ele>162.60</ele><time>2010-09-04T11:30:58Z</time></trkpt>
<trkpt lat="39.631340" lon="2.608412"><ele>164.52</ele><time>2010-09-04T11:31:03Z</time></trkpt>
<trkpt lat="39.631175" lon="2.608695"><ele>165.96</ele><time>2010-09-04T11:31:10Z</time></trkpt>
<trkpt lat="39.630813" lon="2.609110"><ele>165.96</ele><time>2010-09-04T11:31:21Z</time></trkpt>
<trkpt lat="39.630706" lon="2.609237"><ele>165.96</ele><time>2010-09-04T11:31:24Z</time></trkpt>
<trkpt lat="39.630424" lon="2.609672"><ele>165.00</ele><time>2010-09-04T11:31:33Z</time></trkpt>
<trkpt lat="39.630308" lon="2.609936"><ele>163.08</ele><time>2010-09-04T11:31:37Z</time></trkpt>
<trkpt lat="39.630156" lon="2.610528"><ele>159.72</ele><time>2010-09-04T11:31:44Z</time></trkpt>
<trkpt lat="39.629925" lon="2.611406"><ele>157.31</ele><time>2010-09-04T11:31:53Z</time></trkpt>
<trkpt lat="39.629782" lon="2.612082"><ele>153.47</ele><time>2010-09-04T11:31:59Z</time></trkpt>
<trkpt lat="39.629659" lon="2.612680"><ele>150.58</ele><time>2010-09-04T11:32:04Z</time></trkpt>
<trkpt lat="39.629618" lon="2.613061"><ele>149.14</ele><time>2010-09-04T11:32:07Z</time></trkpt>
<trkpt lat="39.629525" lon="2.613728"><ele>145.78</ele><time>2010-09-04T11:32:12Z</time></trkpt>
<trkpt lat="39.629456" lon="2.614115"><ele>143.37</ele><time>2010-09-04T11:32:15Z</time></trkpt>
<trkpt lat="39.629225" lon="2.614523"><ele>141.93</ele><time>2010-09-04T11:32:19Z</time></trkpt>
<trkpt lat="39.629007" lon="2.614803"><ele>140.49</ele><time>2010-09-04T11:32:22Z</time></trkpt>
<trkpt lat="39.628733" lon="2.615333"><ele>140.01</ele><time>2010-09-04T11:32:27Z</time></trkpt>
<trkpt lat="39.628426" lon="2.615981"><ele>139.53</ele><time>2010-09-04T11:32:34Z</time></trkpt>
<trkpt lat="39.628289" lon="2.616465"><ele>139.05</ele><time>2010-09-04T11:32:40Z</time></trkpt>
<trkpt lat="39.628219" lon="2.616935"><ele>139.05</ele><time>2010-09-04T11:32:47Z</time></trkpt>
<trkpt lat="39.628072" lon="2.617732"><ele>138.09</ele><time>2010-09-04T11:32:59Z</time></trkpt>
<trkpt lat="39.627845" lon="2.618275"><ele>138.57</ele><time>2010-09-04T11:33:08Z</time></trkpt>
<trkpt lat="39.627776" lon="2.618808"><ele>139.05</ele><time>2010-09-04T11:33:16Z</time></trkpt>
<trkpt lat="39.627786" lon="2.619018"><ele>139.53</ele><time>2010-09-04T11:33:19Z</time></trkpt>
<trkpt lat="39.627696" lon="2.619555"><ele>140.01</ele><time>2010-09-04T11:33:27Z</time></trkpt>
<trkpt lat="39.627637" lon="2.620299"><ele>140.01</ele><time>2010-09-04T11:33:38Z</time></trkpt>
<trkpt lat="39.627555" lon="2.620674"><ele>140.97</ele><time>2010-09-04T11:33:44Z</time></trkpt>
<trkpt lat="39.627515" lon="2.620793"><ele>140.97</ele><time>2010-09-04T11:33:46Z</time></trkpt>
<trkpt lat="39.627417" lon="2.620973"><ele>141.45</ele><time>2010-09-04T11:33:50Z</time></trkpt>
<trkpt lat="39.627134" lon="2.621315"><ele>140.97</ele><time>2010-09-04T11:34:00Z</time></trkpt>
<trkpt lat="39.626951" lon="2.621294"><ele>140.49</ele><time>2010-09-04T11:34:05Z</time></trkpt>
<trkpt lat="39.626828" lon="2.621297"><ele>139.53</ele><time>2010-09-04T11:34:08Z</time></trkpt>
<trkpt lat="39.626595" lon="2.621439"><ele>138.09</ele><time>2010-09-04T11:34:13Z</time></trkpt>
<trkpt lat="39.626467" lon="2.621625"><ele>137.13</ele><time>2010-09-04T11:34:16Z</time></trkpt>
<trkpt lat="39.626321" lon="2.622044"><ele>136.16</ele><time>2010-09-04T11:34:21Z</time></trkpt>
<trkpt lat="39.626073" lon="2.622370"><ele>135.20</ele><time>2010-09-04T11:34:26Z</time></trkpt>
<trkpt lat="39.626007" lon="2.622405"><ele>135.20</ele><time>2010-09-04T11:34:27Z</time></trkpt>
<trkpt lat="39.625790" lon="2.622491"><ele>134.24</ele><time>2010-09-04T11:34:30Z</time></trkpt>
<trkpt lat="39.625604" lon="2.622791"><ele>131.36</ele><time>2010-09-04T11:34:34Z</time></trkpt>
<trkpt lat="39.625339" lon="2.623271"><ele>127.51</ele><time>2010-09-04T11:34:39Z</time></trkpt>
<trkpt lat="39.625003" lon="2.623573"><ele>123.67</ele><time>2010-09-04T11:34:43Z</time></trkpt>
<trkpt lat="39.624377" lon="2.624080"><ele>120.78</ele><time>2010-09-04T11:34:50Z</time></trkpt>
<trkpt lat="39.624205" lon="2.624225"><ele>119.34</ele><time>2010-09-04T11:34:52Z</time></trkpt>
<trkpt lat="39.623859" lon="2.624552"><ele>115.98</ele><time>2010-09-04T11:34:56Z</time></trkpt>
<trkpt lat="39.623770" lon="2.624638"><ele>115.98</ele><time>2010-09-04T11:34:57Z</time></trkpt>
<trkpt lat="39.623423" lon="2.624982"><ele>114.05</ele><time>2010-09-04T11:35:01Z</time></trkpt>
<trkpt lat="39.622811" lon="2.625506"><ele>111.17</ele><time>2010-09-04T11:35:08Z</time></trkpt>
<trkpt lat="39.622102" lon="2.625916"><ele>108.77</ele><time>2010-09-04T11:35:16Z</time></trkpt>
<trkpt lat="39.621361" lon="2.626294"><ele>105.88</ele><time>2010-09-04T11:35:25Z</time></trkpt>
<trkpt lat="39.620449" lon="2.626683"><ele>103.48</ele><time>2010-09-04T11:35:37Z</time></trkpt>
<trkpt lat="39.619695" lon="2.627009"><ele>101.56</ele><time>2010-09-04T11:35:47Z</time></trkpt>
<trkpt lat="39.618732" lon="2.627460"><ele>99.63</ele><time>2010-09-04T11:36:00Z</time></trkpt>
<trkpt lat="39.618060" lon="2.627973"><ele>99.15</ele><time>2010-09-04T11:36:10Z</time></trkpt>
<trkpt lat="39.617269" lon="2.628669"><ele>97.71</ele><time>2010-09-04T11:36:23Z</time></trkpt>
<trkpt lat="39.616473" lon="2.629316"><ele>96.27</ele><time>2010-09-04T11:36:37Z</time></trkpt>
<trkpt lat="39.615670" lon="2.629904"><ele>95.31</ele><time>2010-09-04T11:36:52Z</time></trkpt>
<trkpt lat="39.615412" lon="2.630071"><ele>93.87</ele><time>2010-09-04T11:37:00Z</time></trkpt>
<trkpt lat="39.615166" lon="2.630163"><ele>93.87</ele><time>2010-09-04T11:37:08Z</time></trkpt>
<trkpt lat="39.614798" lon="2.630335"><ele>93.87</ele><time>2010-09-04T11:37:17Z</time></trkpt>
<trkpt lat="39.614276" lon="2.630586"><ele>92.42</ele><time>2010-09-04T11:37:29Z</time></trkpt>
<trkpt lat="39.614230" lon="2.630609"><ele>92.42</ele><time>2010-09-04T11:37:30Z</time></trkpt>
<trkpt lat="39.613651" lon="2.630853"><ele>91.94</ele><time>2010-09-04T11:37:42Z</time></trkpt>
<trkpt lat="39.612980" lon="2.631169"><ele>89.54</ele><time>2010-09-04T11:37:55Z</time></trkpt>
<trkpt lat="39.612437" lon="2.631378"><ele>88.58</ele><time>2010-09-04T11:38:05Z</time></trkpt>
<trkpt lat="39.612213" lon="2.631412"><ele>88.10</ele><time>2010-09-04T11:38:11Z</time></trkpt>
<trkpt lat="39.612066" lon="2.631442"><ele>88.10</ele><time>2010-09-04T11:38:18Z</time></trkpt>
<trkpt lat="39.612021" lon="2.631503"><ele>88.10</ele><time>2010-09-04T11:38:21Z</time></trkpt>
<trkpt lat="39.611818" lon="2.631595"><ele>88.58</ele><time>2010-09-04T11:38:28Z</time></trkpt>
<trkpt lat="39.611370" lon="2.631735"><ele>89.54</ele><time>2010-09-04T11:38:39Z</time></trkpt>
<trkpt lat="39.610869" lon="2.631933"><ele>89.54</ele><time>2010-09-04T11:38:50Z</time></trkpt>
<trkpt lat="39.610223" lon="2.632183"><ele>88.58</ele><time>2010-09-04T11:39:03Z</time></trkpt>
<trkpt lat="39.609578" lon="2.632427"><ele>87.62</ele><time>2010-09-04T11:39:15Z</time></trkpt>
<trkpt lat="39.609521" lon="2.632443"><ele>87.14</ele><time>2010-09-04T11:39:16Z</time></trkpt>
<trkpt lat="39.609289" lon="2.632473"><ele>87.62</ele><time>2010-09-04T11:39:20Z</time></trkpt>
<trkpt lat="39.608702" lon="2.632784"><ele>85.69</ele><time>2010-09-04T11:39:30Z</time></trkpt>
<trkpt lat="39.608126" lon="2.633120"><ele>85.21</ele><time>2010-09-04T11:39:40Z</time></trkpt>
<trkpt lat="39.607211" lon="2.633633"><ele>83.29</ele><time>2010-09-04T11:39:56Z</time></trkpt>
<trkpt lat="39.606343" lon="2.634103"><ele>81.85</ele><time>2010-09-04T11:40:10Z</time></trkpt>
<trkpt lat="39.605592" lon="2.634523"><ele>80.41</ele><time>2010-09-04T11:40:22Z</time></trkpt>
<trkpt lat="39.604975" lon="2.634857"><ele>79.45</ele><time>2010-09-04T11:40:33Z</time></trkpt>
<trkpt lat="39.604310" lon="2.635232"><ele>77.52</ele><time>2010-09-04T11:40:45Z</time></trkpt>
<trkpt lat="39.603583" lon="2.635637"><ele>76.08</ele><time>2010-09-04T11:40:57Z</time></trkpt>
<trkpt lat="39.602649" lon="2.636147"><ele>73.68</ele><time>2010-09-04T11:41:12Z</time></trkpt>
<trkpt lat="39.601776" lon="2.636597"><ele>72.72</ele><time>2010-09-04T11:41:26Z</time></trkpt>
<trkpt lat="39.600894" lon="2.637109"><ele>70.31</ele><time>2010-09-04T11:41:40Z</time></trkpt>
<trkpt lat="39.600354" lon="2.637567"><ele>68.87</ele><time>2010-09-04T11:41:49Z</time></trkpt>
<trkpt lat="39.599789" lon="2.638079"><ele>67.43</ele><time>2010-09-04T11:42:00Z</time></trkpt>
<trkpt lat="39.599607" lon="2.638250"><ele>66.47</ele><time>2010-09-04T11:42:06Z</time></trkpt>
<trkpt lat="39.599567" lon="2.638308"><ele>65.99</ele><time>2010-09-04T11:42:09Z</time></trkpt>
<trkpt lat="39.599611" lon="2.638466"><ele>65.99</ele><time>2010-09-04T11:42:13Z</time></trkpt>
<trkpt lat="39.599715" lon="2.638662"><ele>65.99</ele><time>2010-09-04T11:42:19Z</time></trkpt>
<trkpt lat="39.599692" lon="2.638613"><ele>65.99</ele><time>2010-09-04T11:42:26Z</time></trkpt>
<trkpt lat="39.599633" lon="2.638682"><ele>65.99</ele><time>2010-09-04T11:42:34Z</time></trkpt>
<trkpt lat="39.599643" lon="2.638673"><ele>65.99</ele><time>2010-09-04T11:43:21Z</time></trkpt>
<trkpt lat="39.599650" lon="2.638679"><ele>65.99</ele><time>2010-09-04T11:43:27Z</time></trkpt>
<trkpt lat="39.599735" lon="2.638818"><ele>65.51</ele><time>2010-09-04T11:43:35Z</time></trkpt>
<trkpt lat="39.599827" lon="2.638968"><ele>65.03</ele><time>2010-09-04T11:43:39Z</time></trkpt>
</trkseg></trk></gpx>